PWSweather.com
Personal Weather Stations
Station Observations
DAVIS2016
WorthingGB

WorthingGB

Lat: 50.8130266, Lon: -0.3832443000000012

Elevation: 34.8

Station Type: davis vantage vue 6250

High Low Average
Temperature 63.5°F17.5°C 47.4°F8.6°C 56.2°F13.4°C
Dew Point 53.3°F11.8°C 39.7°F4.3°C 46.3°F7.9°C
Winds 12.0 mph 19.3 kmh Calm Calm 7.0 mph ENE11.3 kmh ENE
Wind Gusts 26.0 mph41.8 kmh 4.0 mph6.4 kmh 16.0 mph25.7 kmh
Humidity 80% 56% 70%
Pressure 30.31 in1026.4 mb 30.09 in1019.0 mb -
Precipitation 0.00 in0.0 mm - -
Hour Temp Dew Point Humidity Winds Wind Gusts Pressure Precip Precip Rate Daily Precip Total
12:00 AM 58.6°F14.8°C 47.7°F8.7°C 67% 2.0 mph N3.2 kmh N 5.0 mph8.0 kmh 30.11 in1019.6 mb 0.00 in0.0 mm 0.00 in0.0 mm 0.00 in0.0 mm
12:01 AM 58.6°F14.8°C 47.7°F8.7°C 67% 2.0 mph N3.2 kmh N 7.0 mph11.3 kmh 30.11 in1019.6 mb 0.00 in0.0 mm 0.00 in0.0 mm 0.00 in0.0 mm
12:03 AM 58.5°F14.7°C 47.6°F8.7°C 67% 2.0 mph N3.2 kmh N 7.0 mph11.3 kmh 30.11 in1019.6 mb 0.00 in0.0 mm 0.00 in0.0 mm 0.00 in0.0 mm
12:04 AM 58.5°F14.7°C 47.6°F8.7°C 67% 2.0 mph N3.2 kmh N 7.0 mph11.3 kmh 30.11 in1019.6 mb 0.00 in0.0 mm 0.00 in0.0 mm 0.00 in0.0 mm
12:06 AM 58.5°F14.7°C 47.6°F8.7°C 67% 2.0 mph N3.2 kmh N 7.0 mph11.3 kmh 30.11 in1019.6 mb 0.00 in0.0 mm 0.00 in0.0 mm 0.00 in0.0 mm
12:07 AM 58.4°F14.7°C 47.5°F8.6°C 67% 2.0 mph N3.2 kmh N 7.0 mph11.3 kmh 30.11 in1019.6 mb 0.00 in0.0 mm 0.00 in0.0 mm 0.00 in0.0 mm
12:09 AM 58.4°F14.7°C 47.5°F8.6°C 67% 2.0 mph N3.2 kmh N 7.0 mph11.3 kmh 30.11 in1019.6 mb 0.00 in0.0 mm 0.00 in0.0 mm 0.00 in0.0 mm
12:11 AM 58.3°F14.6°C 47.4°F8.6°C 67% 2.0 mph N3.2 kmh N 6.0 mph9.7 kmh 30.11 in1019.6 mb 0.00 in0.0 mm 0.00 in0.0 mm 0.00 in0.0 mm
12:12 AM 58.3°F14.6°C 47.4°F8.6°C 67% 2.0 mph N3.2 kmh N 6.0 mph9.7 kmh 30.11 in1019.6 mb 0.00 in0.0 mm 0.00 in0.0 mm 0.00 in0.0 mm
12:14 AM 58.3°F14.6°C 47.4°F8.6°C 67% 2.0 mph N3.2 kmh N 6.0 mph9.7 kmh 30.11 in1019.6 mb 0.00 in0.0 mm 0.00 in0.0 mm 0.00 in0.0 mm
12:15 AM 58.2°F14.6°C 46.9°F8.3°C 66% 2.0 mph N3.2 kmh N 6.0 mph9.7 kmh 30.11 in1019.6 mb 0.00 in0.0 mm 0.00 in0.0 mm 0.00 in0.0 mm
12:17 AM 58.2°F14.6°C 46.9°F8.3°C 66% 2.0 mph N3.2 kmh N 6.0 mph9.7 kmh 30.11 in1019.6 mb 0.00 in0.0 mm 0.00 in0.0 mm 0.00 in0.0 mm
12:18 AM 58.2°F14.6°C 46.9°F8.3°C 66% 2.0 mph N3.2 kmh N 6.0 mph9.7 kmh 30.11 in1019.6 mb 0.00 in0.0 mm 0.00 in0.0 mm 0.00 in0.0 mm
12:20 AM 58.1°F14.5°C 46.8°F8.2°C 66% 2.0 mph N3.2 kmh N 5.0 mph8.0 kmh 30.11 in1019.6 mb 0.00 in0.0 mm 0.00 in0.0 mm 0.00 in0.0 mm
12:21 AM 58.1°F14.5°C 46.8°F8.2°C 66% 2.0 mph N3.2 kmh N 5.0 mph8.0 kmh 30.11 in1019.6 mb 0.00 in0.0 mm 0.00 in0.0 mm 0.00 in0.0 mm
12:23 AM 58.1°F14.5°C 46.8°F8.2°C 66% 2.0 mph N3.2 kmh N 5.0 mph8.0 kmh 30.11 in1019.6 mb 0.00 in0.0 mm 0.00 in0.0 mm 0.00 in0.0 mm
12:24 AM 58.1°F14.5°C 46.8°F8.2°C 66% 2.0 mph NNW3.2 kmh NNW 5.0 mph8.0 kmh 30.11 in1019.6 mb 0.00 in0.0 mm 0.00 in0.0 mm 0.00 in0.0 mm
12:26 AM 58.0°F14.4°C 46.7°F8.2°C 66% 1.0 mph NNW1.6 kmh NNW 4.0 mph6.4 kmh 30.11 in1019.6 mb 0.00 in0.0 mm 0.00 in0.0 mm 0.00 in0.0 mm
12:27 AM 58.0°F14.4°C 46.3°F7.9°C 65% 1.0 mph NW1.6 kmh NW 4.0 mph6.4 kmh 30.11 in1019.6 mb 0.00 in0.0 mm 0.00 in0.0 mm 0.00 in0.0 mm
12:29 AM 58.0°F14.4°C 46.3°F7.9°C 65% 1.0 mph NW1.6 kmh NW 4.0 mph6.4 kmh 30.11 in1019.6 mb 0.00 in0.0 mm 0.00 in0.0 mm 0.00 in0.0 mm
12:30 AM 57.9°F14.4°C 46.2°F7.9°C 65% 1.0 mph NW1.6 kmh NW 4.0 mph6.4 kmh 30.11 in1019.6 mb 0.00 in0.0 mm 0.00 in0.0 mm 0.00 in0.0 mm
12:32 AM 57.9°F14.4°C 46.2°F7.9°C 65% 2.0 mph NW3.2 kmh NW 5.0 mph8.0 kmh 30.11 in1019.6 mb 0.00 in0.0 mm 0.00 in0.0 mm 0.00 in0.0 mm
12:33 AM 57.9°F14.4°C 46.2°F7.9°C 65% 2.0 mph NW3.2 kmh NW 5.0 mph8.0 kmh 30.11 in1019.6 mb 0.00 in0.0 mm 0.00 in0.0 mm 0.00 in0.0 mm
12:35 AM 57.8°F14.3°C 46.1°F7.8°C 65% 2.0 mph NW3.2 kmh NW 5.0 mph8.0 kmh 30.11 in1019.6 mb 0.00 in0.0 mm 0.00 in0.0 mm 0.00 in0.0 mm
12:36 AM 57.8°F14.3°C 46.1°F7.8°C 65% 2.0 mph NW3.2 kmh NW 6.0 mph9.7 kmh 30.11 in1019.6 mb 0.00 in0.0 mm 0.00 in0.0 mm 0.00 in0.0 mm
12:38 AM 57.8°F14.3°C 46.1°F7.8°C 65% 2.0 mph NNW3.2 kmh NNW 6.0 mph9.7 kmh 30.11 in1019.6 mb 0.00 in0.0 mm 0.00 in0.0 mm 0.00 in0.0 mm
12:39 AM 57.8°F14.3°C 46.1°F7.8°C 65% 2.0 mph NNW3.2 kmh NNW 6.0 mph9.7 kmh 30.11 in1019.6 mb 0.00 in0.0 mm 0.00 in0.0 mm 0.00 in0.0 mm
12:41 AM 57.7°F14.3°C 46.0°F7.8°C 65% 2.0 mph NNW3.2 kmh NNW 6.0 mph9.7 kmh 30.11 in1019.6 mb 0.00 in0.0 mm 0.00 in0.0 mm 0.00 in0.0 mm
12:42 AM 57.7°F14.3°C 46.0°F7.8°C 65% 2.0 mph NNW3.2 kmh NNW 6.0 mph9.7 kmh 30.11 in1019.6 mb 0.00 in0.0 mm 0.00 in0.0 mm 0.00 in0.0 mm
12:44 AM 57.6°F14.2°C 45.9°F7.7°C 65% 2.0 mph NNW3.2 kmh NNW 6.0 mph9.7 kmh 30.11 in1019.6 mb 0.00 in0.0 mm 0.00 in0.0 mm 0.00 in0.0 mm
12:45 AM 57.6°F14.2°C 45.9°F7.7°C 65% 2.0 mph NNW3.2 kmh NNW 6.0 mph9.7 kmh 30.11 in1019.6 mb 0.00 in0.0 mm 0.00 in0.0 mm 0.00 in0.0 mm
12:46 AM 57.6°F14.2°C 45.9°F7.7°C 65% 2.0 mph NNW3.2 kmh NNW 5.0 mph8.0 kmh 30.11 in1019.6 mb 0.00 in0.0 mm 0.00 in0.0 mm 0.00 in0.0 mm
12:48 AM 57.6°F14.2°C 45.9°F7.7°C 65% 2.0 mph NNW3.2 kmh NNW 5.0 mph8.0 kmh 30.11 in1019.6 mb 0.00 in0.0 mm 0.00 in0.0 mm 0.00 in0.0 mm
12:49 AM 57.6°F14.2°C 45.9°F7.7°C 65% 2.0 mph NNW3.2 kmh NNW 5.0 mph8.0 kmh 30.11 in1019.6 mb 0.00 in0.0 mm 0.00 in0.0 mm 0.00 in0.0 mm
12:51 AM 57.5°F14.2°C 45.8°F7.7°C 65% 2.0 mph N3.2 kmh N 5.0 mph8.0 kmh 30.11 in1019.6 mb 0.00 in0.0 mm 0.00 in0.0 mm 0.00 in0.0 mm
12:52 AM 57.5°F14.2°C 45.8°F7.7°C 65% 2.0 mph N3.2 kmh N 5.0 mph8.0 kmh 30.11 in1019.6 mb 0.00 in0.0 mm 0.00 in0.0 mm 0.00 in0.0 mm
12:54 AM 57.5°F14.2°C 45.8°F7.7°C 65% 2.0 mph N3.2 kmh N 5.0 mph8.0 kmh 30.11 in1019.6 mb 0.00 in0.0 mm 0.00 in0.0 mm 0.00 in0.0 mm
12:55 AM 57.5°F14.2°C 45.8°F7.7°C 65% 1.0 mph N1.6 kmh N 5.0 mph8.0 kmh 30.11 in1019.6 mb 0.00 in0.0 mm 0.00 in0.0 mm 0.00 in0.0 mm
12:57 AM 57.4°F14.1°C 45.7°F7.6°C 65% 1.0 mph N1.6 kmh N 5.0 mph8.0 kmh 30.11 in1019.6 mb 0.00 in0.0 mm 0.00 in0.0 mm 0.00 in0.0 mm
12:58 AM 57.4°F14.1°C 46.1°F7.8°C 66% 1.0 mph N1.6 kmh N 6.0 mph9.7 kmh 30.11 in1019.6 mb 0.00 in0.0 mm 0.00 in0.0 mm 0.00 in0.0 mm
01:00 AM 57.5°F14.2°C 46.2°F7.9°C 66% 1.0 mph N1.6 kmh N 6.0 mph9.7 kmh 30.11 in1019.6 mb 0.00 in0.0 mm 0.00 in0.0 mm 0.00 in0.0 mm
01:01 AM 57.5°F14.2°C 46.2°F7.9°C 66% 1.0 mph N1.6 kmh N 6.0 mph9.7 kmh 30.11 in1019.6 mb 0.00 in0.0 mm 0.00 in0.0 mm 0.00 in0.0 mm
01:02 AM 57.5°F14.2°C 46.2°F7.9°C 66% 1.0 mph N1.6 kmh N 6.0 mph9.7 kmh 30.11 in1019.6 mb 0.00 in0.0 mm 0.00 in0.0 mm 0.00 in0.0 mm
01:03 AM 57.5°F14.2°C 46.2°F7.9°C 66% 1.0 mph N1.6 kmh N 6.0 mph9.7 kmh 30.11 in1019.6 mb 0.00 in0.0 mm 0.00 in0.0 mm 0.00 in0.0 mm
01:04 AM 57.4°F14.1°C 46.1°F7.8°C 66% 1.0 mph N1.6 kmh N 6.0 mph9.7 kmh 30.11 in1019.6 mb 0.00 in0.0 mm 0.00 in0.0 mm 0.00 in0.0 mm
01:05 AM 57.4°F14.1°C 46.1°F7.8°C 66% 2.0 mph N3.2 kmh N 6.0 mph9.7 kmh 30.11 in1019.6 mb 0.00 in0.0 mm 0.00 in0.0 mm 0.00 in0.0 mm
01:07 AM 57.4°F14.1°C 46.1°F7.8°C 66% 2.0 mph N3.2 kmh N 6.0 mph9.7 kmh 30.11 in1019.6 mb 0.00 in0.0 mm 0.00 in0.0 mm 0.00 in0.0 mm
01:08 AM 57.3°F14.1°C 46.0°F7.8°C 66% 2.0 mph N3.2 kmh N 6.0 mph9.7 kmh 30.11 in1019.6 mb 0.00 in0.0 mm 0.00 in0.0 mm 0.00 in0.0 mm
01:10 AM 57.3°F14.1°C 46.0°F7.8°C 66% 2.0 mph N3.2 kmh N 6.0 mph9.7 kmh 30.11 in1019.6 mb 0.00 in0.0 mm 0.00 in0.0 mm 0.00 in0.0 mm
01:11 AM 57.3°F14.1°C 46.0°F7.8°C 66% 2.0 mph N3.2 kmh N 6.0 mph9.7 kmh 30.11 in1019.6 mb 0.00 in0.0 mm 0.00 in0.0 mm 0.00 in0.0 mm
01:12 AM 57.2°F14.0°C 45.9°F7.7°C 66% 2.0 mph N3.2 kmh N 6.0 mph9.7 kmh 30.11 in1019.6 mb 0.00 in0.0 mm 0.00 in0.0 mm 0.00 in0.0 mm
01:14 AM 57.2°F14.0°C 45.9°F7.7°C 66% 2.0 mph N3.2 kmh N 6.0 mph9.7 kmh 30.11 in1019.6 mb 0.00 in0.0 mm 0.00 in0.0 mm 0.00 in0.0 mm
01:15 AM 57.2°F14.0°C 45.9°F7.7°C 66% 2.0 mph N3.2 kmh N 6.0 mph9.7 kmh 30.11 in1019.6 mb 0.00 in0.0 mm 0.00 in0.0 mm 0.00 in0.0 mm
01:17 AM 57.1°F13.9°C 45.8°F7.7°C 66% 2.0 mph N3.2 kmh N 6.0 mph9.7 kmh 30.11 in1019.6 mb 0.00 in0.0 mm 0.00 in0.0 mm 0.00 in0.0 mm
01:18 AM 57.2°F14.0°C 45.9°F7.7°C 66% 2.0 mph N3.2 kmh N 6.0 mph9.7 kmh 30.11 in1019.6 mb 0.00 in0.0 mm 0.00 in0.0 mm 0.00 in0.0 mm
01:20 AM 57.1°F13.9°C 45.8°F7.7°C 66% 1.0 mph N1.6 kmh N 6.0 mph9.7 kmh 30.11 in1019.6 mb 0.00 in0.0 mm 0.00 in0.0 mm 0.00 in0.0 mm
01:21 AM 57.1°F13.9°C 45.8°F7.7°C 66% 1.0 mph N1.6 kmh N 6.0 mph9.7 kmh 30.11 in1019.6 mb 0.00 in0.0 mm 0.00 in0.0 mm 0.00 in0.0 mm
01:23 AM 57.0°F13.9°C 45.7°F7.6°C 66% 1.0 mph N1.6 kmh N 6.0 mph9.7 kmh 30.11 in1019.6 mb 0.00 in0.0 mm 0.00 in0.0 mm 0.00 in0.0 mm
01:24 AM 57.0°F13.9°C 45.7°F7.6°C 66% 1.0 mph N1.6 kmh N 6.0 mph9.7 kmh 30.11 in1019.6 mb 0.00 in0.0 mm 0.00 in0.0 mm 0.00 in0.0 mm
01:26 AM 57.0°F13.9°C 45.7°F7.6°C 66% 2.0 mph N3.2 kmh N 6.0 mph9.7 kmh 30.11 in1019.6 mb 0.00 in0.0 mm 0.00 in0.0 mm 0.00 in0.0 mm
01:27 AM 57.0°F13.9°C 45.7°F7.6°C 66% 2.0 mph N3.2 kmh N 7.0 mph11.3 kmh 30.11 in1019.6 mb 0.00 in0.0 mm 0.00 in0.0 mm 0.00 in0.0 mm
01:29 AM 56.9°F13.8°C 45.7°F7.6°C 66% 2.0 mph N3.2 kmh N 7.0 mph11.3 kmh 30.11 in1019.6 mb 0.00 in0.0 mm 0.00 in0.0 mm 0.00 in0.0 mm
01:30 AM 56.8°F13.8°C 45.6°F7.6°C 66% 2.0 mph N3.2 kmh N 7.0 mph11.3 kmh 30.11 in1019.6 mb 0.00 in0.0 mm 0.00 in0.0 mm 0.00 in0.0 mm
01:31 AM 56.8°F13.8°C 45.2°F7.3°C 65% 2.0 mph N3.2 kmh N 7.0 mph11.3 kmh 30.11 in1019.6 mb 0.00 in0.0 mm 0.00 in0.0 mm 0.00 in0.0 mm
01:33 AM 56.8°F13.8°C 45.2°F7.3°C 65% 2.0 mph N3.2 kmh N 7.0 mph11.3 kmh 30.11 in1019.6 mb 0.00 in0.0 mm 0.00 in0.0 mm 0.00 in0.0 mm
01:34 AM 56.7°F13.7°C 45.1°F7.3°C 65% 2.0 mph N3.2 kmh N 7.0 mph11.3 kmh 30.11 in1019.6 mb 0.00 in0.0 mm 0.00 in0.0 mm 0.00 in0.0 mm
01:36 AM 56.6°F13.7°C 45.0°F7.2°C 65% 2.0 mph N3.2 kmh N 7.0 mph11.3 kmh 30.11 in1019.6 mb 0.00 in0.0 mm 0.00 in0.0 mm 0.00 in0.0 mm
01:37 AM 56.6°F13.7°C 45.0°F7.2°C 65% 2.0 mph N3.2 kmh N 6.0 mph9.7 kmh 30.11 in1019.6 mb 0.00 in0.0 mm 0.00 in0.0 mm 0.00 in0.0 mm
01:39 AM 56.6°F13.7°C 45.0°F7.2°C 65% 2.0 mph N3.2 kmh N 6.0 mph9.7 kmh 30.11 in1019.6 mb 0.00 in0.0 mm 0.00 in0.0 mm 0.00 in0.0 mm
01:40 AM 56.5°F13.6°C 44.9°F7.2°C 65% 2.0 mph N3.2 kmh N 6.0 mph9.7 kmh 30.11 in1019.6 mb 0.00 in0.0 mm 0.00 in0.0 mm 0.00 in0.0 mm
01:42 AM 56.5°F13.6°C 44.9°F7.2°C 65% 2.0 mph N3.2 kmh N 7.0 mph11.3 kmh 30.11 in1019.6 mb 0.00 in0.0 mm 0.00 in0.0 mm 0.00 in0.0 mm
01:43 AM 56.4°F13.6°C 44.8°F7.1°C 65% 2.0 mph N3.2 kmh N 7.0 mph11.3 kmh 30.11 in1019.6 mb 0.00 in0.0 mm 0.00 in0.0 mm 0.00 in0.0 mm
01:45 AM 56.4°F13.6°C 44.8°F7.1°C 65% 2.0 mph N3.2 kmh N 7.0 mph11.3 kmh 30.11 in1019.6 mb 0.00 in0.0 mm 0.00 in0.0 mm 0.00 in0.0 mm
01:46 AM 56.4°F13.6°C 44.8°F7.1°C 65% 2.0 mph N3.2 kmh N 7.0 mph11.3 kmh 30.11 in1019.6 mb 0.00 in0.0 mm 0.00 in0.0 mm 0.00 in0.0 mm
01:48 AM 56.3°F13.5°C 44.7°F7.1°C 65% 2.0 mph N3.2 kmh N 7.0 mph11.3 kmh 30.11 in1019.6 mb 0.00 in0.0 mm 0.00 in0.0 mm 0.00 in0.0 mm
01:49 AM 56.3°F13.5°C 44.7°F7.1°C 65% 2.0 mph N3.2 kmh N 7.0 mph11.3 kmh 30.11 in1019.6 mb 0.00 in0.0 mm 0.00 in0.0 mm 0.00 in0.0 mm
01:51 AM 56.2°F13.4°C 44.6°F7.0°C 65% 2.0 mph N3.2 kmh N 7.0 mph11.3 kmh 30.11 in1019.6 mb 0.00 in0.0 mm 0.00 in0.0 mm 0.00 in0.0 mm
01:52 AM 56.2°F13.4°C 44.6°F7.0°C 65% 2.0 mph N3.2 kmh N 7.0 mph11.3 kmh 30.11 in1019.6 mb 0.00 in0.0 mm 0.00 in0.0 mm 0.00 in0.0 mm
01:54 AM 56.1°F13.4°C 44.5°F6.9°C 65% 3.0 mph N4.8 kmh N 7.0 mph11.3 kmh 30.11 in1019.6 mb 0.00 in0.0 mm 0.00 in0.0 mm 0.00 in0.0 mm
01:55 AM 56.1°F13.4°C 44.5°F6.9°C 65% 3.0 mph N4.8 kmh N 7.0 mph11.3 kmh 30.11 in1019.6 mb 0.00 in0.0 mm 0.00 in0.0 mm 0.00 in0.0 mm
01:57 AM 56.0°F13.3°C 44.4°F6.9°C 65% 3.0 mph N4.8 kmh N 7.0 mph11.3 kmh 30.11 in1019.6 mb 0.00 in0.0 mm 0.00 in0.0 mm 0.00 in0.0 mm
01:58 AM 55.9°F13.3°C 44.3°F6.8°C 65% 3.0 mph N4.8 kmh N 7.0 mph11.3 kmh 30.11 in1019.6 mb 0.00 in0.0 mm 0.00 in0.0 mm 0.00 in0.0 mm
02:00 AM 55.8°F13.2°C 44.2°F6.8°C 65% 3.0 mph N4.8 kmh N 7.0 mph11.3 kmh 30.11 in1019.6 mb 0.00 in0.0 mm 0.00 in0.0 mm 0.00 in0.0 mm
02:01 AM 55.8°F13.2°C 44.2°F6.8°C 65% 3.0 mph N4.8 kmh N 7.0 mph11.3 kmh 30.11 in1019.6 mb 0.00 in0.0 mm 0.00 in0.0 mm 0.00 in0.0 mm
02:02 AM 55.7°F13.2°C 44.1°F6.7°C 65% 3.0 mph N4.8 kmh N 7.0 mph11.3 kmh 30.11 in1019.6 mb 0.00 in0.0 mm 0.00 in0.0 mm 0.00 in0.0 mm
02:03 AM 55.7°F13.2°C 44.1°F6.7°C 65% 3.0 mph N4.8 kmh N 7.0 mph11.3 kmh 30.11 in1019.6 mb 0.00 in0.0 mm 0.00 in0.0 mm 0.00 in0.0 mm
02:05 AM 55.6°F13.1°C 44.0°F6.7°C 65% 3.0 mph N4.8 kmh N 8.0 mph12.9 kmh 30.11 in1019.6 mb 0.00 in0.0 mm 0.00 in0.0 mm 0.00 in0.0 mm
02:06 AM 55.5°F13.1°C 43.9°F6.6°C 65% 3.0 mph N4.8 kmh N 8.0 mph12.9 kmh 30.11 in1019.6 mb 0.00 in0.0 mm 0.00 in0.0 mm 0.00 in0.0 mm
02:07 AM 55.5°F13.1°C 43.9°F6.6°C 65% 3.0 mph N4.8 kmh N 8.0 mph12.9 kmh 30.11 in1019.6 mb 0.00 in0.0 mm 0.00 in0.0 mm 0.00 in0.0 mm
02:09 AM 55.4°F13.0°C 43.8°F6.6°C 65% 2.0 mph N3.2 kmh N 8.0 mph12.9 kmh 30.11 in1019.6 mb 0.00 in0.0 mm 0.00 in0.0 mm 0.00 in0.0 mm
02:11 AM 55.4°F13.0°C 43.8°F6.6°C 65% 2.0 mph N3.2 kmh N 8.0 mph12.9 kmh 30.11 in1019.6 mb 0.00 in0.0 mm 0.00 in0.0 mm 0.00 in0.0 mm
02:12 AM 55.3°F12.9°C 43.7°F6.5°C 65% 2.0 mph N3.2 kmh N 8.0 mph12.9 kmh 30.11 in1019.6 mb 0.00 in0.0 mm 0.00 in0.0 mm 0.00 in0.0 mm
02:14 AM 55.3°F12.9°C 43.7°F6.5°C 65% 2.0 mph N3.2 kmh N 8.0 mph12.9 kmh 30.10 in1019.3 mb 0.00 in0.0 mm 0.00 in0.0 mm 0.00 in0.0 mm
02:15 AM 55.3°F12.9°C 43.7°F6.5°C 65% 2.0 mph N3.2 kmh N 5.0 mph8.0 kmh 30.10 in1019.3 mb 0.00 in0.0 mm 0.00 in0.0 mm 0.00 in0.0 mm
02:17 AM 55.2°F12.9°C 43.6°F6.4°C 65% 2.0 mph N3.2 kmh N 5.0 mph8.0 kmh 30.10 in1019.3 mb 0.00 in0.0 mm 0.00 in0.0 mm 0.00 in0.0 mm
02:18 AM 55.2°F12.9°C 44.0°F6.7°C 66% 2.0 mph N3.2 kmh N 5.0 mph8.0 kmh 30.10 in1019.3 mb 0.00 in0.0 mm 0.00 in0.0 mm 0.00 in0.0 mm
02:19 AM 55.2°F12.9°C 44.0°F6.7°C 66% 2.0 mph N3.2 kmh N 5.0 mph8.0 kmh 30.11 in1019.6 mb 0.00 in0.0 mm 0.00 in0.0 mm 0.00 in0.0 mm
02:21 AM 55.1°F12.8°C 43.9°F6.6°C 66% 2.0 mph N3.2 kmh N 5.0 mph8.0 kmh 30.10 in1019.3 mb 0.00 in0.0 mm 0.00 in0.0 mm 0.00 in0.0 mm
02:22 AM 55.1°F12.8°C 43.9°F6.6°C 66% 2.0 mph N3.2 kmh N 5.0 mph8.0 kmh 30.10 in1019.3 mb 0.00 in0.0 mm 0.00 in0.0 mm 0.00 in0.0 mm
02:24 AM 55.1°F12.8°C 43.9°F6.6°C 66% 2.0 mph N3.2 kmh N 5.0 mph8.0 kmh 30.10 in1019.3 mb 0.00 in0.0 mm 0.00 in0.0 mm 0.00 in0.0 mm
02:25 AM 55.1°F12.8°C 43.9°F6.6°C 66% 2.0 mph N3.2 kmh N 5.0 mph8.0 kmh 30.10 in1019.3 mb 0.00 in0.0 mm 0.00 in0.0 mm 0.00 in0.0 mm
02:27 AM 55.1°F12.8°C 43.9°F6.6°C 66% 2.0 mph N3.2 kmh N 5.0 mph8.0 kmh 30.10 in1019.3 mb 0.00 in0.0 mm 0.00 in0.0 mm 0.00 in0.0 mm
02:28 AM 55.0°F12.8°C 43.8°F6.6°C 66% 2.0 mph N3.2 kmh N 5.0 mph8.0 kmh 30.10 in1019.3 mb 0.00 in0.0 mm 0.00 in0.0 mm 0.00 in0.0 mm
02:30 AM 55.0°F12.8°C 44.2°F6.8°C 67% 1.0 mph N1.6 kmh N 5.0 mph8.0 kmh 30.10 in1019.3 mb 0.00 in0.0 mm 0.00 in0.0 mm 0.00 in0.0 mm
02:31 AM 55.0°F12.8°C 44.2°F6.8°C 67% 1.0 mph N1.6 kmh N 5.0 mph8.0 kmh 30.10 in1019.3 mb 0.00 in0.0 mm 0.00 in0.0 mm 0.00 in0.0 mm
02:33 AM 55.0°F12.8°C 44.2°F6.8°C 67% 1.0 mph N1.6 kmh N 4.0 mph6.4 kmh 30.10 in1019.3 mb 0.00 in0.0 mm 0.00 in0.0 mm 0.00 in0.0 mm
02:34 AM 54.9°F12.7°C 44.1°F6.7°C 67% 1.0 mph N1.6 kmh N 5.0 mph8.0 kmh 30.10 in1019.3 mb 0.00 in0.0 mm 0.00 in0.0 mm 0.00 in0.0 mm
02:36 AM 55.0°F12.8°C 44.2°F6.8°C 67% 1.0 mph N1.6 kmh N 5.0 mph8.0 kmh 30.10 in1019.3 mb 0.00 in0.0 mm 0.00 in0.0 mm 0.00 in0.0 mm
02:37 AM 55.0°F12.8°C 44.2°F6.8°C 67% Calm Calm 5.0 mph8.0 kmh 30.10 in1019.3 mb 0.00 in0.0 mm 0.00 in0.0 mm 0.00 in0.0 mm
02:39 AM 55.0°F12.8°C 44.6°F7.0°C 68% Calm Calm 5.0 mph8.0 kmh 30.10 in1019.3 mb 0.00 in0.0 mm 0.00 in0.0 mm 0.00 in0.0 mm
02:40 AM 55.0°F12.8°C 44.6°F7.0°C 68% Calm Calm 5.0 mph8.0 kmh 30.10 in1019.3 mb 0.00 in0.0 mm 0.00 in0.0 mm 0.00 in0.0 mm
02:42 AM 55.0°F12.8°C 44.6°F7.0°C 68% 1.0 mph N1.6 kmh N 5.0 mph8.0 kmh 30.10 in1019.3 mb 0.00 in0.0 mm 0.00 in0.0 mm 0.00 in0.0 mm
02:43 AM 55.0°F12.8°C 44.6°F7.0°C 68% 1.0 mph N1.6 kmh N 5.0 mph8.0 kmh 30.10 in1019.3 mb 0.00 in0.0 mm 0.00 in0.0 mm 0.00 in0.0 mm
02:45 AM 55.1°F12.8°C 44.7°F7.1°C 68% 1.0 mph N1.6 kmh N 5.0 mph8.0 kmh 30.10 in1019.3 mb 0.00 in0.0 mm 0.00 in0.0 mm 0.00 in0.0 mm
02:46 AM 55.1°F12.8°C 45.1°F7.3°C 69% 1.0 mph N1.6 kmh N 5.0 mph8.0 kmh 30.10 in1019.3 mb 0.00 in0.0 mm 0.00 in0.0 mm 0.00 in0.0 mm
02:48 AM 55.2°F12.9°C 45.2°F7.3°C 69% 1.0 mph NNE1.6 kmh NNE 5.0 mph8.0 kmh 30.10 in1019.3 mb 0.00 in0.0 mm 0.00 in0.0 mm 0.00 in0.0 mm
02:49 AM 55.3°F12.9°C 45.3°F7.4°C 69% 1.0 mph NNE1.6 kmh NNE 5.0 mph8.0 kmh 30.10 in1019.3 mb 0.00 in0.0 mm 0.00 in0.0 mm 0.00 in0.0 mm
02:50 AM 55.3°F12.9°C 45.3°F7.4°C 69% 1.0 mph NNE1.6 kmh NNE 5.0 mph8.0 kmh 30.10 in1019.3 mb 0.00 in0.0 mm 0.00 in0.0 mm 0.00 in0.0 mm
02:51 AM 55.3°F12.9°C 45.3°F7.4°C 69% 1.0 mph NNE1.6 kmh NNE 5.0 mph8.0 kmh 30.10 in1019.3 mb 0.00 in0.0 mm 0.00 in0.0 mm 0.00 in0.0 mm
02:53 AM 55.3°F12.9°C 45.3°F7.4°C 69% 1.0 mph N1.6 kmh N 6.0 mph9.7 kmh 30.10 in1019.3 mb 0.00 in0.0 mm 0.00 in0.0 mm 0.00 in0.0 mm
02:54 AM 55.4°F13.0°C 45.4°F7.4°C 69% 2.0 mph N3.2 kmh N 6.0 mph9.7 kmh 30.10 in1019.3 mb 0.00 in0.0 mm 0.00 in0.0 mm 0.00 in0.0 mm
02:56 AM 55.4°F13.0°C 45.4°F7.4°C 69% 2.0 mph N3.2 kmh N 6.0 mph9.7 kmh 30.10 in1019.3 mb 0.00 in0.0 mm 0.00 in0.0 mm 0.00 in0.0 mm
02:57 AM 55.4°F13.0°C 45.4°F7.4°C 69% 2.0 mph N3.2 kmh N 6.0 mph9.7 kmh 30.10 in1019.3 mb 0.00 in0.0 mm 0.00 in0.0 mm 0.00 in0.0 mm
02:59 AM 55.5°F13.1°C 45.9°F7.7°C 70% 2.0 mph NNE3.2 kmh NNE 11.0 mph17.7 kmh 30.10 in1019.3 mb 0.00 in0.0 mm 0.00 in0.0 mm 0.00 in0.0 mm
03:00 AM 55.6°F13.1°C 46.0°F7.8°C 70% 2.0 mph NNE3.2 kmh NNE 11.0 mph17.7 kmh 30.10 in1019.3 mb 0.00 in0.0 mm 0.00 in0.0 mm 0.00 in0.0 mm
03:01 AM 55.6°F13.1°C 46.0°F7.8°C 70% 3.0 mph NNE4.8 kmh NNE 11.0 mph17.7 kmh 30.10 in1019.3 mb 0.00 in0.0 mm 0.00 in0.0 mm 0.00 in0.0 mm
03:02 AM 55.7°F13.2°C 46.1°F7.8°C 70% 3.0 mph NNE4.8 kmh NNE 11.0 mph17.7 kmh 30.10 in1019.3 mb 0.00 in0.0 mm 0.00 in0.0 mm 0.00 in0.0 mm
03:03 AM 55.7°F13.2°C 46.1°F7.8°C 70% 3.0 mph NNE4.8 kmh NNE 16.0 mph25.7 kmh 30.10 in1019.3 mb 0.00 in0.0 mm 0.00 in0.0 mm 0.00 in0.0 mm
03:04 AM 55.8°F13.2°C 46.5°F8.1°C 71% 4.0 mph NNE6.4 kmh NNE 16.0 mph25.7 kmh 30.10 in1019.3 mb 0.00 in0.0 mm 0.00 in0.0 mm 0.00 in0.0 mm
03:06 AM 55.8°F13.2°C 46.5°F8.1°C 71% 5.0 mph NNE8.0 kmh NNE 16.0 mph25.7 kmh 30.10 in1019.3 mb 0.00 in0.0 mm 0.00 in0.0 mm 0.00 in0.0 mm
03:07 AM 55.9°F13.3°C 46.6°F8.1°C 71% 5.0 mph NNE8.0 kmh NNE 16.0 mph25.7 kmh 30.10 in1019.3 mb 0.00 in0.0 mm 0.00 in0.0 mm 0.00 in0.0 mm
03:09 AM 55.9°F13.3°C 46.6°F8.1°C 71% 5.0 mph NNE8.0 kmh NNE 16.0 mph25.7 kmh 30.09 in1019.0 mb 0.00 in0.0 mm 0.00 in0.0 mm 0.00 in0.0 mm
03:10 AM 55.9°F13.3°C 46.6°F8.1°C 71% 5.0 mph NNE8.0 kmh NNE 16.0 mph25.7 kmh 30.10 in1019.3 mb 0.00 in0.0 mm 0.00 in0.0 mm 0.00 in0.0 mm
03:12 AM 55.9°F13.3°C 46.6°F8.1°C 71% 5.0 mph NNE8.0 kmh NNE 16.0 mph25.7 kmh 30.10 in1019.3 mb 0.00 in0.0 mm 0.00 in0.0 mm 0.00 in0.0 mm
03:13 AM 56.0°F13.3°C 46.7°F8.2°C 71% 5.0 mph NNE8.0 kmh NNE 14.0 mph22.5 kmh 30.10 in1019.3 mb 0.00 in0.0 mm 0.00 in0.0 mm 0.00 in0.0 mm
03:15 AM 56.0°F13.3°C 46.7°F8.2°C 71% 5.0 mph NE8.0 kmh NE 14.0 mph22.5 kmh 30.10 in1019.3 mb 0.00 in0.0 mm 0.00 in0.0 mm 0.00 in0.0 mm
03:16 AM 56.0°F13.3°C 46.7°F8.2°C 71% 6.0 mph NE9.7 kmh NE 14.0 mph22.5 kmh 30.10 in1019.3 mb 0.00 in0.0 mm 0.00 in0.0 mm 0.00 in0.0 mm
03:18 AM 56.0°F13.3°C 46.7°F8.2°C 71% 6.0 mph NNE9.7 kmh NNE 14.0 mph22.5 kmh 30.10 in1019.3 mb 0.00 in0.0 mm 0.00 in0.0 mm 0.00 in0.0 mm
03:19 AM 56.0°F13.3°C 46.7°F8.2°C 71% 6.0 mph NNE9.7 kmh NNE 14.0 mph22.5 kmh 30.10 in1019.3 mb 0.00 in0.0 mm 0.00 in0.0 mm 0.00 in0.0 mm
03:20 AM 56.0°F13.3°C 46.7°F8.2°C 71% 6.0 mph NNE9.7 kmh NNE 14.0 mph22.5 kmh 30.09 in1019.0 mb 0.00 in0.0 mm 0.00 in0.0 mm 0.00 in0.0 mm
03:21 AM 56.0°F13.3°C 46.7°F8.2°C 71% 5.0 mph NNE8.0 kmh NNE 14.0 mph22.5 kmh 30.10 in1019.3 mb 0.00 in0.0 mm 0.00 in0.0 mm 0.00 in0.0 mm
03:22 AM 56.0°F13.3°C 46.7°F8.2°C 71% 5.0 mph NNE8.0 kmh NNE 13.0 mph20.9 kmh 30.09 in1019.0 mb 0.00 in0.0 mm 0.00 in0.0 mm 0.00 in0.0 mm
03:23 AM 56.0°F13.3°C 46.7°F8.2°C 71% 5.0 mph NNE8.0 kmh NNE 13.0 mph20.9 kmh 30.10 in1019.3 mb 0.00 in0.0 mm 0.00 in0.0 mm 0.00 in0.0 mm
03:25 AM 56.0°F13.3°C 46.7°F8.2°C 71% 4.0 mph NNE6.4 kmh NNE 11.0 mph17.7 kmh 30.10 in1019.3 mb 0.00 in0.0 mm 0.00 in0.0 mm 0.00 in0.0 mm
03:26 AM 55.9°F13.3°C 46.6°F8.1°C 71% 4.0 mph NNE6.4 kmh NNE 11.0 mph17.7 kmh 30.10 in1019.3 mb 0.00 in0.0 mm 0.00 in0.0 mm 0.00 in0.0 mm
03:28 AM 55.8°F13.2°C 46.2°F7.9°C 70% 4.0 mph NNE6.4 kmh NNE 11.0 mph17.7 kmh 30.10 in1019.3 mb 0.00 in0.0 mm 0.00 in0.0 mm 0.00 in0.0 mm
03:30 AM 55.7°F13.2°C 46.1°F7.8°C 70% 4.0 mph NNE6.4 kmh NNE 11.0 mph17.7 kmh 30.09 in1019.0 mb 0.00 in0.0 mm 0.00 in0.0 mm 0.00 in0.0 mm
03:31 AM 55.7°F13.2°C 46.1°F7.8°C 70% 4.0 mph NNE6.4 kmh NNE 13.0 mph20.9 kmh 30.09 in1019.0 mb 0.00 in0.0 mm 0.00 in0.0 mm 0.00 in0.0 mm
03:32 AM 55.7°F13.2°C 46.1°F7.8°C 70% 4.0 mph NNE6.4 kmh NNE 13.0 mph20.9 kmh 30.09 in1019.0 mb 0.00 in0.0 mm 0.00 in0.0 mm 0.00 in0.0 mm
03:33 AM 55.6°F13.1°C 46.0°F7.8°C 70% 5.0 mph NNE8.0 kmh NNE 13.0 mph20.9 kmh 30.10 in1019.3 mb 0.00 in0.0 mm 0.00 in0.0 mm 0.00 in0.0 mm
03:34 AM 55.6°F13.1°C 46.0°F7.8°C 70% 5.0 mph NNE8.0 kmh NNE 13.0 mph20.9 kmh 30.10 in1019.3 mb 0.00 in0.0 mm 0.00 in0.0 mm 0.00 in0.0 mm
03:35 AM 55.6°F13.1°C 46.0°F7.8°C 70% 5.0 mph NNE8.0 kmh NNE 13.0 mph20.9 kmh 30.10 in1019.3 mb 0.00 in0.0 mm 0.00 in0.0 mm 0.00 in0.0 mm
03:37 AM 55.5°F13.1°C 45.9°F7.7°C 70% 5.0 mph NNE8.0 kmh NNE 13.0 mph20.9 kmh 30.10 in1019.3 mb 0.00 in0.0 mm 0.00 in0.0 mm 0.00 in0.0 mm
03:38 AM 55.5°F13.1°C 45.5°F7.5°C 69% 5.0 mph NNE8.0 kmh NNE 13.0 mph20.9 kmh 30.10 in1019.3 mb 0.00 in0.0 mm 0.00 in0.0 mm 0.00 in0.0 mm
03:39 AM 55.5°F13.1°C 45.5°F7.5°C 69% 6.0 mph NE9.7 kmh NE 13.0 mph20.9 kmh 30.10 in1019.3 mb 0.00 in0.0 mm 0.00 in0.0 mm 0.00 in0.0 mm
03:40 AM 55.5°F13.1°C 45.5°F7.5°C 69% 6.0 mph NE9.7 kmh NE 13.0 mph20.9 kmh 30.10 in1019.3 mb 0.00 in0.0 mm 0.00 in0.0 mm 0.00 in0.0 mm
03:41 AM 55.5°F13.1°C 45.5°F7.5°C 69% 6.0 mph NE9.7 kmh NE 13.0 mph20.9 kmh 30.10 in1019.3 mb 0.00 in0.0 mm 0.00 in0.0 mm 0.00 in0.0 mm
03:42 AM 55.5°F13.1°C 45.1°F7.3°C 68% 6.0 mph NE9.7 kmh NE 15.0 mph24.1 kmh 30.10 in1019.3 mb 0.00 in0.0 mm 0.00 in0.0 mm 0.00 in0.0 mm
03:43 AM 55.5°F13.1°C 45.1°F7.3°C 68% 6.0 mph NNE9.7 kmh NNE 15.0 mph24.1 kmh 30.10 in1019.3 mb 0.00 in0.0 mm 0.00 in0.0 mm 0.00 in0.0 mm
03:45 AM 55.5°F13.1°C 45.1°F7.3°C 68% 6.0 mph NE9.7 kmh NE 18.0 mph29.0 kmh 30.10 in1019.3 mb 0.00 in0.0 mm 0.00 in0.0 mm 0.00 in0.0 mm
03:46 AM 55.6°F13.1°C 44.8°F7.1°C 67% 6.0 mph NE9.7 kmh NE 18.0 mph29.0 kmh 30.10 in1019.3 mb 0.00 in0.0 mm 0.00 in0.0 mm 0.00 in0.0 mm
03:47 AM 55.6°F13.1°C 44.8°F7.1°C 67% 6.0 mph NE9.7 kmh NE 18.0 mph29.0 kmh 30.10 in1019.3 mb 0.00 in0.0 mm 0.00 in0.0 mm 0.00 in0.0 mm
03:48 AM 55.6°F13.1°C 44.8°F7.1°C 67% 6.0 mph NE9.7 kmh NE 18.0 mph29.0 kmh 30.10 in1019.3 mb 0.00 in0.0 mm 0.00 in0.0 mm 0.00 in0.0 mm
03:50 AM 55.5°F13.1°C 44.7°F7.1°C 67% 6.0 mph NE9.7 kmh NE 18.0 mph29.0 kmh 30.10 in1019.3 mb 0.00 in0.0 mm 0.00 in0.0 mm 0.00 in0.0 mm
03:51 AM 55.5°F13.1°C 44.7°F7.1°C 67% 6.0 mph NE9.7 kmh NE 18.0 mph29.0 kmh 30.10 in1019.3 mb 0.00 in0.0 mm 0.00 in0.0 mm 0.00 in0.0 mm
03:52 AM 55.5°F13.1°C 44.7°F7.1°C 67% 6.0 mph NE9.7 kmh NE 18.0 mph29.0 kmh 30.10 in1019.3 mb 0.00 in0.0 mm 0.00 in0.0 mm 0.00 in0.0 mm
03:53 AM 55.4°F13.0°C 44.6°F7.0°C 67% 6.0 mph NE9.7 kmh NE 18.0 mph29.0 kmh 30.10 in1019.3 mb 0.00 in0.0 mm 0.00 in0.0 mm 0.00 in0.0 mm
03:54 AM 55.4°F13.0°C 44.2°F6.8°C 66% 5.0 mph NE8.0 kmh NE 18.0 mph29.0 kmh 30.10 in1019.3 mb 0.00 in0.0 mm 0.00 in0.0 mm 0.00 in0.0 mm
03:55 AM 55.3°F12.9°C 44.1°F6.7°C 66% 5.0 mph NE8.0 kmh NE 14.0 mph22.5 kmh 30.10 in1019.3 mb 0.00 in0.0 mm 0.00 in0.0 mm 0.00 in0.0 mm
03:57 AM 55.2°F12.9°C 44.0°F6.7°C 66% 4.0 mph NNE6.4 kmh NNE 12.0 mph19.3 kmh 30.10 in1019.3 mb 0.00 in0.0 mm 0.00 in0.0 mm 0.00 in0.0 mm
03:58 AM 55.2°F12.9°C 44.0°F6.7°C 66% 4.0 mph NNE6.4 kmh NNE 12.0 mph19.3 kmh 30.10 in1019.3 mb 0.00 in0.0 mm 0.00 in0.0 mm 0.00 in0.0 mm
04:00 AM 55.1°F12.8°C 43.5°F6.4°C 65% 4.0 mph NNE6.4 kmh NNE 12.0 mph19.3 kmh 30.10 in1019.3 mb 0.00 in0.0 mm 0.00 in0.0 mm 0.00 in0.0 mm
04:01 AM 55.1°F12.8°C 43.5°F6.4°C 65% 4.0 mph NNE6.4 kmh NNE 12.0 mph19.3 kmh 30.11 in1019.6 mb 0.00 in0.0 mm 0.00 in0.0 mm 0.00 in0.0 mm
04:02 AM 55.1°F12.8°C 43.5°F6.4°C 65% 4.0 mph NNE6.4 kmh NNE 12.0 mph19.3 kmh 30.10 in1019.3 mb 0.00 in0.0 mm 0.00 in0.0 mm 0.00 in0.0 mm
04:03 AM 55.0°F12.8°C 43.4°F6.3°C 65% 5.0 mph NNE8.0 kmh NNE 13.0 mph20.9 kmh 30.11 in1019.6 mb 0.00 in0.0 mm 0.00 in0.0 mm 0.00 in0.0 mm
04:04 AM 55.0°F12.8°C 43.0°F6.1°C 64% 5.0 mph NNE8.0 kmh NNE 13.0 mph20.9 kmh 30.11 in1019.6 mb 0.00 in0.0 mm 0.00 in0.0 mm 0.00 in0.0 mm
04:06 AM 55.0°F12.8°C 43.0°F6.1°C 64% 5.0 mph NNE8.0 kmh NNE 13.0 mph20.9 kmh 30.11 in1019.6 mb 0.00 in0.0 mm 0.00 in0.0 mm 0.00 in0.0 mm
04:08 AM 54.9°F12.7°C 42.9°F6.1°C 64% 5.0 mph NNE8.0 kmh NNE 13.0 mph20.9 kmh 30.11 in1019.6 mb 0.00 in0.0 mm 0.00 in0.0 mm 0.00 in0.0 mm
04:09 AM 54.8°F12.7°C 42.9°F6.1°C 64% 5.0 mph NNE8.0 kmh NNE 13.0 mph20.9 kmh 30.11 in1019.6 mb 0.00 in0.0 mm 0.00 in0.0 mm 0.00 in0.0 mm
04:10 AM 54.8°F12.7°C 42.9°F6.1°C 64% 5.0 mph NNE8.0 kmh NNE 13.0 mph20.9 kmh 30.11 in1019.6 mb 0.00 in0.0 mm 0.00 in0.0 mm 0.00 in0.0 mm
04:11 AM 54.8°F12.7°C 42.9°F6.1°C 64% 5.0 mph NNE8.0 kmh NNE 13.0 mph20.9 kmh 30.11 in1019.6 mb 0.00 in0.0 mm 0.00 in0.0 mm 0.00 in0.0 mm
04:12 AM 54.7°F12.6°C 42.8°F6.0°C 64% 5.0 mph NNE8.0 kmh NNE 13.0 mph20.9 kmh 30.11 in1019.6 mb 0.00 in0.0 mm 0.00 in0.0 mm 0.00 in0.0 mm
04:14 AM 54.6°F12.6°C 42.3°F5.7°C 63% 5.0 mph NNE8.0 kmh NNE 12.0 mph19.3 kmh 30.11 in1019.6 mb 0.00 in0.0 mm 0.00 in0.0 mm 0.00 in0.0 mm
04:15 AM 54.6°F12.6°C 42.3°F5.7°C 63% 5.0 mph NNE8.0 kmh NNE 12.0 mph19.3 kmh 30.11 in1019.6 mb 0.00 in0.0 mm 0.00 in0.0 mm 0.00 in0.0 mm
04:16 AM 54.5°F12.5°C 42.2°F5.7°C 63% 5.0 mph NNE8.0 kmh NNE 12.0 mph19.3 kmh 30.11 in1019.6 mb 0.00 in0.0 mm 0.00 in0.0 mm 0.00 in0.0 mm
04:17 AM 54.5°F12.5°C 42.2°F5.7°C 63% 5.0 mph NNE8.0 kmh NNE 10.0 mph16.1 kmh 30.11 in1019.6 mb 0.00 in0.0 mm 0.00 in0.0 mm 0.00 in0.0 mm
04:19 AM 54.4°F12.4°C 42.1°F5.6°C 63% 4.0 mph NNE6.4 kmh NNE 11.0 mph17.7 kmh 30.11 in1019.6 mb 0.00 in0.0 mm 0.00 in0.0 mm 0.00 in0.0 mm
04:20 AM 54.3°F12.4°C 42.0°F5.6°C 63% 4.0 mph NNE6.4 kmh NNE 11.0 mph17.7 kmh 30.11 in1019.6 mb 0.00 in0.0 mm 0.00 in0.0 mm 0.00 in0.0 mm
04:22 AM 54.2°F12.3°C 41.9°F5.5°C 63% 4.0 mph NNE6.4 kmh NNE 11.0 mph17.7 kmh 30.11 in1019.6 mb 0.00 in0.0 mm 0.00 in0.0 mm 0.00 in0.0 mm
04:23 AM 54.2°F12.3°C 41.9°F5.5°C 63% 4.0 mph NNE6.4 kmh NNE 11.0 mph17.7 kmh 30.11 in1019.6 mb 0.00 in0.0 mm 0.00 in0.0 mm 0.00 in0.0 mm
04:24 AM 54.1°F12.3°C 41.8°F5.4°C 63% 5.0 mph N8.0 kmh N 11.0 mph17.7 kmh 30.11 in1019.6 mb 0.00 in0.0 mm 0.00 in0.0 mm 0.00 in0.0 mm
04:25 AM 54.1°F12.3°C 41.8°F5.4°C 63% 4.0 mph N6.4 kmh N 11.0 mph17.7 kmh 30.11 in1019.6 mb 0.00 in0.0 mm 0.00 in0.0 mm 0.00 in0.0 mm
04:27 AM 54.1°F12.3°C 41.4°F5.2°C 62% 4.0 mph NNE6.4 kmh NNE 11.0 mph17.7 kmh 30.11 in1019.6 mb 0.00 in0.0 mm 0.00 in0.0 mm 0.00 in0.0 mm
04:28 AM 54.2°F12.3°C 41.5°F5.3°C 62% 4.0 mph NNE6.4 kmh NNE 11.0 mph17.7 kmh 30.11 in1019.6 mb 0.00 in0.0 mm 0.00 in0.0 mm 0.00 in0.0 mm
04:30 AM 54.2°F12.3°C 41.5°F5.3°C 62% 4.0 mph NNE6.4 kmh NNE 13.0 mph20.9 kmh 30.11 in1019.6 mb 0.00 in0.0 mm 0.00 in0.0 mm 0.00 in0.0 mm
04:31 AM 54.3°F12.4°C 41.1°F5.1°C 61% 5.0 mph NNE8.0 kmh NNE 13.0 mph20.9 kmh 30.11 in1019.6 mb 0.00 in0.0 mm 0.00 in0.0 mm 0.00 in0.0 mm
04:32 AM 54.3°F12.4°C 41.1°F5.1°C 61% 5.0 mph NNE8.0 kmh NNE 13.0 mph20.9 kmh 30.11 in1019.6 mb 0.00 in0.0 mm 0.00 in0.0 mm 0.00 in0.0 mm
04:34 AM 54.3°F12.4°C 41.1°F5.1°C 61% 5.0 mph NNE8.0 kmh NNE 13.0 mph20.9 kmh 30.11 in1019.6 mb 0.00 in0.0 mm 0.00 in0.0 mm 0.00 in0.0 mm
04:35 AM 54.4°F12.4°C 41.2°F5.1°C 61% 4.0 mph NNE6.4 kmh NNE 13.0 mph20.9 kmh 30.11 in1019.6 mb 0.00 in0.0 mm 0.00 in0.0 mm 0.00 in0.0 mm
04:36 AM 54.4°F12.4°C 41.2°F5.1°C 61% 4.0 mph NNE6.4 kmh NNE 13.0 mph20.9 kmh 30.11 in1019.6 mb 0.00 in0.0 mm 0.00 in0.0 mm 0.00 in0.0 mm
04:38 AM 54.5°F12.5°C 40.9°F4.9°C 60% 4.0 mph NNE6.4 kmh NNE 13.0 mph20.9 kmh 30.11 in1019.6 mb 0.00 in0.0 mm 0.00 in0.0 mm 0.00 in0.0 mm
04:39 AM 54.5°F12.5°C 40.9°F4.9°C 60% 4.0 mph NNE6.4 kmh NNE 16.0 mph25.7 kmh 30.11 in1019.6 mb 0.00 in0.0 mm 0.00 in0.0 mm 0.00 in0.0 mm
04:41 AM 54.5°F12.5°C 40.9°F4.9°C 60% 4.0 mph NNE6.4 kmh NNE 16.0 mph25.7 kmh 30.11 in1019.6 mb 0.00 in0.0 mm 0.00 in0.0 mm 0.00 in0.0 mm
04:43 AM 54.6°F12.6°C 41.0°F5.0°C 60% 4.0 mph NNE6.4 kmh NNE 16.0 mph25.7 kmh 30.11 in1019.6 mb 0.00 in0.0 mm 0.00 in0.0 mm 0.00 in0.0 mm
04:45 AM 54.6°F12.6°C 40.6°F4.8°C 59% 5.0 mph NNE8.0 kmh NNE 16.0 mph25.7 kmh 30.11 in1019.6 mb 0.00 in0.0 mm 0.00 in0.0 mm 0.00 in0.0 mm
04:46 AM 54.6°F12.6°C 40.6°F4.8°C 59% 5.0 mph NNE8.0 kmh NNE 16.0 mph25.7 kmh 30.11 in1019.6 mb 0.00 in0.0 mm 0.00 in0.0 mm 0.00 in0.0 mm
04:47 AM 54.7°F12.6°C 40.6°F4.8°C 59% 5.0 mph NNE8.0 kmh NNE 16.0 mph25.7 kmh 30.11 in1019.6 mb 0.00 in0.0 mm 0.00 in0.0 mm 0.00 in0.0 mm
04:48 AM 54.7°F12.6°C 40.2°F4.6°C 58% 5.0 mph NNE8.0 kmh NNE 16.0 mph25.7 kmh 30.11 in1019.6 mb 0.00 in0.0 mm 0.00 in0.0 mm 0.00 in0.0 mm
04:50 AM 54.9°F12.7°C 39.9°F4.4°C 57% 6.0 mph NNE9.7 kmh NNE 14.0 mph22.5 kmh 30.11 in1019.6 mb 0.00 in0.0 mm 0.00 in0.0 mm 0.00 in0.0 mm
04:51 AM 54.9°F12.7°C 39.9°F4.4°C 57% 6.0 mph NNE9.7 kmh NNE 13.0 mph20.9 kmh 30.11 in1019.6 mb 0.00 in0.0 mm 0.00 in0.0 mm 0.00 in0.0 mm
04:53 AM 55.0°F12.8°C 40.0°F4.4°C 57% 7.0 mph NNE11.3 kmh NNE 18.0 mph29.0 kmh 30.11 in1019.6 mb 0.00 in0.0 mm 0.00 in0.0 mm 0.00 in0.0 mm
04:55 AM 55.1°F12.8°C 40.1°F4.5°C 57% 7.0 mph NNE11.3 kmh NNE 18.0 mph29.0 kmh 30.11 in1019.6 mb 0.00 in0.0 mm 0.00 in0.0 mm 0.00 in0.0 mm
04:56 AM 55.1°F12.8°C 39.7°F4.3°C 56% 8.0 mph NNE12.9 kmh NNE 20.0 mph32.2 kmh 30.11 in1019.6 mb 0.00 in0.0 mm 0.00 in0.0 mm 0.00 in0.0 mm
04:58 AM 55.2°F12.9°C 39.8°F4.3°C 56% 8.0 mph NE12.9 kmh NE 20.0 mph32.2 kmh 30.11 in1019.6 mb 0.00 in0.0 mm 0.00 in0.0 mm 0.00 in0.0 mm
04:59 AM 55.2°F12.9°C 39.8°F4.3°C 56% 8.0 mph NNE12.9 kmh NNE 20.0 mph32.2 kmh 30.11 in1019.6 mb 0.00 in0.0 mm 0.00 in0.0 mm 0.00 in0.0 mm
05:00 AM 55.2°F12.9°C 39.8°F4.3°C 56% 9.0 mph NE14.5 kmh NE 20.0 mph32.2 kmh 30.11 in1019.6 mb 0.00 in0.0 mm 0.00 in0.0 mm 0.00 in0.0 mm
05:01 AM 55.3°F12.9°C 39.9°F4.4°C 56% 9.0 mph NE14.5 kmh NE 20.0 mph32.2 kmh 30.11 in1019.6 mb 0.00 in0.0 mm 0.00 in0.0 mm 0.00 in0.0 mm
05:02 AM 55.3°F12.9°C 39.9°F4.4°C 56% 9.0 mph NNE14.5 kmh NNE 20.0 mph32.2 kmh 30.12 in1020.0 mb 0.00 in0.0 mm 0.00 in0.0 mm 0.00 in0.0 mm
05:04 AM 55.3°F12.9°C 39.9°F4.4°C 56% 9.0 mph NNE14.5 kmh NNE 20.0 mph32.2 kmh 30.11 in1019.6 mb 0.00 in0.0 mm 0.00 in0.0 mm 0.00 in0.0 mm
05:05 AM 55.3°F12.9°C 39.9°F4.4°C 56% 9.0 mph NNE14.5 kmh NNE 20.0 mph32.2 kmh 30.11 in1019.6 mb 0.00 in0.0 mm 0.00 in0.0 mm 0.00 in0.0 mm
05:07 AM 55.3°F12.9°C 39.9°F4.4°C 56% 8.0 mph NNE12.9 kmh NNE 19.0 mph30.6 kmh 30.12 in1020.0 mb 0.00 in0.0 mm 0.00 in0.0 mm 0.00 in0.0 mm
05:08 AM 55.3°F12.9°C 39.9°F4.4°C 56% 8.0 mph NNE12.9 kmh NNE 19.0 mph30.6 kmh 30.12 in1020.0 mb 0.00 in0.0 mm 0.00 in0.0 mm 0.00 in0.0 mm
05:10 AM 55.4°F13.0°C 40.0°F4.4°C 56% 8.0 mph NNE12.9 kmh NNE 20.0 mph32.2 kmh 30.12 in1020.0 mb 0.00 in0.0 mm 0.00 in0.0 mm 0.00 in0.0 mm
05:11 AM 55.4°F13.0°C 40.0°F4.4°C 56% 8.0 mph NNE12.9 kmh NNE 20.0 mph32.2 kmh 30.12 in1020.0 mb 0.00 in0.0 mm 0.00 in0.0 mm 0.00 in0.0 mm
05:13 AM 55.4°F13.0°C 40.0°F4.4°C 56% 7.0 mph NE11.3 kmh NE 20.0 mph32.2 kmh 30.12 in1020.0 mb 0.00 in0.0 mm 0.00 in0.0 mm 0.00 in0.0 mm
05:14 AM 55.4°F13.0°C 40.0°F4.4°C 56% 7.0 mph NE11.3 kmh NE 20.0 mph32.2 kmh 30.12 in1020.0 mb 0.00 in0.0 mm 0.00 in0.0 mm 0.00 in0.0 mm
05:16 AM 55.4°F13.0°C 40.0°F4.4°C 56% 7.0 mph NE11.3 kmh NE 20.0 mph32.2 kmh 30.12 in1020.0 mb 0.00 in0.0 mm 0.00 in0.0 mm 0.00 in0.0 mm
05:17 AM 55.4°F13.0°C 40.0°F4.4°C 56% 7.0 mph NE11.3 kmh NE 20.0 mph32.2 kmh 30.12 in1020.0 mb 0.00 in0.0 mm 0.00 in0.0 mm 0.00 in0.0 mm
05:18 AM 55.5°F13.1°C 40.0°F4.4°C 56% 7.0 mph NE11.3 kmh NE 20.0 mph32.2 kmh 30.12 in1020.0 mb 0.00 in0.0 mm 0.00 in0.0 mm 0.00 in0.0 mm
05:19 AM 55.5°F13.1°C 40.0°F4.4°C 56% 7.0 mph NE11.3 kmh NE 20.0 mph32.2 kmh 30.12 in1020.0 mb 0.00 in0.0 mm 0.00 in0.0 mm 0.00 in0.0 mm
05:20 AM 55.5°F13.1°C 40.0°F4.4°C 56% 8.0 mph NE12.9 kmh NE 17.0 mph27.4 kmh 30.12 in1020.0 mb 0.00 in0.0 mm 0.00 in0.0 mm 0.00 in0.0 mm
05:21 AM 55.5°F13.1°C 40.0°F4.4°C 56% 8.0 mph NE12.9 kmh NE 17.0 mph27.4 kmh 30.12 in1020.0 mb 0.00 in0.0 mm 0.00 in0.0 mm 0.00 in0.0 mm
05:23 AM 55.5°F13.1°C 40.0°F4.4°C 56% 7.0 mph NNE11.3 kmh NNE 17.0 mph27.4 kmh 30.12 in1020.0 mb 0.00 in0.0 mm 0.00 in0.0 mm 0.00 in0.0 mm
05:25 AM 55.4°F13.0°C 40.0°F4.4°C 56% 8.0 mph NNE12.9 kmh NNE 17.0 mph27.4 kmh 30.12 in1020.0 mb 0.00 in0.0 mm 0.00 in0.0 mm 0.00 in0.0 mm
05:26 AM 55.4°F13.0°C 40.4°F4.7°C 57% 8.0 mph NNE12.9 kmh NNE 17.0 mph27.4 kmh 30.12 in1020.0 mb 0.00 in0.0 mm 0.00 in0.0 mm 0.00 in0.0 mm
05:28 AM 55.4°F13.0°C 40.4°F4.7°C 57% 7.0 mph NNE11.3 kmh NNE 17.0 mph27.4 kmh 30.12 in1020.0 mb 0.00 in0.0 mm 0.00 in0.0 mm 0.00 in0.0 mm
05:29 AM 55.4°F13.0°C 40.4°F4.7°C 57% 7.0 mph NNE11.3 kmh NNE 17.0 mph27.4 kmh 30.12 in1020.0 mb 0.00 in0.0 mm 0.00 in0.0 mm 0.00 in0.0 mm
05:30 AM 55.4°F13.0°C 40.4°F4.7°C 57% 6.0 mph NNE9.7 kmh NNE 15.0 mph24.1 kmh 30.12 in1020.0 mb 0.00 in0.0 mm 0.00 in0.0 mm 0.00 in0.0 mm
05:31 AM 55.3°F12.9°C 40.3°F4.6°C 57% 6.0 mph NNE9.7 kmh NNE 19.0 mph30.6 kmh 30.12 in1020.0 mb 0.00 in0.0 mm 0.00 in0.0 mm 0.00 in0.0 mm
05:33 AM 55.3°F12.9°C 40.3°F4.6°C 57% 7.0 mph NE11.3 kmh NE 19.0 mph30.6 kmh 30.12 in1020.0 mb 0.00 in0.0 mm 0.00 in0.0 mm 0.00 in0.0 mm
05:35 AM 55.3°F12.9°C 40.8°F4.9°C 58% 7.0 mph NE11.3 kmh NE 19.0 mph30.6 kmh 30.12 in1020.0 mb 0.00 in0.0 mm 0.00 in0.0 mm 0.00 in0.0 mm
05:36 AM 55.3°F12.9°C 40.8°F4.9°C 58% 7.0 mph NE11.3 kmh NE 19.0 mph30.6 kmh 30.12 in1020.0 mb 0.00 in0.0 mm 0.00 in0.0 mm 0.00 in0.0 mm
05:38 AM 55.3°F12.9°C 40.8°F4.9°C 58% 7.0 mph NE11.3 kmh NE 19.0 mph30.6 kmh 30.12 in1020.0 mb 0.00 in0.0 mm 0.00 in0.0 mm 0.00 in0.0 mm
05:40 AM 55.2°F12.9°C 40.7°F4.8°C 58% 8.0 mph NNE12.9 kmh NNE 21.0 mph33.8 kmh 30.12 in1020.0 mb 0.00 in0.0 mm 0.00 in0.0 mm 0.00 in0.0 mm
05:41 AM 55.2°F12.9°C 40.7°F4.8°C 58% 8.0 mph NE12.9 kmh NE 21.0 mph33.8 kmh 30.12 in1020.0 mb 0.00 in0.0 mm 0.00 in0.0 mm 0.00 in0.0 mm
05:43 AM 55.2°F12.9°C 41.1°F5.1°C 59% 7.0 mph NNE11.3 kmh NNE 21.0 mph33.8 kmh 30.12 in1020.0 mb 0.00 in0.0 mm 0.00 in0.0 mm 0.00 in0.0 mm
05:44 AM 55.2°F12.9°C 41.1°F5.1°C 59% 7.0 mph NNE11.3 kmh NNE 21.0 mph33.8 kmh 30.12 in1020.0 mb 0.00 in0.0 mm 0.00 in0.0 mm 0.00 in0.0 mm
05:45 AM 55.2°F12.9°C 41.1°F5.1°C 59% 7.0 mph NNE11.3 kmh NNE 21.0 mph33.8 kmh 30.12 in1020.0 mb 0.00 in0.0 mm 0.00 in0.0 mm 0.00 in0.0 mm
05:46 AM 55.2°F12.9°C 41.1°F5.1°C 59% 7.0 mph NNE11.3 kmh NNE 21.0 mph33.8 kmh 30.12 in1020.0 mb 0.00 in0.0 mm 0.00 in0.0 mm 0.00 in0.0 mm
05:48 AM 55.2°F12.9°C 41.1°F5.1°C 59% 8.0 mph NNE12.9 kmh NNE 21.0 mph33.8 kmh 30.12 in1020.0 mb 0.00 in0.0 mm 0.00 in0.0 mm 0.00 in0.0 mm
05:49 AM 55.2°F12.9°C 41.1°F5.1°C 59% 8.0 mph NNE12.9 kmh NNE 20.0 mph32.2 kmh 30.12 in1020.0 mb 0.00 in0.0 mm 0.00 in0.0 mm 0.00 in0.0 mm
05:51 AM 55.2°F12.9°C 41.1°F5.1°C 59% 7.0 mph NE11.3 kmh NE 19.0 mph30.6 kmh 30.12 in1020.0 mb 0.00 in0.0 mm 0.00 in0.0 mm 0.00 in0.0 mm
05:52 AM 55.2°F12.9°C 41.1°F5.1°C 59% 8.0 mph NE12.9 kmh NE 19.0 mph30.6 kmh 30.13 in1020.3 mb 0.00 in0.0 mm 0.00 in0.0 mm 0.00 in0.0 mm
05:54 AM 55.2°F12.9°C 41.1°F5.1°C 59% 8.0 mph NE12.9 kmh NE 19.0 mph30.6 kmh 30.13 in1020.3 mb 0.00 in0.0 mm 0.00 in0.0 mm 0.00 in0.0 mm
05:55 AM 55.2°F12.9°C 41.1°F5.1°C 59% 8.0 mph NE12.9 kmh NE 19.0 mph30.6 kmh 30.13 in1020.3 mb 0.00 in0.0 mm 0.00 in0.0 mm 0.00 in0.0 mm
05:57 AM 55.2°F12.9°C 41.1°F5.1°C 59% 8.0 mph NE12.9 kmh NE 16.0 mph25.7 kmh 30.13 in1020.3 mb 0.00 in0.0 mm 0.00 in0.0 mm 0.00 in0.0 mm
05:58 AM 55.2°F12.9°C 41.1°F5.1°C 59% 8.0 mph NE12.9 kmh NE 16.0 mph25.7 kmh 30.13 in1020.3 mb 0.00 in0.0 mm 0.00 in0.0 mm 0.00 in0.0 mm
06:00 AM 55.2°F12.9°C 41.5°F5.3°C 60% 8.0 mph NE12.9 kmh NE 18.0 mph29.0 kmh 30.13 in1020.3 mb 0.00 in0.0 mm 0.00 in0.0 mm 0.00 in0.0 mm
06:01 AM 55.3°F12.9°C 41.6°F5.3°C 60% 8.0 mph NE12.9 kmh NE 18.0 mph29.0 kmh 30.13 in1020.3 mb 0.00 in0.0 mm 0.00 in0.0 mm 0.00 in0.0 mm
06:03 AM 55.3°F12.9°C 41.6°F5.3°C 60% 8.0 mph NE12.9 kmh NE 18.0 mph29.0 kmh 30.13 in1020.3 mb 0.00 in0.0 mm 0.00 in0.0 mm 0.00 in0.0 mm
06:04 AM 55.3°F12.9°C 41.6°F5.3°C 60% 8.0 mph NE12.9 kmh NE 18.0 mph29.0 kmh 30.13 in1020.3 mb 0.00 in0.0 mm 0.00 in0.0 mm 0.00 in0.0 mm
06:06 AM 55.3°F12.9°C 41.6°F5.3°C 60% 8.0 mph NE12.9 kmh NE 18.0 mph29.0 kmh 30.13 in1020.3 mb 0.00 in0.0 mm 0.00 in0.0 mm 0.00 in0.0 mm
06:07 AM 55.4°F13.0°C 41.7°F5.4°C 60% 8.0 mph NE12.9 kmh NE 18.0 mph29.0 kmh 30.13 in1020.3 mb 0.00 in0.0 mm 0.00 in0.0 mm 0.00 in0.0 mm
06:09 AM 55.4°F13.0°C 41.7°F5.4°C 60% 8.0 mph NE12.9 kmh NE 18.0 mph29.0 kmh 30.13 in1020.3 mb 0.00 in0.0 mm 0.00 in0.0 mm 0.00 in0.0 mm
06:10 AM 55.5°F13.1°C 41.8°F5.4°C 60% 7.0 mph NE11.3 kmh NE 18.0 mph29.0 kmh 30.13 in1020.3 mb 0.00 in0.0 mm 0.00 in0.0 mm 0.00 in0.0 mm
06:12 AM 55.5°F13.1°C 42.3°F5.7°C 61% 7.0 mph NE11.3 kmh NE 18.0 mph29.0 kmh 30.13 in1020.3 mb 0.00 in0.0 mm 0.00 in0.0 mm 0.00 in0.0 mm
06:13 AM 55.6°F13.1°C 42.4°F5.8°C 61% 7.0 mph NE11.3 kmh NE 18.0 mph29.0 kmh 30.13 in1020.3 mb 0.00 in0.0 mm 0.00 in0.0 mm 0.00 in0.0 mm
06:15 AM 55.6°F13.1°C 42.4°F5.8°C 61% 6.0 mph NE9.7 kmh NE 15.0 mph24.1 kmh 30.14 in1020.7 mb 0.00 in0.0 mm 0.00 in0.0 mm 0.00 in0.0 mm
06:16 AM 55.7°F13.2°C 42.5°F5.8°C 61% 7.0 mph NE11.3 kmh NE 15.0 mph24.1 kmh 30.14 in1020.7 mb 0.00 in0.0 mm 0.00 in0.0 mm 0.00 in0.0 mm
06:17 AM 55.7°F13.2°C 42.5°F5.8°C 61% 6.0 mph NE9.7 kmh NE 15.0 mph24.1 kmh 30.14 in1020.7 mb 0.00 in0.0 mm 0.00 in0.0 mm 0.00 in0.0 mm
06:18 AM 55.6°F13.1°C 42.4°F5.8°C 61% 6.0 mph NE9.7 kmh NE 15.0 mph24.1 kmh 30.14 in1020.7 mb 0.00 in0.0 mm 0.00 in0.0 mm 0.00 in0.0 mm
06:20 AM 55.7°F13.2°C 42.5°F5.8°C 61% 6.0 mph NE9.7 kmh NE 14.0 mph22.5 kmh 30.14 in1020.7 mb 0.00 in0.0 mm 0.00 in0.0 mm 0.00 in0.0 mm
06:21 AM 55.7°F13.2°C 42.5°F5.8°C 61% 5.0 mph NE8.0 kmh NE 14.0 mph22.5 kmh 30.14 in1020.7 mb 0.00 in0.0 mm 0.00 in0.0 mm 0.00 in0.0 mm
06:23 AM 55.8°F13.2°C 42.5°F5.8°C 61% 5.0 mph NE8.0 kmh NE 14.0 mph22.5 kmh 30.14 in1020.7 mb 0.00 in0.0 mm 0.00 in0.0 mm 0.00 in0.0 mm
06:24 AM 55.8°F13.2°C 42.5°F5.8°C 61% 5.0 mph NE8.0 kmh NE 14.0 mph22.5 kmh 30.14 in1020.7 mb 0.00 in0.0 mm 0.00 in0.0 mm 0.00 in0.0 mm
06:26 AM 55.9°F13.3°C 42.6°F5.9°C 61% 5.0 mph NE8.0 kmh NE 14.0 mph22.5 kmh 30.14 in1020.7 mb 0.00 in0.0 mm 0.00 in0.0 mm 0.00 in0.0 mm
06:27 AM 55.8°F13.2°C 42.5°F5.8°C 61% 5.0 mph NE8.0 kmh NE 15.0 mph24.1 kmh 30.14 in1020.7 mb 0.00 in0.0 mm 0.00 in0.0 mm 0.00 in0.0 mm
06:28 AM 55.8°F13.2°C 42.5°F5.8°C 61% 5.0 mph NE8.0 kmh NE 15.0 mph24.1 kmh 30.14 in1020.7 mb 0.00 in0.0 mm 0.00 in0.0 mm 0.00 in0.0 mm
06:29 AM 55.9°F13.3°C 42.6°F5.9°C 61% 5.0 mph NE8.0 kmh NE 15.0 mph24.1 kmh 30.14 in1020.7 mb 0.00 in0.0 mm 0.00 in0.0 mm 0.00 in0.0 mm
06:30 AM 55.9°F13.3°C 42.6°F5.9°C 61% 5.0 mph NE8.0 kmh NE 15.0 mph24.1 kmh 30.14 in1020.7 mb 0.00 in0.0 mm 0.00 in0.0 mm 0.00 in0.0 mm
06:31 AM 55.9°F13.3°C 42.6°F5.9°C 61% 5.0 mph NE8.0 kmh NE 15.0 mph24.1 kmh 30.14 in1020.7 mb 0.00 in0.0 mm 0.00 in0.0 mm 0.00 in0.0 mm
06:33 AM 56.0°F13.3°C 42.7°F5.9°C 61% 6.0 mph NE9.7 kmh NE 15.0 mph24.1 kmh 30.14 in1020.7 mb 0.00 in0.0 mm 0.00 in0.0 mm 0.00 in0.0 mm
06:34 AM 56.1°F13.4°C 43.3°F6.3°C 62% 5.0 mph NE8.0 kmh NE 15.0 mph24.1 kmh 30.14 in1020.7 mb 0.00 in0.0 mm 0.00 in0.0 mm 0.00 in0.0 mm
06:36 AM 56.2°F13.4°C 43.3°F6.3°C 62% 5.0 mph NE8.0 kmh NE 15.0 mph24.1 kmh 30.14 in1020.7 mb 0.00 in0.0 mm 0.00 in0.0 mm 0.00 in0.0 mm
06:37 AM 56.2°F13.4°C 43.3°F6.3°C 62% 5.0 mph NE8.0 kmh NE 13.0 mph20.9 kmh 30.14 in1020.7 mb 0.00 in0.0 mm 0.00 in0.0 mm 0.00 in0.0 mm
06:38 AM 56.2°F13.4°C 43.3°F6.3°C 62% 4.0 mph NE6.4 kmh NE 13.0 mph20.9 kmh 30.14 in1020.7 mb 0.00 in0.0 mm 0.00 in0.0 mm 0.00 in0.0 mm
06:40 AM 56.3°F13.5°C 43.4°F6.3°C 62% 5.0 mph NE8.0 kmh NE 21.0 mph33.8 kmh 30.14 in1020.7 mb 0.00 in0.0 mm 0.00 in0.0 mm 0.00 in0.0 mm
06:41 AM 56.4°F13.6°C 43.5°F6.4°C 62% 5.0 mph NE8.0 kmh NE 21.0 mph33.8 kmh 30.14 in1020.7 mb 0.00 in0.0 mm 0.00 in0.0 mm 0.00 in0.0 mm
06:42 AM 56.4°F13.6°C 43.5°F6.4°C 62% 6.0 mph NE9.7 kmh NE 21.0 mph33.8 kmh 30.14 in1020.7 mb 0.00 in0.0 mm 0.00 in0.0 mm 0.00 in0.0 mm
06:43 AM 56.5°F13.6°C 43.6°F6.4°C 62% 6.0 mph NE9.7 kmh NE 21.0 mph33.8 kmh 30.14 in1020.7 mb 0.00 in0.0 mm 0.00 in0.0 mm 0.00 in0.0 mm
06:45 AM 56.5°F13.6°C 43.6°F6.4°C 62% 6.0 mph NE9.7 kmh NE 21.0 mph33.8 kmh 30.14 in1020.7 mb 0.00 in0.0 mm 0.00 in0.0 mm 0.00 in0.0 mm
06:46 AM 56.5°F13.6°C 43.6°F6.4°C 62% 6.0 mph NE9.7 kmh NE 21.0 mph33.8 kmh 30.14 in1020.7 mb 0.00 in0.0 mm 0.00 in0.0 mm 0.00 in0.0 mm
06:48 AM 56.6°F13.7°C 44.1°F6.7°C 63% 6.0 mph NE9.7 kmh NE 21.0 mph33.8 kmh 30.14 in1020.7 mb 0.00 in0.0 mm 0.00 in0.0 mm 0.00 in0.0 mm
06:49 AM 56.6°F13.7°C 44.1°F6.7°C 63% 6.0 mph NE9.7 kmh NE 15.0 mph24.1 kmh 30.15 in1021.0 mb 0.00 in0.0 mm 0.00 in0.0 mm 0.00 in0.0 mm
06:50 AM 56.6°F13.7°C 43.7°F6.5°C 62% 6.0 mph NE9.7 kmh NE 15.0 mph24.1 kmh 30.14 in1020.7 mb 0.00 in0.0 mm 0.00 in0.0 mm 0.00 in0.0 mm
06:52 AM 56.7°F13.7°C 44.2°F6.8°C 63% 6.0 mph NE9.7 kmh NE 16.0 mph25.7 kmh 30.14 in1020.7 mb 0.00 in0.0 mm 0.00 in0.0 mm 0.00 in0.0 mm
06:53 AM 56.8°F13.8°C 44.3°F6.8°C 63% 6.0 mph NE9.7 kmh NE 16.0 mph25.7 kmh 30.14 in1020.7 mb 0.00 in0.0 mm 0.00 in0.0 mm 0.00 in0.0 mm
06:54 AM 56.9°F13.8°C 44.4°F6.9°C 63% 6.0 mph NE9.7 kmh NE 16.0 mph25.7 kmh 30.14 in1020.7 mb 0.00 in0.0 mm 0.00 in0.0 mm 0.00 in0.0 mm
06:55 AM 56.9°F13.8°C 44.4°F6.9°C 63% 6.0 mph NE9.7 kmh NE 16.0 mph25.7 kmh 30.14 in1020.7 mb 0.00 in0.0 mm 0.00 in0.0 mm 0.00 in0.0 mm
06:57 AM 57.0°F13.9°C 44.5°F6.9°C 63% 7.0 mph NE11.3 kmh NE 16.0 mph25.7 kmh 30.15 in1021.0 mb 0.00 in0.0 mm 0.00 in0.0 mm 0.00 in0.0 mm
06:58 AM 57.0°F13.9°C 44.5°F6.9°C 63% 7.0 mph NE11.3 kmh NE 16.0 mph25.7 kmh 30.15 in1021.0 mb 0.00 in0.0 mm 0.00 in0.0 mm 0.00 in0.0 mm
07:00 AM 57.1°F13.9°C 44.6°F7.0°C 63% 7.0 mph NE11.3 kmh NE 16.0 mph25.7 kmh 30.15 in1021.0 mb 0.00 in0.0 mm 0.00 in0.0 mm 0.00 in0.0 mm
07:01 AM 57.1°F13.9°C 44.6°F7.0°C 63% 6.0 mph NE9.7 kmh NE 16.0 mph25.7 kmh 30.15 in1021.0 mb 0.00 in0.0 mm 0.00 in0.0 mm 0.00 in0.0 mm
07:02 AM 57.1°F13.9°C 44.6°F7.0°C 63% 7.0 mph NE11.3 kmh NE 19.0 mph30.6 kmh 30.15 in1021.0 mb 0.00 in0.0 mm 0.00 in0.0 mm 0.00 in0.0 mm
07:03 AM 57.2°F14.0°C 44.7°F7.1°C 63% 7.0 mph NE11.3 kmh NE 19.0 mph30.6 kmh 30.15 in1021.0 mb 0.00 in0.0 mm 0.00 in0.0 mm 0.00 in0.0 mm
07:05 AM 57.2°F14.0°C 44.7°F7.1°C 63% 6.0 mph NE9.7 kmh NE 19.0 mph30.6 kmh 30.15 in1021.0 mb 0.00 in0.0 mm 0.00 in0.0 mm 0.00 in0.0 mm
07:07 AM 57.2°F14.0°C 44.7°F7.1°C 63% 6.0 mph NE9.7 kmh NE 19.0 mph30.6 kmh 30.15 in1021.0 mb 0.00 in0.0 mm 0.00 in0.0 mm 0.00 in0.0 mm
07:08 AM 57.2°F14.0°C 44.7°F7.1°C 63% 6.0 mph NE9.7 kmh NE 19.0 mph30.6 kmh 30.15 in1021.0 mb 0.00 in0.0 mm 0.00 in0.0 mm 0.00 in0.0 mm
07:09 AM 57.2°F14.0°C 44.7°F7.1°C 63% 6.0 mph NE9.7 kmh NE 21.0 mph33.8 kmh 30.15 in1021.0 mb 0.00 in0.0 mm 0.00 in0.0 mm 0.00 in0.0 mm
07:10 AM 57.2°F14.0°C 44.7°F7.1°C 63% 6.0 mph NE9.7 kmh NE 21.0 mph33.8 kmh 30.15 in1021.0 mb 0.00 in0.0 mm 0.00 in0.0 mm 0.00 in0.0 mm
07:12 AM 57.2°F14.0°C 44.7°F7.1°C 63% 7.0 mph NE11.3 kmh NE 21.0 mph33.8 kmh 30.15 in1021.0 mb 0.00 in0.0 mm 0.00 in0.0 mm 0.00 in0.0 mm
07:13 AM 57.2°F14.0°C 44.7°F7.1°C 63% 7.0 mph NE11.3 kmh NE 21.0 mph33.8 kmh 30.15 in1021.0 mb 0.00 in0.0 mm 0.00 in0.0 mm 0.00 in0.0 mm
07:14 AM 57.2°F14.0°C 44.7°F7.1°C 63% 6.0 mph NE9.7 kmh NE 21.0 mph33.8 kmh 30.15 in1021.0 mb 0.00 in0.0 mm 0.00 in0.0 mm 0.00 in0.0 mm
07:15 AM 57.1°F13.9°C 44.6°F7.0°C 63% 7.0 mph NE11.3 kmh NE 21.0 mph33.8 kmh 30.15 in1021.0 mb 0.00 in0.0 mm 0.00 in0.0 mm 0.00 in0.0 mm
07:16 AM 57.1°F13.9°C 44.6°F7.0°C 63% 7.0 mph NE11.3 kmh NE 21.0 mph33.8 kmh 30.15 in1021.0 mb 0.00 in0.0 mm 0.00 in0.0 mm 0.00 in0.0 mm
07:17 AM 57.1°F13.9°C 44.6°F7.0°C 63% 7.0 mph NE11.3 kmh NE 21.0 mph33.8 kmh 30.15 in1021.0 mb 0.00 in0.0 mm 0.00 in0.0 mm 0.00 in0.0 mm
07:18 AM 57.1°F13.9°C 45.0°F7.2°C 64% 6.0 mph NE9.7 kmh NE 21.0 mph33.8 kmh 30.15 in1021.0 mb 0.00 in0.0 mm 0.00 in0.0 mm 0.00 in0.0 mm
07:19 AM 57.1°F13.9°C 45.0°F7.2°C 64% 6.0 mph NE9.7 kmh NE 17.0 mph27.4 kmh 30.15 in1021.0 mb 0.00 in0.0 mm 0.00 in0.0 mm 0.00 in0.0 mm
07:20 AM 57.1°F13.9°C 45.0°F7.2°C 64% 6.0 mph NE9.7 kmh NE 17.0 mph27.4 kmh 30.15 in1021.0 mb 0.00 in0.0 mm 0.00 in0.0 mm 0.00 in0.0 mm
07:21 AM 57.1°F13.9°C 44.6°F7.0°C 63% 6.0 mph NE9.7 kmh NE 17.0 mph27.4 kmh 30.15 in1021.0 mb 0.00 in0.0 mm 0.00 in0.0 mm 0.00 in0.0 mm
07:22 AM 57.1°F13.9°C 45.0°F7.2°C 64% 6.0 mph NE9.7 kmh NE 17.0 mph27.4 kmh 30.15 in1021.0 mb 0.00 in0.0 mm 0.00 in0.0 mm 0.00 in0.0 mm
07:24 AM 57.0°F13.9°C 44.9°F7.2°C 64% 6.0 mph NE9.7 kmh NE 17.0 mph27.4 kmh 30.15 in1021.0 mb 0.00 in0.0 mm 0.00 in0.0 mm 0.00 in0.0 mm
07:25 AM 57.0°F13.9°C 44.9°F7.2°C 64% 6.0 mph NE9.7 kmh NE 17.0 mph27.4 kmh 30.15 in1021.0 mb 0.00 in0.0 mm 0.00 in0.0 mm 0.00 in0.0 mm
07:26 AM 57.0°F13.9°C 44.9°F7.2°C 64% 6.0 mph NE9.7 kmh NE 17.0 mph27.4 kmh 30.15 in1021.0 mb 0.00 in0.0 mm 0.00 in0.0 mm 0.00 in0.0 mm
07:27 AM 57.0°F13.9°C 44.9°F7.2°C 64% 6.0 mph NE9.7 kmh NE 17.0 mph27.4 kmh 30.15 in1021.0 mb 0.00 in0.0 mm 0.00 in0.0 mm 0.00 in0.0 mm
07:29 AM 56.9°F13.8°C 44.8°F7.1°C 64% 6.0 mph NE9.7 kmh NE 18.0 mph29.0 kmh 30.15 in1021.0 mb 0.00 in0.0 mm 0.00 in0.0 mm 0.00 in0.0 mm
07:31 AM 56.8°F13.8°C 45.2°F7.3°C 65% 7.0 mph NE11.3 kmh NE 18.0 mph29.0 kmh 30.15 in1021.0 mb 0.00 in0.0 mm 0.00 in0.0 mm 0.00 in0.0 mm
07:32 AM 56.8°F13.8°C 44.7°F7.1°C 64% 7.0 mph NE11.3 kmh NE 18.0 mph29.0 kmh 30.15 in1021.0 mb 0.00 in0.0 mm 0.00 in0.0 mm 0.00 in0.0 mm
07:34 AM 56.7°F13.7°C 45.1°F7.3°C 65% 7.0 mph NE11.3 kmh NE 21.0 mph33.8 kmh 30.15 in1021.0 mb 0.00 in0.0 mm 0.00 in0.0 mm 0.00 in0.0 mm
07:35 AM 56.7°F13.7°C 45.1°F7.3°C 65% 8.0 mph NE12.9 kmh NE 21.0 mph33.8 kmh 30.15 in1021.0 mb 0.00 in0.0 mm 0.00 in0.0 mm 0.00 in0.0 mm
07:37 AM 56.7°F13.7°C 45.1°F7.3°C 65% 8.0 mph NE12.9 kmh NE 21.0 mph33.8 kmh 30.15 in1021.0 mb 0.00 in0.0 mm 0.00 in0.0 mm 0.00 in0.0 mm
07:38 AM 56.7°F13.7°C 45.1°F7.3°C 65% 8.0 mph NE12.9 kmh NE 21.0 mph33.8 kmh 30.15 in1021.0 mb 0.00 in0.0 mm 0.00 in0.0 mm 0.00 in0.0 mm
07:39 AM 56.6°F13.7°C 45.0°F7.2°C 65% 8.0 mph NE12.9 kmh NE 21.0 mph33.8 kmh 30.15 in1021.0 mb 0.00 in0.0 mm 0.00 in0.0 mm 0.00 in0.0 mm
07:40 AM 56.6°F13.7°C 45.0°F7.2°C 65% 8.0 mph NE12.9 kmh NE 21.0 mph33.8 kmh 30.15 in1021.0 mb 0.00 in0.0 mm 0.00 in0.0 mm 0.00 in0.0 mm
07:42 AM 56.6°F13.7°C 45.4°F7.4°C 66% 7.0 mph NE11.3 kmh NE 21.0 mph33.8 kmh 30.15 in1021.0 mb 0.00 in0.0 mm 0.00 in0.0 mm 0.00 in0.0 mm
07:43 AM 56.5°F13.6°C 45.3°F7.4°C 66% 7.0 mph NE11.3 kmh NE 21.0 mph33.8 kmh 30.15 in1021.0 mb 0.00 in0.0 mm 0.00 in0.0 mm 0.00 in0.0 mm
07:44 AM 56.5°F13.6°C 45.3°F7.4°C 66% 7.0 mph NE11.3 kmh NE 18.0 mph29.0 kmh 30.15 in1021.0 mb 0.00 in0.0 mm 0.00 in0.0 mm 0.00 in0.0 mm
07:46 AM 56.4°F13.6°C 45.2°F7.3°C 66% 7.0 mph NE11.3 kmh NE 18.0 mph29.0 kmh 30.15 in1021.0 mb 0.00 in0.0 mm 0.00 in0.0 mm 0.00 in0.0 mm
07:48 AM 56.4°F13.6°C 45.2°F7.3°C 66% 7.0 mph NE11.3 kmh NE 18.0 mph29.0 kmh 30.15 in1021.0 mb 0.00 in0.0 mm 0.00 in0.0 mm 0.00 in0.0 mm
07:49 AM 56.3°F13.5°C 45.1°F7.3°C 66% 7.0 mph NE11.3 kmh NE 18.0 mph29.0 kmh 30.15 in1021.0 mb 0.00 in0.0 mm 0.00 in0.0 mm 0.00 in0.0 mm
07:50 AM 56.3°F13.5°C 45.1°F7.3°C 66% 7.0 mph NE11.3 kmh NE 18.0 mph29.0 kmh 30.15 in1021.0 mb 0.00 in0.0 mm 0.00 in0.0 mm 0.00 in0.0 mm
07:51 AM 56.3°F13.5°C 45.1°F7.3°C 66% 7.0 mph NE11.3 kmh NE 19.0 mph30.6 kmh 30.15 in1021.0 mb 0.00 in0.0 mm 0.00 in0.0 mm 0.00 in0.0 mm
07:53 AM 56.2°F13.4°C 45.4°F7.4°C 67% 8.0 mph NE12.9 kmh NE 19.0 mph30.6 kmh 30.15 in1021.0 mb 0.00 in0.0 mm 0.00 in0.0 mm 0.00 in0.0 mm
07:54 AM 56.2°F13.4°C 45.4°F7.4°C 67% 8.0 mph NE12.9 kmh NE 19.0 mph30.6 kmh 30.15 in1021.0 mb 0.00 in0.0 mm 0.00 in0.0 mm 0.00 in0.0 mm
07:56 AM 56.2°F13.4°C 45.4°F7.4°C 67% 8.0 mph NE12.9 kmh NE 19.0 mph30.6 kmh 30.15 in1021.0 mb 0.00 in0.0 mm 0.00 in0.0 mm 0.00 in0.0 mm
07:57 AM 56.1°F13.4°C 45.3°F7.4°C 67% 8.0 mph NE12.9 kmh NE 20.0 mph32.2 kmh 30.15 in1021.0 mb 0.00 in0.0 mm 0.00 in0.0 mm 0.00 in0.0 mm
07:59 AM 56.1°F13.4°C 45.3°F7.4°C 67% 9.0 mph NE14.5 kmh NE 20.0 mph32.2 kmh 30.15 in1021.0 mb 0.00 in0.0 mm 0.00 in0.0 mm 0.00 in0.0 mm
08:00 AM 56.1°F13.4°C 45.3°F7.4°C 67% 8.0 mph NE12.9 kmh NE 20.0 mph32.2 kmh 30.15 in1021.0 mb 0.00 in0.0 mm 0.00 in0.0 mm 0.00 in0.0 mm
08:01 AM 56.1°F13.4°C 45.3°F7.4°C 67% 8.0 mph NE12.9 kmh NE 20.0 mph32.2 kmh 30.15 in1021.0 mb 0.00 in0.0 mm 0.00 in0.0 mm 0.00 in0.0 mm
08:02 AM 56.0°F13.3°C 45.2°F7.3°C 67% 8.0 mph NE12.9 kmh NE 20.0 mph32.2 kmh 30.15 in1021.0 mb 0.00 in0.0 mm 0.00 in0.0 mm 0.00 in0.0 mm
08:04 AM 56.0°F13.3°C 45.6°F7.6°C 68% 9.0 mph NE14.5 kmh NE 20.0 mph32.2 kmh 30.15 in1021.0 mb 0.00 in0.0 mm 0.00 in0.0 mm 0.00 in0.0 mm
08:05 AM 56.0°F13.3°C 45.6°F7.6°C 68% 8.0 mph NE12.9 kmh NE 20.0 mph32.2 kmh 30.15 in1021.0 mb 0.00 in0.0 mm 0.00 in0.0 mm 0.00 in0.0 mm
08:07 AM 56.0°F13.3°C 45.6°F7.6°C 68% 8.0 mph NE12.9 kmh NE 18.0 mph29.0 kmh 30.15 in1021.0 mb 0.00 in0.0 mm 0.00 in0.0 mm 0.00 in0.0 mm
08:08 AM 56.0°F13.3°C 45.6°F7.6°C 68% 7.0 mph NE11.3 kmh NE 18.0 mph29.0 kmh 30.16 in1021.3 mb 0.00 in0.0 mm 0.00 in0.0 mm 0.00 in0.0 mm
08:09 AM 56.0°F13.3°C 45.6°F7.6°C 68% 8.0 mph NE12.9 kmh NE 18.0 mph29.0 kmh 30.16 in1021.3 mb 0.00 in0.0 mm 0.00 in0.0 mm 0.00 in0.0 mm
08:11 AM 56.0°F13.3°C 45.6°F7.6°C 68% 7.0 mph NE11.3 kmh NE 18.0 mph29.0 kmh 30.15 in1021.0 mb 0.00 in0.0 mm 0.00 in0.0 mm 0.00 in0.0 mm
08:12 AM 56.1°F13.4°C 45.7°F7.6°C 68% 7.0 mph NE11.3 kmh NE 18.0 mph29.0 kmh 30.15 in1021.0 mb 0.00 in0.0 mm 0.00 in0.0 mm 0.00 in0.0 mm
08:14 AM 56.0°F13.3°C 46.0°F7.8°C 69% 7.0 mph NE11.3 kmh NE 18.0 mph29.0 kmh 30.16 in1021.3 mb 0.00 in0.0 mm 0.00 in0.0 mm 0.00 in0.0 mm
08:15 AM 56.0°F13.3°C 46.0°F7.8°C 69% 7.0 mph NE11.3 kmh NE 18.0 mph29.0 kmh 30.16 in1021.3 mb 0.00 in0.0 mm 0.00 in0.0 mm 0.00 in0.0 mm
08:16 AM 56.0°F13.3°C 46.0°F7.8°C 69% 7.0 mph NE11.3 kmh NE 18.0 mph29.0 kmh 30.15 in1021.0 mb 0.00 in0.0 mm 0.00 in0.0 mm 0.00 in0.0 mm
08:17 AM 56.1°F13.4°C 46.1°F7.8°C 69% 7.0 mph NE11.3 kmh NE 18.0 mph29.0 kmh 30.16 in1021.3 mb 0.00 in0.0 mm 0.00 in0.0 mm 0.00 in0.0 mm
08:18 AM 56.1°F13.4°C 46.1°F7.8°C 69% 7.0 mph NE11.3 kmh NE 14.0 mph22.5 kmh 30.16 in1021.3 mb 0.00 in0.0 mm 0.00 in0.0 mm 0.00 in0.0 mm
08:19 AM 56.0°F13.3°C 46.0°F7.8°C 69% 6.0 mph NE9.7 kmh NE 14.0 mph22.5 kmh 30.16 in1021.3 mb 0.00 in0.0 mm 0.00 in0.0 mm 0.00 in0.0 mm
08:21 AM 56.0°F13.3°C 46.4°F8.0°C 70% 7.0 mph NE11.3 kmh NE 15.0 mph24.1 kmh 30.16 in1021.3 mb 0.00 in0.0 mm 0.00 in0.0 mm 0.00 in0.0 mm
08:22 AM 56.0°F13.3°C 46.4°F8.0°C 70% 7.0 mph NE11.3 kmh NE 21.0 mph33.8 kmh 30.15 in1021.0 mb 0.00 in0.0 mm 0.00 in0.0 mm 0.00 in0.0 mm
08:23 AM 56.0°F13.3°C 46.4°F8.0°C 70% 7.0 mph NE11.3 kmh NE 21.0 mph33.8 kmh 30.15 in1021.0 mb 0.00 in0.0 mm 0.00 in0.0 mm 0.00 in0.0 mm
08:25 AM 56.0°F13.3°C 46.7°F8.2°C 71% 7.0 mph NE11.3 kmh NE 21.0 mph33.8 kmh 30.15 in1021.0 mb 0.00 in0.0 mm 0.00 in0.0 mm 0.00 in0.0 mm
08:26 AM 56.0°F13.3°C 46.7°F8.2°C 71% 8.0 mph NE12.9 kmh NE 21.0 mph33.8 kmh 30.15 in1021.0 mb 0.00 in0.0 mm 0.00 in0.0 mm 0.00 in0.0 mm
08:27 AM 55.9°F13.3°C 46.6°F8.1°C 71% 8.0 mph NE12.9 kmh NE 21.0 mph33.8 kmh 30.15 in1021.0 mb 0.00 in0.0 mm 0.00 in0.0 mm 0.00 in0.0 mm
08:28 AM 56.0°F13.3°C 46.7°F8.2°C 71% 8.0 mph NE12.9 kmh NE 21.0 mph33.8 kmh 30.16 in1021.3 mb 0.00 in0.0 mm 0.00 in0.0 mm 0.00 in0.0 mm
08:29 AM 56.0°F13.3°C 46.7°F8.2°C 71% 8.0 mph NE12.9 kmh NE 21.0 mph33.8 kmh 30.15 in1021.0 mb 0.00 in0.0 mm 0.00 in0.0 mm 0.00 in0.0 mm
08:30 AM 56.0°F13.3°C 46.7°F8.2°C 71% 8.0 mph NE12.9 kmh NE 21.0 mph33.8 kmh 30.15 in1021.0 mb 0.00 in0.0 mm 0.00 in0.0 mm 0.00 in0.0 mm
08:31 AM 56.0°F13.3°C 46.7°F8.2°C 71% 8.0 mph NE12.9 kmh NE 21.0 mph33.8 kmh 30.15 in1021.0 mb 0.00 in0.0 mm 0.00 in0.0 mm 0.00 in0.0 mm
08:33 AM 56.1°F13.4°C 46.8°F8.2°C 71% 8.0 mph NE12.9 kmh NE 20.0 mph32.2 kmh 30.15 in1021.0 mb 0.00 in0.0 mm 0.00 in0.0 mm 0.00 in0.0 mm
08:34 AM 56.1°F13.4°C 47.2°F8.4°C 72% 8.0 mph NE12.9 kmh NE 21.0 mph33.8 kmh 30.15 in1021.0 mb 0.00 in0.0 mm 0.00 in0.0 mm 0.00 in0.0 mm
08:36 AM 56.1°F13.4°C 47.2°F8.4°C 72% 8.0 mph NE12.9 kmh NE 24.0 mph38.6 kmh 30.16 in1021.3 mb 0.00 in0.0 mm 0.00 in0.0 mm 0.00 in0.0 mm
08:38 AM 56.2°F13.4°C 47.3°F8.5°C 72% 8.0 mph NE12.9 kmh NE 24.0 mph38.6 kmh 30.16 in1021.3 mb 0.00 in0.0 mm 0.00 in0.0 mm 0.00 in0.0 mm
08:39 AM 56.2°F13.4°C 47.3°F8.5°C 72% 8.0 mph NE12.9 kmh NE 24.0 mph38.6 kmh 30.16 in1021.3 mb 0.00 in0.0 mm 0.00 in0.0 mm 0.00 in0.0 mm
08:41 AM 56.2°F13.4°C 47.3°F8.5°C 72% 9.0 mph NE14.5 kmh NE 24.0 mph38.6 kmh 30.15 in1021.0 mb 0.00 in0.0 mm 0.00 in0.0 mm 0.00 in0.0 mm
08:42 AM 56.2°F13.4°C 47.3°F8.5°C 72% 9.0 mph NE14.5 kmh NE 24.0 mph38.6 kmh 30.15 in1021.0 mb 0.00 in0.0 mm 0.00 in0.0 mm 0.00 in0.0 mm
08:44 AM 56.3°F13.5°C 47.8°F8.8°C 73% 9.0 mph NE14.5 kmh NE 24.0 mph38.6 kmh 30.16 in1021.3 mb 0.00 in0.0 mm 0.00 in0.0 mm 0.00 in0.0 mm
08:46 AM 56.4°F13.6°C 47.9°F8.8°C 73% 9.0 mph NE14.5 kmh NE 18.0 mph29.0 kmh 30.16 in1021.3 mb 0.00 in0.0 mm 0.00 in0.0 mm 0.00 in0.0 mm
08:48 AM 56.4°F13.6°C 47.9°F8.8°C 73% 10.0 mph NE16.1 kmh NE 24.0 mph38.6 kmh 30.15 in1021.0 mb 0.00 in0.0 mm 0.00 in0.0 mm 0.00 in0.0 mm
08:49 AM 56.4°F13.6°C 47.9°F8.8°C 73% 10.0 mph NE16.1 kmh NE 24.0 mph38.6 kmh 30.16 in1021.3 mb 0.00 in0.0 mm 0.00 in0.0 mm 0.00 in0.0 mm
08:50 AM 56.4°F13.6°C 47.9°F8.8°C 73% 10.0 mph NE16.1 kmh NE 24.0 mph38.6 kmh 30.16 in1021.3 mb 0.00 in0.0 mm 0.00 in0.0 mm 0.00 in0.0 mm
08:51 AM 56.5°F13.6°C 47.9°F8.8°C 73% 10.0 mph NE16.1 kmh NE 24.0 mph38.6 kmh 30.16 in1021.3 mb 0.00 in0.0 mm 0.00 in0.0 mm 0.00 in0.0 mm
08:53 AM 56.5°F13.6°C 48.3°F9.1°C 74% 10.0 mph NE16.1 kmh NE 24.0 mph38.6 kmh 30.16 in1021.3 mb 0.00 in0.0 mm 0.00 in0.0 mm 0.00 in0.0 mm
08:54 AM 56.5°F13.6°C 48.3°F9.1°C 74% 11.0 mph NE17.7 kmh NE 24.0 mph38.6 kmh 30.15 in1021.0 mb 0.00 in0.0 mm 0.00 in0.0 mm 0.00 in0.0 mm
08:56 AM 56.5°F13.6°C 48.3°F9.1°C 74% 11.0 mph NE17.7 kmh NE 24.0 mph38.6 kmh 30.15 in1021.0 mb 0.00 in0.0 mm 0.00 in0.0 mm 0.00 in0.0 mm
08:57 AM 56.6°F13.7°C 48.4°F9.1°C 74% 11.0 mph NE17.7 kmh NE 24.0 mph38.6 kmh 30.16 in1021.3 mb 0.00 in0.0 mm 0.00 in0.0 mm 0.00 in0.0 mm
08:59 AM 56.6°F13.7°C 48.4°F9.1°C 74% 10.0 mph NE16.1 kmh NE 23.0 mph37.0 kmh 30.16 in1021.3 mb 0.00 in0.0 mm 0.00 in0.0 mm 0.00 in0.0 mm
09:00 AM 56.6°F13.7°C 48.8°F9.3°C 75% 10.0 mph NE16.1 kmh NE 23.0 mph37.0 kmh 30.16 in1021.3 mb 0.00 in0.0 mm 0.00 in0.0 mm 0.00 in0.0 mm
09:01 AM 56.7°F13.7°C 48.9°F9.4°C 75% 10.0 mph NE16.1 kmh NE 22.0 mph35.4 kmh 30.16 in1021.3 mb 0.00 in0.0 mm 0.00 in0.0 mm 0.00 in0.0 mm
09:02 AM 56.7°F13.7°C 48.9°F9.4°C 75% 9.0 mph NE14.5 kmh NE 22.0 mph35.4 kmh 30.16 in1021.3 mb 0.00 in0.0 mm 0.00 in0.0 mm 0.00 in0.0 mm
09:04 AM 56.7°F13.7°C 48.9°F9.4°C 75% 8.0 mph NE12.9 kmh NE 23.0 mph37.0 kmh 30.16 in1021.3 mb 0.00 in0.0 mm 0.00 in0.0 mm 0.00 in0.0 mm
09:05 AM 56.7°F13.7°C 48.9°F9.4°C 75% 8.0 mph NE12.9 kmh NE 23.0 mph37.0 kmh 30.16 in1021.3 mb 0.00 in0.0 mm 0.00 in0.0 mm 0.00 in0.0 mm
09:07 AM 56.8°F13.8°C 49.0°F9.4°C 75% 8.0 mph NE12.9 kmh NE 23.0 mph37.0 kmh 30.16 in1021.3 mb 0.00 in0.0 mm 0.00 in0.0 mm 0.00 in0.0 mm
09:08 AM 56.8°F13.8°C 49.0°F9.4°C 75% 8.0 mph NE12.9 kmh NE 23.0 mph37.0 kmh 30.16 in1021.3 mb 0.00 in0.0 mm 0.00 in0.0 mm 0.00 in0.0 mm
09:10 AM 56.8°F13.8°C 49.0°F9.4°C 75% 8.0 mph NE12.9 kmh NE 23.0 mph37.0 kmh 30.16 in1021.3 mb 0.00 in0.0 mm 0.00 in0.0 mm 0.00 in0.0 mm
09:11 AM 56.8°F13.8°C 49.0°F9.4°C 75% 8.0 mph NE12.9 kmh NE 23.0 mph37.0 kmh 30.16 in1021.3 mb 0.00 in0.0 mm 0.00 in0.0 mm 0.00 in0.0 mm
09:12 AM 56.9°F13.8°C 49.1°F9.5°C 75% 8.0 mph NE12.9 kmh NE 23.0 mph37.0 kmh 30.16 in1021.3 mb 0.00 in0.0 mm 0.00 in0.0 mm 0.00 in0.0 mm
09:14 AM 56.9°F13.8°C 49.1°F9.5°C 75% 8.0 mph NE12.9 kmh NE 19.0 mph30.6 kmh 30.16 in1021.3 mb 0.00 in0.0 mm 0.00 in0.0 mm 0.00 in0.0 mm
09:16 AM 57.0°F13.9°C 49.2°F9.6°C 75% 7.0 mph NE11.3 kmh NE 19.0 mph30.6 kmh 30.16 in1021.3 mb 0.00 in0.0 mm 0.00 in0.0 mm 0.00 in0.0 mm
09:18 AM 57.1°F13.9°C 49.2°F9.6°C 75% 7.0 mph NE11.3 kmh NE 19.0 mph30.6 kmh 30.16 in1021.3 mb 0.00 in0.0 mm 0.00 in0.0 mm 0.00 in0.0 mm
09:20 AM 57.1°F13.9°C 49.6°F9.8°C 76% 7.0 mph NE11.3 kmh NE 19.0 mph30.6 kmh 30.16 in1021.3 mb 0.00 in0.0 mm 0.00 in0.0 mm 0.00 in0.0 mm
09:21 AM 57.2°F14.0°C 49.7°F9.8°C 76% 6.0 mph NE9.7 kmh NE 19.0 mph30.6 kmh 30.16 in1021.3 mb 0.00 in0.0 mm 0.00 in0.0 mm 0.00 in0.0 mm
09:22 AM 57.2°F14.0°C 49.7°F9.8°C 76% 6.0 mph NE9.7 kmh NE 17.0 mph27.4 kmh 30.17 in1021.7 mb 0.00 in0.0 mm 0.00 in0.0 mm 0.00 in0.0 mm
09:23 AM 57.2°F14.0°C 49.3°F9.6°C 75% 6.0 mph NE9.7 kmh NE 17.0 mph27.4 kmh 30.16 in1021.3 mb 0.00 in0.0 mm 0.00 in0.0 mm 0.00 in0.0 mm
09:25 AM 57.3°F14.1°C 49.4°F9.7°C 75% 6.0 mph NE9.7 kmh NE 17.0 mph27.4 kmh 30.17 in1021.7 mb 0.00 in0.0 mm 0.00 in0.0 mm 0.00 in0.0 mm
09:26 AM 57.3°F14.1°C 49.4°F9.7°C 75% 6.0 mph NE9.7 kmh NE 17.0 mph27.4 kmh 30.17 in1021.7 mb 0.00 in0.0 mm 0.00 in0.0 mm 0.00 in0.0 mm
09:28 AM 57.4°F14.1°C 49.9°F9.9°C 76% 5.0 mph NE8.0 kmh NE 17.0 mph27.4 kmh 30.17 in1021.7 mb 0.00 in0.0 mm 0.00 in0.0 mm 0.00 in0.0 mm
09:29 AM 57.4°F14.1°C 49.9°F9.9°C 76% 6.0 mph NE9.7 kmh NE 17.0 mph27.4 kmh 30.17 in1021.7 mb 0.00 in0.0 mm 0.00 in0.0 mm 0.00 in0.0 mm
09:31 AM 57.5°F14.2°C 50.0°F10.0°C 76% 6.0 mph NE9.7 kmh NE 20.0 mph32.2 kmh 30.17 in1021.7 mb 0.00 in0.0 mm 0.00 in0.0 mm 0.00 in0.0 mm
09:32 AM 57.6°F14.2°C 50.1°F10.1°C 76% 7.0 mph NE11.3 kmh NE 20.0 mph32.2 kmh 30.17 in1021.7 mb 0.00 in0.0 mm 0.00 in0.0 mm 0.00 in0.0 mm
09:34 AM 57.6°F14.2°C 50.1°F10.1°C 76% 7.0 mph NE11.3 kmh NE 20.0 mph32.2 kmh 30.17 in1021.7 mb 0.00 in0.0 mm 0.00 in0.0 mm 0.00 in0.0 mm
09:35 AM 57.7°F14.3°C 50.2°F10.1°C 76% 7.0 mph NE11.3 kmh NE 20.0 mph32.2 kmh 30.17 in1021.7 mb 0.00 in0.0 mm 0.00 in0.0 mm 0.00 in0.0 mm
09:37 AM 57.9°F14.4°C 50.4°F10.2°C 76% 6.0 mph NE9.7 kmh NE 20.0 mph32.2 kmh 30.17 in1021.7 mb 0.00 in0.0 mm 0.00 in0.0 mm 0.00 in0.0 mm
09:38 AM 57.9°F14.4°C 50.4°F10.2°C 76% 6.0 mph NE9.7 kmh NE 20.0 mph32.2 kmh 30.17 in1021.7 mb 0.00 in0.0 mm 0.00 in0.0 mm 0.00 in0.0 mm
09:40 AM 58.1°F14.5°C 50.6°F10.3°C 76% 5.0 mph NE8.0 kmh NE 20.0 mph32.2 kmh 30.17 in1021.7 mb 0.00 in0.0 mm 0.00 in0.0 mm 0.00 in0.0 mm
09:41 AM 58.2°F14.6°C 50.7°F10.4°C 76% 6.0 mph NE9.7 kmh NE 19.0 mph30.6 kmh 30.17 in1021.7 mb 0.00 in0.0 mm 0.00 in0.0 mm 0.00 in0.0 mm
09:43 AM 58.3°F14.6°C 50.8°F10.4°C 76% 5.0 mph NE8.0 kmh NE 19.0 mph30.6 kmh 30.17 in1021.7 mb 0.00 in0.0 mm 0.00 in0.0 mm 0.00 in0.0 mm
09:44 AM 58.4°F14.7°C 50.9°F10.5°C 76% 5.0 mph NE8.0 kmh NE 19.0 mph30.6 kmh 30.17 in1021.7 mb 0.00 in0.0 mm 0.00 in0.0 mm 0.00 in0.0 mm
09:46 AM 58.6°F14.8°C 51.1°F10.6°C 76% 6.0 mph NE9.7 kmh NE 19.0 mph30.6 kmh 30.17 in1021.7 mb 0.00 in0.0 mm 0.00 in0.0 mm 0.00 in0.0 mm
09:47 AM 58.7°F14.8°C 51.2°F10.7°C 76% 6.0 mph NE9.7 kmh NE 19.0 mph30.6 kmh 30.17 in1021.7 mb 0.00 in0.0 mm 0.00 in0.0 mm 0.00 in0.0 mm
09:48 AM 58.8°F14.9°C 51.2°F10.7°C 76% 7.0 mph NE11.3 kmh NE 19.0 mph30.6 kmh 30.17 in1021.7 mb 0.00 in0.0 mm 0.00 in0.0 mm 0.00 in0.0 mm
09:50 AM 59.1°F15.1°C 51.2°F10.7°C 75% 7.0 mph NE11.3 kmh NE 17.0 mph27.4 kmh 30.17 in1021.7 mb 0.00 in0.0 mm 0.00 in0.0 mm 0.00 in0.0 mm
09:51 AM 59.2°F15.1°C 51.3°F10.7°C 75% 7.0 mph NE11.3 kmh NE 17.0 mph27.4 kmh 30.17 in1021.7 mb 0.00 in0.0 mm 0.00 in0.0 mm 0.00 in0.0 mm
09:53 AM 59.4°F15.2°C 51.5°F10.8°C 75% 7.0 mph NE11.3 kmh NE 17.0 mph27.4 kmh 30.17 in1021.7 mb 0.00 in0.0 mm 0.00 in0.0 mm 0.00 in0.0 mm
09:54 AM 59.5°F15.3°C 51.6°F10.9°C 75% 7.0 mph NE11.3 kmh NE 16.0 mph25.7 kmh 30.17 in1021.7 mb 0.00 in0.0 mm 0.00 in0.0 mm 0.00 in0.0 mm
09:56 AM 59.7°F15.4°C 51.8°F11.0°C 75% 7.0 mph NE11.3 kmh NE 20.0 mph32.2 kmh 30.17 in1021.7 mb 0.00 in0.0 mm 0.00 in0.0 mm 0.00 in0.0 mm
09:57 AM 59.8°F15.4°C 51.5°F10.8°C 74% 7.0 mph NE11.3 kmh NE 20.0 mph32.2 kmh 30.17 in1021.7 mb 0.00 in0.0 mm 0.00 in0.0 mm 0.00 in0.0 mm
09:59 AM 59.9°F15.5°C 51.2°F10.7°C 73% 7.0 mph NE11.3 kmh NE 20.0 mph32.2 kmh 30.17 in1021.7 mb 0.00 in0.0 mm 0.00 in0.0 mm 0.00 in0.0 mm
10:01 AM 59.9°F15.5°C 51.2°F10.7°C 73% 8.0 mph NE12.9 kmh NE 20.0 mph32.2 kmh 30.18 in1022.0 mb 0.00 in0.0 mm 0.00 in0.0 mm 0.00 in0.0 mm
10:02 AM 59.9°F15.5°C 51.2°F10.7°C 73% 8.0 mph NE12.9 kmh NE 20.0 mph32.2 kmh 30.18 in1022.0 mb 0.00 in0.0 mm 0.00 in0.0 mm 0.00 in0.0 mm
10:04 AM 59.9°F15.5°C 51.6°F10.9°C 74% 9.0 mph NE14.5 kmh NE 20.0 mph32.2 kmh 30.18 in1022.0 mb 0.00 in0.0 mm 0.00 in0.0 mm 0.00 in0.0 mm
10:05 AM 59.9°F15.5°C 51.2°F10.7°C 73% 9.0 mph NE14.5 kmh NE 20.0 mph32.2 kmh 30.18 in1022.0 mb 0.00 in0.0 mm 0.00 in0.0 mm 0.00 in0.0 mm
10:07 AM 59.9°F15.5°C 51.2°F10.7°C 73% 10.0 mph NE16.1 kmh NE 20.0 mph32.2 kmh 30.18 in1022.0 mb 0.00 in0.0 mm 0.00 in0.0 mm 0.00 in0.0 mm
10:08 AM 59.9°F15.5°C 51.2°F10.7°C 73% 10.0 mph NE16.1 kmh NE 20.0 mph32.2 kmh 30.19 in1022.4 mb 0.00 in0.0 mm 0.00 in0.0 mm 0.00 in0.0 mm
10:10 AM 60.0°F15.6°C 51.3°F10.7°C 73% 9.0 mph NE14.5 kmh NE 20.0 mph32.2 kmh 30.19 in1022.4 mb 0.00 in0.0 mm 0.00 in0.0 mm 0.00 in0.0 mm
10:11 AM 60.1°F15.6°C 51.4°F10.8°C 73% 9.0 mph NE14.5 kmh NE 20.0 mph32.2 kmh 30.19 in1022.4 mb 0.00 in0.0 mm 0.00 in0.0 mm 0.00 in0.0 mm
10:13 AM 60.3°F15.7°C 52.0°F11.1°C 74% 8.0 mph NE12.9 kmh NE 20.0 mph32.2 kmh 30.19 in1022.4 mb 0.00 in0.0 mm 0.00 in0.0 mm 0.00 in0.0 mm
10:14 AM 60.4°F15.8°C 51.7°F10.9°C 73% 8.0 mph NE12.9 kmh NE 20.0 mph32.2 kmh 30.19 in1022.4 mb 0.00 in0.0 mm 0.00 in0.0 mm 0.00 in0.0 mm
10:16 AM 60.6°F15.9°C 51.9°F11.1°C 73% 7.0 mph NE11.3 kmh NE 17.0 mph27.4 kmh 30.20 in1022.7 mb 0.00 in0.0 mm 0.00 in0.0 mm 0.00 in0.0 mm
10:17 AM 60.6°F15.9°C 51.9°F11.1°C 73% 6.0 mph NE9.7 kmh NE 16.0 mph25.7 kmh 30.20 in1022.7 mb 0.00 in0.0 mm 0.00 in0.0 mm 0.00 in0.0 mm
10:18 AM 60.7°F15.9°C 52.0°F11.1°C 73% 6.0 mph NE9.7 kmh NE 16.0 mph25.7 kmh 30.20 in1022.7 mb 0.00 in0.0 mm 0.00 in0.0 mm 0.00 in0.0 mm
10:20 AM 60.8°F16.0°C 51.7°F10.9°C 72% 5.0 mph NE8.0 kmh NE 16.0 mph25.7 kmh 30.20 in1022.7 mb 0.00 in0.0 mm 0.00 in0.0 mm 0.00 in0.0 mm
10:21 AM 60.7°F15.9°C 51.6°F10.9°C 72% 5.0 mph ENE8.0 kmh ENE 15.0 mph24.1 kmh 30.20 in1022.7 mb 0.00 in0.0 mm 0.00 in0.0 mm 0.00 in0.0 mm
10:23 AM 60.7°F15.9°C 52.0°F11.1°C 73% 5.0 mph ENE8.0 kmh ENE 15.0 mph24.1 kmh 30.20 in1022.7 mb 0.00 in0.0 mm 0.00 in0.0 mm 0.00 in0.0 mm
10:24 AM 60.7°F15.9°C 52.0°F11.1°C 73% 5.0 mph NE8.0 kmh NE 17.0 mph27.4 kmh 30.20 in1022.7 mb 0.00 in0.0 mm 0.00 in0.0 mm 0.00 in0.0 mm
10:26 AM 60.6°F15.9°C 51.9°F11.1°C 73% 6.0 mph NE9.7 kmh NE 17.0 mph27.4 kmh 30.20 in1022.7 mb 0.00 in0.0 mm 0.00 in0.0 mm 0.00 in0.0 mm
10:27 AM 60.6°F15.9°C 51.9°F11.1°C 73% 6.0 mph NE9.7 kmh NE 17.0 mph27.4 kmh 30.20 in1022.7 mb 0.00 in0.0 mm 0.00 in0.0 mm 0.00 in0.0 mm
10:29 AM 60.5°F15.8°C 51.4°F10.8°C 72% 8.0 mph NE12.9 kmh NE 19.0 mph30.6 kmh 30.20 in1022.7 mb 0.00 in0.0 mm 0.00 in0.0 mm 0.00 in0.0 mm
10:30 AM 60.6°F15.9°C 51.9°F11.1°C 73% 8.0 mph NE12.9 kmh NE 19.0 mph30.6 kmh 30.20 in1022.7 mb 0.00 in0.0 mm 0.00 in0.0 mm 0.00 in0.0 mm
10:31 AM 60.6°F15.9°C 51.9°F11.1°C 73% 8.0 mph NE12.9 kmh NE 19.0 mph30.6 kmh 30.20 in1022.7 mb 0.00 in0.0 mm 0.00 in0.0 mm 0.00 in0.0 mm
10:33 AM 60.6°F15.9°C 51.5°F10.8°C 72% 9.0 mph NE14.5 kmh NE 19.0 mph30.6 kmh 30.20 in1022.7 mb 0.00 in0.0 mm 0.00 in0.0 mm 0.00 in0.0 mm
10:34 AM 60.6°F15.9°C 51.9°F11.1°C 73% 10.0 mph NE16.1 kmh NE 19.0 mph30.6 kmh 30.19 in1022.4 mb 0.00 in0.0 mm 0.00 in0.0 mm 0.00 in0.0 mm
10:36 AM 60.8°F16.0°C 52.1°F11.2°C 73% 10.0 mph NE16.1 kmh NE 19.0 mph30.6 kmh 30.19 in1022.4 mb 0.00 in0.0 mm 0.00 in0.0 mm 0.00 in0.0 mm
10:37 AM 61.0°F16.1°C 52.3°F11.3°C 73% 10.0 mph NE16.1 kmh NE 19.0 mph30.6 kmh 30.20 in1022.7 mb 0.00 in0.0 mm 0.00 in0.0 mm 0.00 in0.0 mm
10:39 AM 61.1°F16.2°C 52.4°F11.3°C 73% 9.0 mph NE14.5 kmh NE 19.0 mph30.6 kmh 30.19 in1022.4 mb 0.00 in0.0 mm 0.00 in0.0 mm 0.00 in0.0 mm
10:40 AM 61.2°F16.2°C 52.5°F11.4°C 73% 9.0 mph NE14.5 kmh NE 18.0 mph29.0 kmh 30.19 in1022.4 mb 0.00 in0.0 mm 0.00 in0.0 mm 0.00 in0.0 mm
10:42 AM 61.3°F16.3°C 52.2°F11.2°C 72% 9.0 mph NE14.5 kmh NE 22.0 mph35.4 kmh 30.20 in1022.7 mb 0.00 in0.0 mm 0.00 in0.0 mm 0.00 in0.0 mm
10:43 AM 61.2°F16.2°C 52.1°F11.2°C 72% 9.0 mph NE14.5 kmh NE 22.0 mph35.4 kmh 30.19 in1022.4 mb 0.00 in0.0 mm 0.00 in0.0 mm 0.00 in0.0 mm
10:44 AM 61.2°F16.2°C 52.1°F11.2°C 72% 10.0 mph NE16.1 kmh NE 22.0 mph35.4 kmh 30.19 in1022.4 mb 0.00 in0.0 mm 0.00 in0.0 mm 0.00 in0.0 mm
10:46 AM 61.2°F16.2°C 52.1°F11.2°C 72% 10.0 mph NE16.1 kmh NE 22.0 mph35.4 kmh 30.19 in1022.4 mb 0.00 in0.0 mm 0.00 in0.0 mm 0.00 in0.0 mm
10:47 AM 61.2°F16.2°C 52.1°F11.2°C 72% 10.0 mph NE16.1 kmh NE 22.0 mph35.4 kmh 30.19 in1022.4 mb 0.00 in0.0 mm 0.00 in0.0 mm 0.00 in0.0 mm
10:48 AM 61.3°F16.3°C 52.2°F11.2°C 72% 10.0 mph NE16.1 kmh NE 22.0 mph35.4 kmh 30.19 in1022.4 mb 0.00 in0.0 mm 0.00 in0.0 mm 0.00 in0.0 mm
10:49 AM 61.5°F16.4°C 52.4°F11.3°C 72% 10.0 mph NNE16.1 kmh NNE 22.0 mph35.4 kmh 30.19 in1022.4 mb 0.00 in0.0 mm 0.00 in0.0 mm 0.00 in0.0 mm
10:51 AM 61.7°F16.5°C 52.6°F11.4°C 72% 9.0 mph NE14.5 kmh NE 21.0 mph33.8 kmh 30.19 in1022.4 mb 0.00 in0.0 mm 0.00 in0.0 mm 0.00 in0.0 mm
10:52 AM 61.8°F16.6°C 52.7°F11.5°C 72% 9.0 mph NE14.5 kmh NE 21.0 mph33.8 kmh 30.19 in1022.4 mb 0.00 in0.0 mm 0.00 in0.0 mm 0.00 in0.0 mm
10:54 AM 61.9°F16.6°C 52.4°F11.3°C 71% 9.0 mph NE14.5 kmh NE 21.0 mph33.8 kmh 30.19 in1022.4 mb 0.00 in0.0 mm 0.00 in0.0 mm 0.00 in0.0 mm
10:55 AM 61.9°F16.6°C 52.4°F11.3°C 71% 9.0 mph NE14.5 kmh NE 21.0 mph33.8 kmh 30.19 in1022.4 mb 0.00 in0.0 mm 0.00 in0.0 mm 0.00 in0.0 mm
10:57 AM 61.8°F16.6°C 52.3°F11.3°C 71% 9.0 mph NE14.5 kmh NE 21.0 mph33.8 kmh 30.19 in1022.4 mb 0.00 in0.0 mm 0.00 in0.0 mm 0.00 in0.0 mm
10:58 AM 61.7°F16.5°C 52.2°F11.2°C 71% 9.0 mph NE14.5 kmh NE 21.0 mph33.8 kmh 30.19 in1022.4 mb 0.00 in0.0 mm 0.00 in0.0 mm 0.00 in0.0 mm
11:00 AM 61.8°F16.6°C 52.7°F11.5°C 72% 10.0 mph NE16.1 kmh NE 21.0 mph33.8 kmh 30.19 in1022.4 mb 0.00 in0.0 mm 0.00 in0.0 mm 0.00 in0.0 mm
11:01 AM 61.8°F16.6°C 52.7°F11.5°C 72% 10.0 mph NE16.1 kmh NE 20.0 mph32.2 kmh 30.19 in1022.4 mb 0.00 in0.0 mm 0.00 in0.0 mm 0.00 in0.0 mm
11:03 AM 61.8°F16.6°C 52.3°F11.3°C 71% 10.0 mph NE16.1 kmh NE 19.0 mph30.6 kmh 30.19 in1022.4 mb 0.00 in0.0 mm 0.00 in0.0 mm 0.00 in0.0 mm
11:04 AM 61.9°F16.6°C 52.4°F11.3°C 71% 10.0 mph NE16.1 kmh NE 19.0 mph30.6 kmh 30.19 in1022.4 mb 0.00 in0.0 mm 0.00 in0.0 mm 0.00 in0.0 mm
11:06 AM 62.2°F16.8°C 53.1°F11.7°C 72% 9.0 mph NE14.5 kmh NE 19.0 mph30.6 kmh 30.19 in1022.4 mb 0.00 in0.0 mm 0.00 in0.0 mm 0.00 in0.0 mm
11:07 AM 62.5°F16.9°C 53.3°F11.8°C 72% 9.0 mph NE14.5 kmh NE 18.0 mph29.0 kmh 30.19 in1022.4 mb 0.00 in0.0 mm 0.00 in0.0 mm 0.00 in0.0 mm
11:08 AM 62.6°F17.0°C 53.1°F11.7°C 71% 8.0 mph NE12.9 kmh NE 18.0 mph29.0 kmh 30.19 in1022.4 mb 0.00 in0.0 mm 0.00 in0.0 mm 0.00 in0.0 mm
11:09 AM 62.8°F17.1°C 53.3°F11.8°C 71% 7.0 mph NE11.3 kmh NE 18.0 mph29.0 kmh 30.19 in1022.4 mb 0.00 in0.0 mm 0.00 in0.0 mm 0.00 in0.0 mm
11:11 AM 62.9°F17.2°C 52.6°F11.4°C 69% 7.0 mph NE11.3 kmh NE 20.0 mph32.2 kmh 30.20 in1022.7 mb 0.00 in0.0 mm 0.00 in0.0 mm 0.00 in0.0 mm
11:12 AM 62.6°F17.0°C 52.3°F11.3°C 69% 7.0 mph NE11.3 kmh NE 20.0 mph32.2 kmh 30.20 in1022.7 mb 0.00 in0.0 mm 0.00 in0.0 mm 0.00 in0.0 mm
11:14 AM 62.3°F16.8°C 52.4°F11.3°C 70% 8.0 mph NE12.9 kmh NE 20.0 mph32.2 kmh 30.20 in1022.7 mb 0.00 in0.0 mm 0.00 in0.0 mm 0.00 in0.0 mm
11:15 AM 62.2°F16.8°C 52.3°F11.3°C 70% 8.0 mph NE12.9 kmh NE 22.0 mph35.4 kmh 30.20 in1022.7 mb 0.00 in0.0 mm 0.00 in0.0 mm 0.00 in0.0 mm
11:17 AM 62.0°F16.7°C 52.1°F11.2°C 70% 9.0 mph NE14.5 kmh NE 22.0 mph35.4 kmh 30.20 in1022.7 mb 0.00 in0.0 mm 0.00 in0.0 mm 0.00 in0.0 mm
11:18 AM 61.8°F16.6°C 51.9°F11.1°C 70% 10.0 mph NE16.1 kmh NE 22.0 mph35.4 kmh 30.20 in1022.7 mb 0.00 in0.0 mm 0.00 in0.0 mm 0.00 in0.0 mm
11:20 AM 61.6°F16.4°C 51.7°F10.9°C 70% 10.0 mph NE16.1 kmh NE 22.0 mph35.4 kmh 30.20 in1022.7 mb 0.00 in0.0 mm 0.00 in0.0 mm 0.00 in0.0 mm
11:21 AM 61.6°F16.4°C 52.1°F11.2°C 71% 10.0 mph NE16.1 kmh NE 22.0 mph35.4 kmh 30.20 in1022.7 mb 0.00 in0.0 mm 0.00 in0.0 mm 0.00 in0.0 mm
11:23 AM 61.5°F16.4°C 52.0°F11.1°C 71% 9.0 mph NE14.5 kmh NE 22.0 mph35.4 kmh 30.20 in1022.7 mb 0.00 in0.0 mm 0.00 in0.0 mm 0.00 in0.0 mm
11:24 AM 61.4°F16.3°C 51.9°F11.1°C 71% 10.0 mph NE16.1 kmh NE 22.0 mph35.4 kmh 30.20 in1022.7 mb 0.00 in0.0 mm 0.00 in0.0 mm 0.00 in0.0 mm
11:26 AM 61.2°F16.2°C 51.7°F10.9°C 71% 9.0 mph NE14.5 kmh NE 26.0 mph41.8 kmh 30.20 in1022.7 mb 0.00 in0.0 mm 0.00 in0.0 mm 0.00 in0.0 mm
11:27 AM 61.1°F16.2°C 51.6°F10.9°C 71% 9.0 mph NE14.5 kmh NE 26.0 mph41.8 kmh 30.20 in1022.7 mb 0.00 in0.0 mm 0.00 in0.0 mm 0.00 in0.0 mm
11:29 AM 61.0°F16.1°C 51.9°F11.1°C 72% 9.0 mph NE14.5 kmh NE 26.0 mph41.8 kmh 30.20 in1022.7 mb 0.00 in0.0 mm 0.00 in0.0 mm 0.00 in0.0 mm
11:30 AM 61.0°F16.1°C 51.9°F11.1°C 72% 9.0 mph NE14.5 kmh NE 26.0 mph41.8 kmh 30.20 in1022.7 mb 0.00 in0.0 mm 0.00 in0.0 mm 0.00 in0.0 mm
11:32 AM 61.0°F16.1°C 51.9°F11.1°C 72% 9.0 mph NE14.5 kmh NE 26.0 mph41.8 kmh 30.20 in1022.7 mb 0.00 in0.0 mm 0.00 in0.0 mm 0.00 in0.0 mm
11:33 AM 61.0°F16.1°C 51.9°F11.1°C 72% 9.0 mph NE14.5 kmh NE 26.0 mph41.8 kmh 30.20 in1022.7 mb 0.00 in0.0 mm 0.00 in0.0 mm 0.00 in0.0 mm
11:35 AM 61.0°F16.1°C 51.9°F11.1°C 72% 8.0 mph NE12.9 kmh NE 26.0 mph41.8 kmh 30.20 in1022.7 mb 0.00 in0.0 mm 0.00 in0.0 mm 0.00 in0.0 mm
11:36 AM 60.9°F16.1°C 51.4°F10.8°C 71% 8.0 mph NE12.9 kmh NE 21.0 mph33.8 kmh 30.20 in1022.7 mb 0.00 in0.0 mm 0.00 in0.0 mm 0.00 in0.0 mm
11:38 AM 60.7°F15.9°C 51.6°F10.9°C 72% 8.0 mph NE12.9 kmh NE 21.0 mph33.8 kmh 30.20 in1022.7 mb 0.00 in0.0 mm 0.00 in0.0 mm 0.00 in0.0 mm
11:39 AM 60.6°F15.9°C 51.1°F10.6°C 71% 9.0 mph NE14.5 kmh NE 21.0 mph33.8 kmh 30.20 in1022.7 mb 0.00 in0.0 mm 0.00 in0.0 mm 0.00 in0.0 mm
11:41 AM 60.7°F15.9°C 52.0°F11.1°C 73% 9.0 mph NE14.5 kmh NE 21.0 mph33.8 kmh 30.20 in1022.7 mb 0.00 in0.0 mm 0.00 in0.0 mm 0.00 in0.0 mm
11:42 AM 60.8°F16.0°C 52.1°F11.2°C 73% 9.0 mph NE14.5 kmh NE 21.0 mph33.8 kmh 30.20 in1022.7 mb 0.00 in0.0 mm 0.00 in0.0 mm 0.00 in0.0 mm
11:44 AM 61.1°F16.2°C 52.4°F11.3°C 73% 8.0 mph NE12.9 kmh NE 21.0 mph33.8 kmh 30.21 in1023.0 mb 0.00 in0.0 mm 0.00 in0.0 mm 0.00 in0.0 mm
11:45 AM 61.2°F16.2°C 52.1°F11.2°C 72% 7.0 mph NE11.3 kmh NE 21.0 mph33.8 kmh 30.21 in1023.0 mb 0.00 in0.0 mm 0.00 in0.0 mm 0.00 in0.0 mm
11:47 AM 61.4°F16.3°C 51.9°F11.1°C 71% 6.0 mph NE9.7 kmh NE 19.0 mph30.6 kmh 30.21 in1023.0 mb 0.00 in0.0 mm 0.00 in0.0 mm 0.00 in0.0 mm
11:48 AM 61.3°F16.3°C 51.4°F10.8°C 70% 6.0 mph NE9.7 kmh NE 19.0 mph30.6 kmh 30.21 in1023.0 mb 0.00 in0.0 mm 0.00 in0.0 mm 0.00 in0.0 mm
11:50 AM 61.2°F16.2°C 51.7°F10.9°C 71% 6.0 mph NE9.7 kmh NE 19.0 mph30.6 kmh 30.21 in1023.0 mb 0.00 in0.0 mm 0.00 in0.0 mm 0.00 in0.0 mm
11:51 AM 61.1°F16.2°C 51.6°F10.9°C 71% 7.0 mph NE11.3 kmh NE 19.0 mph30.6 kmh 30.21 in1023.0 mb 0.00 in0.0 mm 0.00 in0.0 mm 0.00 in0.0 mm
11:53 AM 61.2°F16.2°C 52.1°F11.2°C 72% 8.0 mph NE12.9 kmh NE 19.0 mph30.6 kmh 30.21 in1023.0 mb 0.00 in0.0 mm 0.00 in0.0 mm 0.00 in0.0 mm
11:54 AM 61.4°F16.3°C 52.3°F11.3°C 72% 8.0 mph NE12.9 kmh NE 19.0 mph30.6 kmh 30.21 in1023.0 mb 0.00 in0.0 mm 0.00 in0.0 mm 0.00 in0.0 mm
11:56 AM 61.5°F16.4°C 52.4°F11.3°C 72% 9.0 mph NE14.5 kmh NE 19.0 mph30.6 kmh 30.21 in1023.0 mb 0.00 in0.0 mm 0.00 in0.0 mm 0.00 in0.0 mm
11:57 AM 61.5°F16.4°C 52.4°F11.3°C 72% 8.0 mph NE12.9 kmh NE 19.0 mph30.6 kmh 30.21 in1023.0 mb 0.00 in0.0 mm 0.00 in0.0 mm 0.00 in0.0 mm
11:59 AM 61.7°F16.5°C 52.2°F11.2°C 71% 7.0 mph NE11.3 kmh NE 17.0 mph27.4 kmh 30.21 in1023.0 mb 0.00 in0.0 mm 0.00 in0.0 mm 0.00 in0.0 mm
12:01 PM 61.9°F16.6°C 52.8°F11.6°C 72% 6.0 mph NE9.7 kmh NE 17.0 mph27.4 kmh 30.21 in1023.0 mb 0.00 in0.0 mm 0.00 in0.0 mm 0.00 in0.0 mm
12:02 PM 61.9°F16.6°C 52.4°F11.3°C 71% 6.0 mph NE9.7 kmh NE 17.0 mph27.4 kmh 30.21 in1023.0 mb 0.00 in0.0 mm 0.00 in0.0 mm 0.00 in0.0 mm
12:04 PM 61.8°F16.6°C 52.3°F11.3°C 71% 6.0 mph NE9.7 kmh NE 17.0 mph27.4 kmh 30.21 in1023.0 mb 0.00 in0.0 mm 0.00 in0.0 mm 0.00 in0.0 mm
12:05 PM 61.8°F16.6°C 52.3°F11.3°C 71% 6.0 mph NE9.7 kmh NE 17.0 mph27.4 kmh 30.21 in1023.0 mb 0.00 in0.0 mm 0.00 in0.0 mm 0.00 in0.0 mm
12:07 PM 62.1°F16.7°C 52.6°F11.4°C 71% 6.0 mph NE9.7 kmh NE 17.0 mph27.4 kmh 30.21 in1023.0 mb 0.00 in0.0 mm 0.00 in0.0 mm 0.00 in0.0 mm
12:08 PM 62.1°F16.7°C 52.2°F11.2°C 70% 6.0 mph NE9.7 kmh NE 17.0 mph27.4 kmh 30.21 in1023.0 mb 0.00 in0.0 mm 0.00 in0.0 mm 0.00 in0.0 mm
12:10 PM 62.1°F16.7°C 51.8°F11.0°C 69% 7.0 mph NE11.3 kmh NE 18.0 mph29.0 kmh 30.21 in1023.0 mb 0.00 in0.0 mm 0.00 in0.0 mm 0.00 in0.0 mm
12:11 PM 62.2°F16.8°C 52.3°F11.3°C 70% 7.0 mph NE11.3 kmh NE 18.0 mph29.0 kmh 30.21 in1023.0 mb 0.00 in0.0 mm 0.00 in0.0 mm 0.00 in0.0 mm
12:13 PM 62.5°F16.9°C 52.2°F11.2°C 69% 8.0 mph NE12.9 kmh NE 18.0 mph29.0 kmh 30.21 in1023.0 mb 0.00 in0.0 mm 0.00 in0.0 mm 0.00 in0.0 mm
12:14 PM 62.5°F16.9°C 52.2°F11.2°C 69% 8.0 mph NE12.9 kmh NE 18.0 mph29.0 kmh 30.21 in1023.0 mb 0.00 in0.0 mm 0.00 in0.0 mm 0.00 in0.0 mm
12:16 PM 62.7°F17.1°C 52.8°F11.6°C 70% 7.0 mph NE11.3 kmh NE 18.0 mph29.0 kmh 30.21 in1023.0 mb 0.00 in0.0 mm 0.00 in0.0 mm 0.00 in0.0 mm
12:17 PM 62.8°F17.1°C 52.9°F11.6°C 70% 7.0 mph NE11.3 kmh NE 18.0 mph29.0 kmh 30.21 in1023.0 mb 0.00 in0.0 mm 0.00 in0.0 mm 0.00 in0.0 mm
12:19 PM 63.2°F17.3°C 53.3°F11.8°C 70% 6.0 mph NE9.7 kmh NE 18.0 mph29.0 kmh 30.22 in1023.4 mb 0.00 in0.0 mm 0.00 in0.0 mm 0.00 in0.0 mm
12:20 PM 63.3°F17.4°C 53.3°F11.8°C 70% 5.0 mph NE8.0 kmh NE 16.0 mph25.7 kmh 30.21 in1023.0 mb 0.00 in0.0 mm 0.00 in0.0 mm 0.00 in0.0 mm
12:22 PM 63.5°F17.5°C 52.7°F11.5°C 68% 5.0 mph NE8.0 kmh NE 13.0 mph20.9 kmh 30.22 in1023.4 mb 0.00 in0.0 mm 0.00 in0.0 mm 0.00 in0.0 mm
12:23 PM 63.4°F17.4°C 52.2°F11.2°C 67% 5.0 mph NE8.0 kmh NE 24.0 mph38.6 kmh 30.22 in1023.4 mb 0.00 in0.0 mm 0.00 in0.0 mm 0.00 in0.0 mm
12:25 PM 62.9°F17.2°C 51.8°F11.0°C 67% 6.0 mph NE9.7 kmh NE 24.0 mph38.6 kmh 30.22 in1023.4 mb 0.00 in0.0 mm 0.00 in0.0 mm 0.00 in0.0 mm
12:26 PM 62.7°F17.1°C 51.6°F10.9°C 67% 7.0 mph NE11.3 kmh NE 24.0 mph38.6 kmh 30.22 in1023.4 mb 0.00 in0.0 mm 0.00 in0.0 mm 0.00 in0.0 mm
12:28 PM 62.2°F16.8°C 51.1°F10.6°C 67% 8.0 mph NE12.9 kmh NE 24.0 mph38.6 kmh 30.22 in1023.4 mb 0.00 in0.0 mm 0.00 in0.0 mm 0.00 in0.0 mm
12:29 PM 62.0°F16.7°C 50.9°F10.5°C 67% 9.0 mph NE14.5 kmh NE 24.0 mph38.6 kmh 30.22 in1023.4 mb 0.00 in0.0 mm 0.00 in0.0 mm 0.00 in0.0 mm
12:31 PM 61.8°F16.6°C 51.1°F10.6°C 68% 10.0 mph NE16.1 kmh NE 24.0 mph38.6 kmh 30.22 in1023.4 mb 0.00 in0.0 mm 0.00 in0.0 mm 0.00 in0.0 mm
12:32 PM 61.8°F16.6°C 51.5°F10.8°C 69% 10.0 mph NE16.1 kmh NE 24.0 mph38.6 kmh 30.22 in1023.4 mb 0.00 in0.0 mm 0.00 in0.0 mm 0.00 in0.0 mm
12:34 PM 61.8°F16.6°C 51.5°F10.8°C 69% 9.0 mph NE14.5 kmh NE 21.0 mph33.8 kmh 30.22 in1023.4 mb 0.00 in0.0 mm 0.00 in0.0 mm 0.00 in0.0 mm
12:35 PM 61.9°F16.6°C 51.6°F10.9°C 69% 9.0 mph NE14.5 kmh NE 21.0 mph33.8 kmh 30.22 in1023.4 mb 0.00 in0.0 mm 0.00 in0.0 mm 0.00 in0.0 mm
12:37 PM 62.1°F16.7°C 51.4°F10.8°C 68% 7.0 mph NE11.3 kmh NE 18.0 mph29.0 kmh 30.22 in1023.4 mb 0.00 in0.0 mm 0.00 in0.0 mm 0.00 in0.0 mm
12:38 PM 62.0°F16.7°C 50.9°F10.5°C 67% 7.0 mph NE11.3 kmh NE 16.0 mph25.7 kmh 30.22 in1023.4 mb 0.00 in0.0 mm 0.00 in0.0 mm 0.00 in0.0 mm
12:39 PM 62.0°F16.7°C 51.3°F10.7°C 68% 7.0 mph NE11.3 kmh NE 16.0 mph25.7 kmh 30.22 in1023.4 mb 0.00 in0.0 mm 0.00 in0.0 mm 0.00 in0.0 mm
12:41 PM 61.9°F16.6°C 50.8°F10.4°C 67% 6.0 mph NE9.7 kmh NE 16.0 mph25.7 kmh 30.22 in1023.4 mb 0.00 in0.0 mm 0.00 in0.0 mm 0.00 in0.0 mm
12:42 PM 61.8°F16.6°C 51.1°F10.6°C 68% 7.0 mph NE11.3 kmh NE 14.0 mph22.5 kmh 30.22 in1023.4 mb 0.00 in0.0 mm 0.00 in0.0 mm 0.00 in0.0 mm
12:44 PM 61.8°F16.6°C 51.5°F10.8°C 69% 6.0 mph NE9.7 kmh NE 14.0 mph22.5 kmh 30.22 in1023.4 mb 0.00 in0.0 mm 0.00 in0.0 mm 0.00 in0.0 mm
12:45 PM 61.8°F16.6°C 51.1°F10.6°C 68% 6.0 mph NE9.7 kmh NE 14.0 mph22.5 kmh 30.22 in1023.4 mb 0.00 in0.0 mm 0.00 in0.0 mm 0.00 in0.0 mm
12:47 PM 61.8°F16.6°C 51.1°F10.6°C 68% 6.0 mph NE9.7 kmh NE 14.0 mph22.5 kmh 30.22 in1023.4 mb 0.00 in0.0 mm 0.00 in0.0 mm 0.00 in0.0 mm
12:48 PM 61.7°F16.5°C 51.0°F10.6°C 68% 6.0 mph NE9.7 kmh NE 14.0 mph22.5 kmh 30.22 in1023.4 mb 0.00 in0.0 mm 0.00 in0.0 mm 0.00 in0.0 mm
12:50 PM 61.8°F16.6°C 51.5°F10.8°C 69% 7.0 mph NE11.3 kmh NE 14.0 mph22.5 kmh 30.22 in1023.4 mb 0.00 in0.0 mm 0.00 in0.0 mm 0.00 in0.0 mm
12:51 PM 61.8°F16.6°C 51.5°F10.8°C 69% 7.0 mph NE11.3 kmh NE 15.0 mph24.1 kmh 30.22 in1023.4 mb 0.00 in0.0 mm 0.00 in0.0 mm 0.00 in0.0 mm
12:52 PM 61.8°F16.6°C 51.5°F10.8°C 69% 7.0 mph NE11.3 kmh NE 15.0 mph24.1 kmh 30.22 in1023.4 mb 0.00 in0.0 mm 0.00 in0.0 mm 0.00 in0.0 mm
12:54 PM 61.7°F16.5°C 51.4°F10.8°C 69% 7.0 mph NE11.3 kmh NE 15.0 mph24.1 kmh 30.22 in1023.4 mb 0.00 in0.0 mm 0.00 in0.0 mm 0.00 in0.0 mm
12:55 PM 61.8°F16.6°C 51.5°F10.8°C 69% 7.0 mph NE11.3 kmh NE 15.0 mph24.1 kmh 30.22 in1023.4 mb 0.00 in0.0 mm 0.00 in0.0 mm 0.00 in0.0 mm
12:57 PM 61.8°F16.6°C 51.5°F10.8°C 69% 8.0 mph NE12.9 kmh NE 15.0 mph24.1 kmh 30.22 in1023.4 mb 0.00 in0.0 mm 0.00 in0.0 mm 0.00 in0.0 mm
12:58 PM 61.9°F16.6°C 52.0°F11.1°C 70% 8.0 mph NE12.9 kmh NE 15.0 mph24.1 kmh 30.22 in1023.4 mb 0.00 in0.0 mm 0.00 in0.0 mm 0.00 in0.0 mm
01:00 PM 62.1°F16.7°C 51.8°F11.0°C 69% 9.0 mph NE14.5 kmh NE 18.0 mph29.0 kmh 30.22 in1023.4 mb 0.00 in0.0 mm 0.00 in0.0 mm 0.00 in0.0 mm
01:01 PM 62.2°F16.8°C 51.9°F11.1°C 69% 9.0 mph NE14.5 kmh NE 18.0 mph29.0 kmh 30.22 in1023.4 mb 0.00 in0.0 mm 0.00 in0.0 mm 0.00 in0.0 mm
01:03 PM 62.2°F16.8°C 51.5°F10.8°C 68% 9.0 mph NE14.5 kmh NE 21.0 mph33.8 kmh 30.22 in1023.4 mb 0.00 in0.0 mm 0.00 in0.0 mm 0.00 in0.0 mm
01:04 PM 62.1°F16.7°C 51.4°F10.8°C 68% 10.0 mph NE16.1 kmh NE 21.0 mph33.8 kmh 30.22 in1023.4 mb 0.00 in0.0 mm 0.00 in0.0 mm 0.00 in0.0 mm
01:06 PM 62.3°F16.8°C 52.0°F11.1°C 69% 10.0 mph NE16.1 kmh NE 21.0 mph33.8 kmh 30.22 in1023.4 mb 0.00 in0.0 mm 0.00 in0.0 mm 0.00 in0.0 mm
01:07 PM 62.4°F16.9°C 51.7°F10.9°C 68% 10.0 mph NE16.1 kmh NE 21.0 mph33.8 kmh 30.21 in1023.0 mb 0.00 in0.0 mm 0.00 in0.0 mm 0.00 in0.0 mm
01:09 PM 62.3°F16.8°C 51.6°F10.9°C 68% 10.0 mph NE16.1 kmh NE 22.0 mph35.4 kmh 30.21 in1023.0 mb 0.00 in0.0 mm 0.00 in0.0 mm 0.00 in0.0 mm
01:10 PM 62.2°F16.8°C 51.5°F10.8°C 68% 11.0 mph NE17.7 kmh NE 22.0 mph35.4 kmh 30.21 in1023.0 mb 0.00 in0.0 mm 0.00 in0.0 mm 0.00 in0.0 mm
01:12 PM 62.3°F16.8°C 51.6°F10.9°C 68% 11.0 mph NE17.7 kmh NE 22.0 mph35.4 kmh 30.21 in1023.0 mb 0.00 in0.0 mm 0.00 in0.0 mm 0.00 in0.0 mm
01:13 PM 62.4°F16.9°C 51.7°F10.9°C 68% 10.0 mph NE16.1 kmh NE 22.0 mph35.4 kmh 30.21 in1023.0 mb 0.00 in0.0 mm 0.00 in0.0 mm 0.00 in0.0 mm
01:15 PM 62.3°F16.8°C 51.6°F10.9°C 68% 10.0 mph NE16.1 kmh NE 22.0 mph35.4 kmh 30.21 in1023.0 mb 0.00 in0.0 mm 0.00 in0.0 mm 0.00 in0.0 mm
01:16 PM 62.3°F16.8°C 51.6°F10.9°C 68% 10.0 mph NE16.1 kmh NE 22.0 mph35.4 kmh 30.21 in1023.0 mb 0.00 in0.0 mm 0.00 in0.0 mm 0.00 in0.0 mm
01:18 PM 62.2°F16.8°C 51.5°F10.8°C 68% 10.0 mph NE16.1 kmh NE 22.0 mph35.4 kmh 30.21 in1023.0 mb 0.00 in0.0 mm 0.00 in0.0 mm 0.00 in0.0 mm
01:19 PM 62.2°F16.8°C 51.5°F10.8°C 68% 10.0 mph NE16.1 kmh NE 18.0 mph29.0 kmh 30.21 in1023.0 mb 0.00 in0.0 mm 0.00 in0.0 mm 0.00 in0.0 mm
01:20 PM 62.2°F16.8°C 51.5°F10.8°C 68% 10.0 mph NE16.1 kmh NE 21.0 mph33.8 kmh 30.21 in1023.0 mb 0.00 in0.0 mm 0.00 in0.0 mm 0.00 in0.0 mm
01:21 PM 62.1°F16.7°C 51.0°F10.6°C 67% 10.0 mph NE16.1 kmh NE 21.0 mph33.8 kmh 30.21 in1023.0 mb 0.00 in0.0 mm 0.00 in0.0 mm 0.00 in0.0 mm
01:22 PM 62.0°F16.7°C 50.9°F10.5°C 67% 11.0 mph NE17.7 kmh NE 21.0 mph33.8 kmh 30.21 in1023.0 mb 0.00 in0.0 mm 0.00 in0.0 mm 0.00 in0.0 mm
01:23 PM 62.0°F16.7°C 51.3°F10.7°C 68% 11.0 mph NE17.7 kmh NE 21.0 mph33.8 kmh 30.21 in1023.0 mb 0.00 in0.0 mm 0.00 in0.0 mm 0.00 in0.0 mm
01:25 PM 61.9°F16.6°C 51.2°F10.7°C 68% 12.0 mph NE19.3 kmh NE 24.0 mph38.6 kmh 30.21 in1023.0 mb 0.00 in0.0 mm 0.00 in0.0 mm 0.00 in0.0 mm
01:26 PM 61.9°F16.6°C 51.2°F10.7°C 68% 12.0 mph NE19.3 kmh NE 24.0 mph38.6 kmh 30.21 in1023.0 mb 0.00 in0.0 mm 0.00 in0.0 mm 0.00 in0.0 mm
01:28 PM 61.8°F16.6°C 50.7°F10.4°C 67% 12.0 mph NE19.3 kmh NE 24.0 mph38.6 kmh 30.21 in1023.0 mb 0.00 in0.0 mm 0.00 in0.0 mm 0.00 in0.0 mm
01:29 PM 61.8°F16.6°C 51.1°F10.6°C 68% 12.0 mph NE19.3 kmh NE 24.0 mph38.6 kmh 30.21 in1023.0 mb 0.00 in0.0 mm 0.00 in0.0 mm 0.00 in0.0 mm
01:31 PM 61.6°F16.4°C 50.9°F10.5°C 68% 12.0 mph NE19.3 kmh NE 24.0 mph38.6 kmh 30.21 in1023.0 mb 0.00 in0.0 mm 0.00 in0.0 mm 0.00 in0.0 mm
01:32 PM 61.6°F16.4°C 50.9°F10.5°C 68% 12.0 mph NE19.3 kmh NE 24.0 mph38.6 kmh 30.22 in1023.4 mb 0.00 in0.0 mm 0.00 in0.0 mm 0.00 in0.0 mm
01:34 PM 61.8°F16.6°C 51.5°F10.8°C 69% 11.0 mph NE17.7 kmh NE 24.0 mph38.6 kmh 30.21 in1023.0 mb 0.00 in0.0 mm 0.00 in0.0 mm 0.00 in0.0 mm
01:35 PM 61.9°F16.6°C 51.6°F10.9°C 69% 10.0 mph NE16.1 kmh NE 18.0 mph29.0 kmh 30.22 in1023.4 mb 0.00 in0.0 mm 0.00 in0.0 mm 0.00 in0.0 mm
01:37 PM 61.9°F16.6°C 50.8°F10.4°C 67% 9.0 mph NE14.5 kmh NE 18.0 mph29.0 kmh 30.21 in1023.0 mb 0.00 in0.0 mm 0.00 in0.0 mm 0.00 in0.0 mm
01:38 PM 61.8°F16.6°C 50.7°F10.4°C 67% 9.0 mph NE14.5 kmh NE 19.0 mph30.6 kmh 30.22 in1023.4 mb 0.00 in0.0 mm 0.00 in0.0 mm 0.00 in0.0 mm
01:40 PM 61.6°F16.4°C 50.9°F10.5°C 68% 9.0 mph NE14.5 kmh NE 19.0 mph30.6 kmh 30.21 in1023.0 mb 0.00 in0.0 mm 0.00 in0.0 mm 0.00 in0.0 mm
01:41 PM 61.6°F16.4°C 50.9°F10.5°C 68% 9.0 mph NE14.5 kmh NE 19.0 mph30.6 kmh 30.22 in1023.4 mb 0.00 in0.0 mm 0.00 in0.0 mm 0.00 in0.0 mm
01:43 PM 61.6°F16.4°C 50.9°F10.5°C 68% 9.0 mph NE14.5 kmh NE 19.0 mph30.6 kmh 30.22 in1023.4 mb 0.00 in0.0 mm 0.00 in0.0 mm 0.00 in0.0 mm
01:44 PM 61.6°F16.4°C 50.5°F10.3°C 67% 10.0 mph NE16.1 kmh NE 20.0 mph32.2 kmh 30.22 in1023.4 mb 0.00 in0.0 mm 0.00 in0.0 mm 0.00 in0.0 mm
01:46 PM 61.4°F16.3°C 50.3°F10.2°C 67% 11.0 mph NE17.7 kmh NE 21.0 mph33.8 kmh 30.22 in1023.4 mb 0.00 in0.0 mm 0.00 in0.0 mm 0.00 in0.0 mm
01:47 PM 61.4°F16.3°C 50.7°F10.4°C 68% 11.0 mph NE17.7 kmh NE 21.0 mph33.8 kmh 30.22 in1023.4 mb 0.00 in0.0 mm 0.00 in0.0 mm 0.00 in0.0 mm
01:49 PM 61.4°F16.3°C 50.3°F10.2°C 67% 10.0 mph NE16.1 kmh NE 21.0 mph33.8 kmh 30.22 in1023.4 mb 0.00 in0.0 mm 0.00 in0.0 mm 0.00 in0.0 mm
01:50 PM 61.3°F16.3°C 50.6°F10.3°C 68% 11.0 mph NE17.7 kmh NE 21.0 mph33.8 kmh 30.22 in1023.4 mb 0.00 in0.0 mm 0.00 in0.0 mm 0.00 in0.0 mm
01:51 PM 61.3°F16.3°C 50.6°F10.3°C 68% 11.0 mph NE17.7 kmh NE 21.0 mph33.8 kmh 30.22 in1023.4 mb 0.00 in0.0 mm 0.00 in0.0 mm 0.00 in0.0 mm
01:53 PM 61.2°F16.2°C 50.6°F10.3°C 68% 11.0 mph NE17.7 kmh NE 21.0 mph33.8 kmh 30.22 in1023.4 mb 0.00 in0.0 mm 0.00 in0.0 mm 0.00 in0.0 mm
01:54 PM 61.2°F16.2°C 50.6°F10.3°C 68% 10.0 mph NE16.1 kmh NE 21.0 mph33.8 kmh 30.22 in1023.4 mb 0.00 in0.0 mm 0.00 in0.0 mm 0.00 in0.0 mm
01:56 PM 61.1°F16.2°C 50.5°F10.3°C 68% 10.0 mph NE16.1 kmh NE 19.0 mph30.6 kmh 30.22 in1023.4 mb 0.00 in0.0 mm 0.00 in0.0 mm 0.00 in0.0 mm
01:57 PM 61.1°F16.2°C 50.8°F10.4°C 69% 9.0 mph NE14.5 kmh NE 19.0 mph30.6 kmh 30.22 in1023.4 mb 0.00 in0.0 mm 0.00 in0.0 mm 0.00 in0.0 mm
01:59 PM 61.0°F16.1°C 50.4°F10.2°C 68% 9.0 mph NE14.5 kmh NE 19.0 mph30.6 kmh 30.22 in1023.4 mb 0.00 in0.0 mm 0.00 in0.0 mm 0.00 in0.0 mm
02:00 PM 61.0°F16.1°C 50.4°F10.2°C 68% 9.0 mph NE14.5 kmh NE 19.0 mph30.6 kmh 30.22 in1023.4 mb 0.00 in0.0 mm 0.00 in0.0 mm 0.00 in0.0 mm
02:01 PM 60.9°F16.1°C 50.7°F10.4°C 69% 9.0 mph NE14.5 kmh NE 19.0 mph30.6 kmh 30.23 in1023.7 mb 0.00 in0.0 mm 0.00 in0.0 mm 0.00 in0.0 mm
02:03 PM 61.0°F16.1°C 50.8°F10.4°C 69% 8.0 mph NE12.9 kmh NE 19.0 mph30.6 kmh 30.22 in1023.4 mb 0.00 in0.0 mm 0.00 in0.0 mm 0.00 in0.0 mm
02:04 PM 61.0°F16.1°C 50.8°F10.4°C 69% 8.0 mph NE12.9 kmh NE 19.0 mph30.6 kmh 30.23 in1023.7 mb 0.00 in0.0 mm 0.00 in0.0 mm 0.00 in0.0 mm
02:06 PM 61.0°F16.1°C 50.8°F10.4°C 69% 8.0 mph NE12.9 kmh NE 19.0 mph30.6 kmh 30.22 in1023.4 mb 0.00 in0.0 mm 0.00 in0.0 mm 0.00 in0.0 mm
02:07 PM 60.9°F16.1°C 50.3°F10.2°C 68% 8.0 mph NE12.9 kmh NE 20.0 mph32.2 kmh 30.22 in1023.4 mb 0.00 in0.0 mm 0.00 in0.0 mm 0.00 in0.0 mm
02:08 PM 60.9°F16.1°C 50.3°F10.2°C 68% 9.0 mph NE14.5 kmh NE 20.0 mph32.2 kmh 30.23 in1023.7 mb 0.00 in0.0 mm 0.00 in0.0 mm 0.00 in0.0 mm
02:10 PM 60.7°F15.9°C 50.1°F10.1°C 68% 9.0 mph NE14.5 kmh NE 20.0 mph32.2 kmh 30.22 in1023.4 mb 0.00 in0.0 mm 0.00 in0.0 mm 0.00 in0.0 mm
02:11 PM 60.7°F15.9°C 50.5°F10.3°C 69% 9.0 mph NE14.5 kmh NE 20.0 mph32.2 kmh 30.22 in1023.4 mb 0.00 in0.0 mm 0.00 in0.0 mm 0.00 in0.0 mm
02:13 PM 60.7°F15.9°C 50.5°F10.3°C 69% 9.0 mph NE14.5 kmh NE 20.0 mph32.2 kmh 30.22 in1023.4 mb 0.00 in0.0 mm 0.00 in0.0 mm 0.00 in0.0 mm
02:15 PM 60.6°F15.9°C 50.4°F10.2°C 69% 9.0 mph NE14.5 kmh NE 20.0 mph32.2 kmh 30.23 in1023.7 mb 0.00 in0.0 mm 0.00 in0.0 mm 0.00 in0.0 mm
02:16 PM 60.6°F15.9°C 50.4°F10.2°C 69% 9.0 mph NE14.5 kmh NE 20.0 mph32.2 kmh 30.23 in1023.7 mb 0.00 in0.0 mm 0.00 in0.0 mm 0.00 in0.0 mm
02:18 PM 60.6°F15.9°C 50.4°F10.2°C 69% 8.0 mph NE12.9 kmh NE 19.0 mph30.6 kmh 30.23 in1023.7 mb 0.00 in0.0 mm 0.00 in0.0 mm 0.00 in0.0 mm
02:19 PM 60.7°F15.9°C 50.5°F10.3°C 69% 8.0 mph NNE12.9 kmh NNE 19.0 mph30.6 kmh 30.23 in1023.7 mb 0.00 in0.0 mm 0.00 in0.0 mm 0.00 in0.0 mm
02:21 PM 60.7°F15.9°C 50.5°F10.3°C 69% 7.0 mph NE11.3 kmh NE 19.0 mph30.6 kmh 30.23 in1023.7 mb 0.00 in0.0 mm 0.00 in0.0 mm 0.00 in0.0 mm
02:22 PM 60.7°F15.9°C 50.5°F10.3°C 69% 7.0 mph NNE11.3 kmh NNE 19.0 mph30.6 kmh 30.23 in1023.7 mb 0.00 in0.0 mm 0.00 in0.0 mm 0.00 in0.0 mm
02:24 PM 60.7°F15.9°C 50.5°F10.3°C 69% 7.0 mph NNE11.3 kmh NNE 16.0 mph25.7 kmh 30.23 in1023.7 mb 0.00 in0.0 mm 0.00 in0.0 mm 0.00 in0.0 mm
02:25 PM 60.6°F15.9°C 50.4°F10.2°C 69% 7.0 mph NNE11.3 kmh NNE 16.0 mph25.7 kmh 30.23 in1023.7 mb 0.00 in0.0 mm 0.00 in0.0 mm 0.00 in0.0 mm
02:27 PM 60.7°F15.9°C 50.9°F10.5°C 70% 7.0 mph NE11.3 kmh NE 16.0 mph25.7 kmh 30.23 in1023.7 mb 0.00 in0.0 mm 0.00 in0.0 mm 0.00 in0.0 mm
02:28 PM 60.6°F15.9°C 50.8°F10.4°C 70% 7.0 mph NE11.3 kmh NE 18.0 mph29.0 kmh 30.23 in1023.7 mb 0.00 in0.0 mm 0.00 in0.0 mm 0.00 in0.0 mm
02:30 PM 60.6°F15.9°C 50.4°F10.2°C 69% 8.0 mph NE12.9 kmh NE 18.0 mph29.0 kmh 30.23 in1023.7 mb 0.00 in0.0 mm 0.00 in0.0 mm 0.00 in0.0 mm
02:31 PM 60.6°F15.9°C 50.4°F10.2°C 69% 8.0 mph NE12.9 kmh NE 18.0 mph29.0 kmh 30.23 in1023.7 mb 0.00 in0.0 mm 0.00 in0.0 mm 0.00 in0.0 mm
02:33 PM 60.6°F15.9°C 50.8°F10.4°C 70% 8.0 mph NE12.9 kmh NE 18.0 mph29.0 kmh 30.23 in1023.7 mb 0.00 in0.0 mm 0.00 in0.0 mm 0.00 in0.0 mm
02:34 PM 60.7°F15.9°C 50.9°F10.5°C 70% 8.0 mph NE12.9 kmh NE 18.0 mph29.0 kmh 30.23 in1023.7 mb 0.00 in0.0 mm 0.00 in0.0 mm 0.00 in0.0 mm
02:36 PM 60.7°F15.9°C 50.9°F10.5°C 70% 8.0 mph NE12.9 kmh NE 18.0 mph29.0 kmh 30.23 in1023.7 mb 0.00 in0.0 mm 0.00 in0.0 mm 0.00 in0.0 mm
02:37 PM 60.8°F16.0°C 51.0°F10.6°C 70% 7.0 mph NE11.3 kmh NE 18.0 mph29.0 kmh 30.23 in1023.7 mb 0.00 in0.0 mm 0.00 in0.0 mm 0.00 in0.0 mm
02:39 PM 60.8°F16.0°C 50.6°F10.3°C 69% 6.0 mph NE9.7 kmh NE 18.0 mph29.0 kmh 30.23 in1023.7 mb 0.00 in0.0 mm 0.00 in0.0 mm 0.00 in0.0 mm
02:40 PM 60.6°F15.9°C 50.0°F10.0°C 68% 7.0 mph NE11.3 kmh NE 19.0 mph30.6 kmh 30.23 in1023.7 mb 0.00 in0.0 mm 0.00 in0.0 mm 0.00 in0.0 mm
02:42 PM 60.4°F15.8°C 50.2°F10.1°C 69% 7.0 mph NE11.3 kmh NE 19.0 mph30.6 kmh 30.23 in1023.7 mb 0.00 in0.0 mm 0.00 in0.0 mm 0.00 in0.0 mm
02:43 PM 60.3°F15.7°C 50.1°F10.1°C 69% 7.0 mph NE11.3 kmh NE 19.0 mph30.6 kmh 30.23 in1023.7 mb 0.00 in0.0 mm 0.00 in0.0 mm 0.00 in0.0 mm
02:44 PM 60.2°F15.7°C 50.4°F10.2°C 70% 7.0 mph NE11.3 kmh NE 19.0 mph30.6 kmh 30.23 in1023.7 mb 0.00 in0.0 mm 0.00 in0.0 mm 0.00 in0.0 mm
02:46 PM 60.0°F15.6°C 50.2°F10.1°C 70% 7.0 mph NE11.3 kmh NE 19.0 mph30.6 kmh 30.23 in1023.7 mb 0.00 in0.0 mm 0.00 in0.0 mm 0.00 in0.0 mm
02:47 PM 59.9°F15.5°C 50.1°F10.1°C 70% 8.0 mph NE12.9 kmh NE 19.0 mph30.6 kmh 30.23 in1023.7 mb 0.00 in0.0 mm 0.00 in0.0 mm 0.00 in0.0 mm
02:49 PM 59.8°F15.4°C 50.0°F10.0°C 70% 9.0 mph NE14.5 kmh NE 19.0 mph30.6 kmh 30.23 in1023.7 mb 0.00 in0.0 mm 0.00 in0.0 mm 0.00 in0.0 mm
02:50 PM 59.8°F15.4°C 50.0°F10.0°C 70% 8.0 mph NE12.9 kmh NE 19.0 mph30.6 kmh 30.23 in1023.7 mb 0.00 in0.0 mm 0.00 in0.0 mm 0.00 in0.0 mm
02:52 PM 59.7°F15.4°C 49.9°F9.9°C 70% 9.0 mph NE14.5 kmh NE 19.0 mph30.6 kmh 30.22 in1023.4 mb 0.00 in0.0 mm 0.00 in0.0 mm 0.00 in0.0 mm
02:53 PM 59.7°F15.4°C 49.9°F9.9°C 70% 9.0 mph NE14.5 kmh NE 19.0 mph30.6 kmh 30.23 in1023.7 mb 0.00 in0.0 mm 0.00 in0.0 mm 0.00 in0.0 mm
02:55 PM 59.7°F15.4°C 49.9°F9.9°C 70% 9.0 mph NE14.5 kmh NE 19.0 mph30.6 kmh 30.23 in1023.7 mb 0.00 in0.0 mm 0.00 in0.0 mm 0.00 in0.0 mm
02:56 PM 59.6°F15.3°C 49.8°F9.9°C 70% 9.0 mph NE14.5 kmh NE 19.0 mph30.6 kmh 30.23 in1023.7 mb 0.00 in0.0 mm 0.00 in0.0 mm 0.00 in0.0 mm
02:58 PM 59.4°F15.2°C 49.6°F9.8°C 70% 9.0 mph NE14.5 kmh NE 19.0 mph30.6 kmh 30.23 in1023.7 mb 0.00 in0.0 mm 0.00 in0.0 mm 0.00 in0.0 mm
02:59 PM 59.3°F15.2°C 49.9°F9.9°C 71% 9.0 mph NE14.5 kmh NE 19.0 mph30.6 kmh 30.23 in1023.7 mb 0.00 in0.0 mm 0.00 in0.0 mm 0.00 in0.0 mm
03:00 PM 59.2°F15.1°C 49.8°F9.9°C 71% 9.0 mph NE14.5 kmh NE 19.0 mph30.6 kmh 30.23 in1023.7 mb 0.00 in0.0 mm 0.00 in0.0 mm 0.00 in0.0 mm
03:01 PM 59.2°F15.1°C 49.8°F9.9°C 71% 9.0 mph NE14.5 kmh NE 19.0 mph30.6 kmh 30.23 in1023.7 mb 0.00 in0.0 mm 0.00 in0.0 mm 0.00 in0.0 mm
03:03 PM 59.2°F15.1°C 49.8°F9.9°C 71% 9.0 mph NE14.5 kmh NE 19.0 mph30.6 kmh 30.23 in1023.7 mb 0.00 in0.0 mm 0.00 in0.0 mm 0.00 in0.0 mm
03:04 PM 59.2°F15.1°C 49.8°F9.9°C 71% 9.0 mph NE14.5 kmh NE 19.0 mph30.6 kmh 30.23 in1023.7 mb 0.00 in0.0 mm 0.00 in0.0 mm 0.00 in0.0 mm
03:06 PM 59.2°F15.1°C 49.8°F9.9°C 71% 9.0 mph NE14.5 kmh NE 20.0 mph32.2 kmh 30.23 in1023.7 mb 0.00 in0.0 mm 0.00 in0.0 mm 0.00 in0.0 mm
03:07 PM 59.2°F15.1°C 49.8°F9.9°C 71% 10.0 mph NE16.1 kmh NE 20.0 mph32.2 kmh 30.23 in1023.7 mb 0.00 in0.0 mm 0.00 in0.0 mm 0.00 in0.0 mm
03:09 PM 59.1°F15.1°C 49.7°F9.8°C 71% 10.0 mph NE16.1 kmh NE 20.0 mph32.2 kmh 30.23 in1023.7 mb 0.00 in0.0 mm 0.00 in0.0 mm 0.00 in0.0 mm
03:10 PM 59.0°F15.0°C 49.6°F9.8°C 71% 10.0 mph NE16.1 kmh NE 21.0 mph33.8 kmh 30.23 in1023.7 mb 0.00 in0.0 mm 0.00 in0.0 mm 0.00 in0.0 mm
03:12 PM 58.9°F14.9°C 49.5°F9.7°C 71% 10.0 mph NE16.1 kmh NE 21.0 mph33.8 kmh 30.23 in1023.7 mb 0.00 in0.0 mm 0.00 in0.0 mm 0.00 in0.0 mm
03:13 PM 58.9°F14.9°C 49.5°F9.7°C 71% 10.0 mph NE16.1 kmh NE 21.0 mph33.8 kmh 30.23 in1023.7 mb 0.00 in0.0 mm 0.00 in0.0 mm 0.00 in0.0 mm
03:15 PM 58.8°F14.9°C 49.4°F9.7°C 71% 10.0 mph NE16.1 kmh NE 21.0 mph33.8 kmh 30.23 in1023.7 mb 0.00 in0.0 mm 0.00 in0.0 mm 0.00 in0.0 mm
03:16 PM 58.8°F14.9°C 49.8°F9.9°C 72% 10.0 mph NE16.1 kmh NE 21.0 mph33.8 kmh 30.23 in1023.7 mb 0.00 in0.0 mm 0.00 in0.0 mm 0.00 in0.0 mm
03:17 PM 58.9°F14.9°C 49.9°F9.9°C 72% 9.0 mph NE14.5 kmh NE 21.0 mph33.8 kmh 30.23 in1023.7 mb 0.00 in0.0 mm 0.00 in0.0 mm 0.00 in0.0 mm
03:19 PM 58.9°F14.9°C 49.9°F9.9°C 72% 9.0 mph NE14.5 kmh NE 21.0 mph33.8 kmh 30.23 in1023.7 mb 0.00 in0.0 mm 0.00 in0.0 mm 0.00 in0.0 mm
03:20 PM 58.8°F14.9°C 49.4°F9.7°C 71% 9.0 mph NE14.5 kmh NE 18.0 mph29.0 kmh 30.23 in1023.7 mb 0.00 in0.0 mm 0.00 in0.0 mm 0.00 in0.0 mm
03:22 PM 58.8°F14.9°C 49.4°F9.7°C 71% 9.0 mph NE14.5 kmh NE 18.0 mph29.0 kmh 30.23 in1023.7 mb 0.00 in0.0 mm 0.00 in0.0 mm 0.00 in0.0 mm
03:23 PM 58.8°F14.9°C 49.4°F9.7°C 71% 9.0 mph NE14.5 kmh NE 18.0 mph29.0 kmh 30.23 in1023.7 mb 0.00 in0.0 mm 0.00 in0.0 mm 0.00 in0.0 mm
03:25 PM 58.7°F14.8°C 49.3°F9.6°C 71% 9.0 mph NE14.5 kmh NE 18.0 mph29.0 kmh 30.23 in1023.7 mb 0.00 in0.0 mm 0.00 in0.0 mm 0.00 in0.0 mm
03:26 PM 58.8°F14.9°C 49.8°F9.9°C 72% 9.0 mph NE14.5 kmh NE 18.0 mph29.0 kmh 30.23 in1023.7 mb 0.00 in0.0 mm 0.00 in0.0 mm 0.00 in0.0 mm
03:28 PM 58.7°F14.8°C 49.3°F9.6°C 71% 10.0 mph NE16.1 kmh NE 18.0 mph29.0 kmh 30.23 in1023.7 mb 0.00 in0.0 mm 0.00 in0.0 mm 0.00 in0.0 mm
03:29 PM 58.7°F14.8°C 49.7°F9.8°C 72% 10.0 mph NE16.1 kmh NE 19.0 mph30.6 kmh 30.23 in1023.7 mb 0.00 in0.0 mm 0.00 in0.0 mm 0.00 in0.0 mm
03:30 PM 58.6°F14.8°C 49.6°F9.8°C 72% 10.0 mph NE16.1 kmh NE 19.0 mph30.6 kmh 30.23 in1023.7 mb 0.00 in0.0 mm 0.00 in0.0 mm 0.00 in0.0 mm
03:31 PM 58.7°F14.8°C 49.7°F9.8°C 72% 10.0 mph NE16.1 kmh NE 19.0 mph30.6 kmh 30.23 in1023.7 mb 0.00 in0.0 mm 0.00 in0.0 mm 0.00 in0.0 mm
03:33 PM 58.7°F14.8°C 49.7°F9.8°C 72% 10.0 mph NE16.1 kmh NE 20.0 mph32.2 kmh 30.23 in1023.7 mb 0.00 in0.0 mm 0.00 in0.0 mm 0.00 in0.0 mm
03:34 PM 58.7°F14.8°C 49.7°F9.8°C 72% 10.0 mph NE16.1 kmh NE 20.0 mph32.2 kmh 30.23 in1023.7 mb 0.00 in0.0 mm 0.00 in0.0 mm 0.00 in0.0 mm
03:36 PM 58.7°F14.8°C 49.7°F9.8°C 72% 10.0 mph NE16.1 kmh NE 20.0 mph32.2 kmh 30.23 in1023.7 mb 0.00 in0.0 mm 0.00 in0.0 mm 0.00 in0.0 mm
03:37 PM 58.7°F14.8°C 49.7°F9.8°C 72% 10.0 mph NE16.1 kmh NE 20.0 mph32.2 kmh 30.23 in1023.7 mb 0.00 in0.0 mm 0.00 in0.0 mm 0.00 in0.0 mm
03:39 PM 58.8°F14.9°C 49.8°F9.9°C 72% 10.0 mph NE16.1 kmh NE 22.0 mph35.4 kmh 30.23 in1023.7 mb 0.00 in0.0 mm 0.00 in0.0 mm 0.00 in0.0 mm
03:40 PM 58.9°F14.9°C 49.9°F9.9°C 72% 9.0 mph NE14.5 kmh NE 22.0 mph35.4 kmh 30.23 in1023.7 mb 0.00 in0.0 mm 0.00 in0.0 mm 0.00 in0.0 mm
03:41 PM 58.9°F14.9°C 49.9°F9.9°C 72% 9.0 mph NE14.5 kmh NE 22.0 mph35.4 kmh 30.23 in1023.7 mb 0.00 in0.0 mm 0.00 in0.0 mm 0.00 in0.0 mm
03:42 PM 58.9°F14.9°C 49.9°F9.9°C 72% 9.0 mph NE14.5 kmh NE 22.0 mph35.4 kmh 30.23 in1023.7 mb 0.00 in0.0 mm 0.00 in0.0 mm 0.00 in0.0 mm
03:44 PM 58.9°F14.9°C 49.9°F9.9°C 72% 9.0 mph NE14.5 kmh NE 22.0 mph35.4 kmh 30.23 in1023.7 mb 0.00 in0.0 mm 0.00 in0.0 mm 0.00 in0.0 mm
03:45 PM 58.9°F14.9°C 49.5°F9.7°C 71% 10.0 mph NE16.1 kmh NE 22.0 mph35.4 kmh 30.23 in1023.7 mb 0.00 in0.0 mm 0.00 in0.0 mm 0.00 in0.0 mm
03:47 PM 58.6°F14.8°C 49.2°F9.6°C 71% 10.0 mph NE16.1 kmh NE 22.0 mph35.4 kmh 30.23 in1023.7 mb 0.00 in0.0 mm 0.00 in0.0 mm 0.00 in0.0 mm
03:48 PM 58.6°F14.8°C 49.2°F9.6°C 71% 10.0 mph NE16.1 kmh NE 22.0 mph35.4 kmh 30.23 in1023.7 mb 0.00 in0.0 mm 0.00 in0.0 mm 0.00 in0.0 mm
03:50 PM 58.5°F14.7°C 49.5°F9.7°C 72% 10.0 mph NE16.1 kmh NE 22.0 mph35.4 kmh 30.23 in1023.7 mb 0.00 in0.0 mm 0.00 in0.0 mm 0.00 in0.0 mm
03:51 PM 58.4°F14.7°C 49.0°F9.4°C 71% 11.0 mph NE17.7 kmh NE 22.0 mph35.4 kmh 30.23 in1023.7 mb 0.00 in0.0 mm 0.00 in0.0 mm 0.00 in0.0 mm
03:53 PM 58.3°F14.6°C 49.3°F9.6°C 72% 11.0 mph NE17.7 kmh NE 22.0 mph35.4 kmh 30.23 in1023.7 mb 0.00 in0.0 mm 0.00 in0.0 mm 0.00 in0.0 mm
03:54 PM 58.2°F14.6°C 49.2°F9.6°C 72% 10.0 mph NE16.1 kmh NE 22.0 mph35.4 kmh 30.23 in1023.7 mb 0.00 in0.0 mm 0.00 in0.0 mm 0.00 in0.0 mm
03:56 PM 58.1°F14.5°C 49.1°F9.5°C 72% 11.0 mph NE17.7 kmh NE 22.0 mph35.4 kmh 30.23 in1023.7 mb 0.00 in0.0 mm 0.00 in0.0 mm 0.00 in0.0 mm
03:57 PM 58.1°F14.5°C 49.1°F9.5°C 72% 10.0 mph NE16.1 kmh NE 21.0 mph33.8 kmh 30.23 in1023.7 mb 0.00 in0.0 mm 0.00 in0.0 mm 0.00 in0.0 mm
03:59 PM 58.0°F14.4°C 49.0°F9.4°C 72% 10.0 mph NE16.1 kmh NE 21.0 mph33.8 kmh 30.24 in1024.0 mb 0.00 in0.0 mm 0.00 in0.0 mm 0.00 in0.0 mm
04:00 PM 58.0°F14.4°C 49.4°F9.7°C 73% 10.0 mph NE16.1 kmh NE 21.0 mph33.8 kmh 30.24 in1024.0 mb 0.00 in0.0 mm 0.00 in0.0 mm 0.00 in0.0 mm
04:01 PM 58.0°F14.4°C 49.4°F9.7°C 73% 9.0 mph NE14.5 kmh NE 21.0 mph33.8 kmh 30.24 in1024.0 mb 0.00 in0.0 mm 0.00 in0.0 mm 0.00 in0.0 mm
04:03 PM 57.9°F14.4°C 48.9°F9.4°C 72% 10.0 mph NE16.1 kmh NE 21.0 mph33.8 kmh 30.24 in1024.0 mb 0.00 in0.0 mm 0.00 in0.0 mm 0.00 in0.0 mm
04:04 PM 57.8°F14.3°C 48.8°F9.3°C 72% 10.0 mph NE16.1 kmh NE 21.0 mph33.8 kmh 30.24 in1024.0 mb 0.00 in0.0 mm 0.00 in0.0 mm 0.00 in0.0 mm
04:06 PM 57.8°F14.3°C 49.2°F9.6°C 73% 9.0 mph NE14.5 kmh NE 21.0 mph33.8 kmh 30.24 in1024.0 mb 0.00 in0.0 mm 0.00 in0.0 mm 0.00 in0.0 mm
04:07 PM 57.8°F14.3°C 49.2°F9.6°C 73% 9.0 mph NE14.5 kmh NE 21.0 mph33.8 kmh 30.24 in1024.0 mb 0.00 in0.0 mm 0.00 in0.0 mm 0.00 in0.0 mm
04:08 PM 57.7°F14.3°C 48.7°F9.3°C 72% 10.0 mph NE16.1 kmh NE 22.0 mph35.4 kmh 30.24 in1024.0 mb 0.00 in0.0 mm 0.00 in0.0 mm 0.00 in0.0 mm
04:10 PM 57.6°F14.2°C 49.0°F9.4°C 73% 10.0 mph NE16.1 kmh NE 22.0 mph35.4 kmh 30.24 in1024.0 mb 0.00 in0.0 mm 0.00 in0.0 mm 0.00 in0.0 mm
04:11 PM 57.6°F14.2°C 49.0°F9.4°C 73% 11.0 mph NE17.7 kmh NE 22.0 mph35.4 kmh 30.24 in1024.0 mb 0.00 in0.0 mm 0.00 in0.0 mm 0.00 in0.0 mm
04:13 PM 57.5°F14.2°C 48.9°F9.4°C 73% 11.0 mph NE17.7 kmh NE 22.0 mph35.4 kmh 30.24 in1024.0 mb 0.00 in0.0 mm 0.00 in0.0 mm 0.00 in0.0 mm
04:14 PM 57.4°F14.1°C 48.8°F9.3°C 73% 10.0 mph NE16.1 kmh NE 22.0 mph35.4 kmh 30.24 in1024.0 mb 0.00 in0.0 mm 0.00 in0.0 mm 0.00 in0.0 mm
04:16 PM 57.4°F14.1°C 48.8°F9.3°C 73% 10.0 mph NE16.1 kmh NE 22.0 mph35.4 kmh 30.24 in1024.0 mb 0.00 in0.0 mm 0.00 in0.0 mm 0.00 in0.0 mm
04:17 PM 57.4°F14.1°C 48.8°F9.3°C 73% 10.0 mph NE16.1 kmh NE 22.0 mph35.4 kmh 30.24 in1024.0 mb 0.00 in0.0 mm 0.00 in0.0 mm 0.00 in0.0 mm
04:18 PM 57.5°F14.2°C 48.9°F9.4°C 73% 10.0 mph NE16.1 kmh NE 19.0 mph30.6 kmh 30.24 in1024.0 mb 0.00 in0.0 mm 0.00 in0.0 mm 0.00 in0.0 mm
04:20 PM 57.4°F14.1°C 48.8°F9.3°C 73% 9.0 mph NE14.5 kmh NE 18.0 mph29.0 kmh 30.24 in1024.0 mb 0.00 in0.0 mm 0.00 in0.0 mm 0.00 in0.0 mm
04:21 PM 57.4°F14.1°C 48.8°F9.3°C 73% 10.0 mph NE16.1 kmh NE 19.0 mph30.6 kmh 30.24 in1024.0 mb 0.00 in0.0 mm 0.00 in0.0 mm 0.00 in0.0 mm
04:23 PM 57.2°F14.0°C 48.6°F9.2°C 73% 10.0 mph NE16.1 kmh NE 19.0 mph30.6 kmh 30.24 in1024.0 mb 0.00 in0.0 mm 0.00 in0.0 mm 0.00 in0.0 mm
04:24 PM 57.2°F14.0°C 48.6°F9.2°C 73% 10.0 mph NE16.1 kmh NE 25.0 mph40.2 kmh 30.24 in1024.0 mb 0.00 in0.0 mm 0.00 in0.0 mm 0.00 in0.0 mm
04:26 PM 57.1°F13.9°C 48.5°F9.2°C 73% 11.0 mph NE17.7 kmh NE 25.0 mph40.2 kmh 30.24 in1024.0 mb 0.00 in0.0 mm 0.00 in0.0 mm 0.00 in0.0 mm
04:27 PM 57.1°F13.9°C 48.5°F9.2°C 73% 11.0 mph NE17.7 kmh NE 25.0 mph40.2 kmh 30.24 in1024.0 mb 0.00 in0.0 mm 0.00 in0.0 mm 0.00 in0.0 mm
04:29 PM 57.0°F13.9°C 48.4°F9.1°C 73% 11.0 mph NE17.7 kmh NE 25.0 mph40.2 kmh 30.24 in1024.0 mb 0.00 in0.0 mm 0.00 in0.0 mm 0.00 in0.0 mm
04:30 PM 56.9°F13.8°C 48.3°F9.1°C 73% 11.0 mph NE17.7 kmh NE 25.0 mph40.2 kmh 30.24 in1024.0 mb 0.00 in0.0 mm 0.00 in0.0 mm 0.00 in0.0 mm
04:31 PM 56.9°F13.8°C 48.7°F9.3°C 74% 11.0 mph NE17.7 kmh NE 25.0 mph40.2 kmh 30.24 in1024.0 mb 0.00 in0.0 mm 0.00 in0.0 mm 0.00 in0.0 mm
04:33 PM 56.8°F13.8°C 48.6°F9.2°C 74% 11.0 mph NE17.7 kmh NE 25.0 mph40.2 kmh 30.24 in1024.0 mb 0.00 in0.0 mm 0.00 in0.0 mm 0.00 in0.0 mm
04:34 PM 56.8°F13.8°C 48.6°F9.2°C 74% 11.0 mph NE17.7 kmh NE 21.0 mph33.8 kmh 30.24 in1024.0 mb 0.00 in0.0 mm 0.00 in0.0 mm 0.00 in0.0 mm
04:36 PM 56.7°F13.7°C 48.5°F9.2°C 74% 11.0 mph NE17.7 kmh NE 21.0 mph33.8 kmh 30.24 in1024.0 mb 0.00 in0.0 mm 0.00 in0.0 mm 0.00 in0.0 mm
04:37 PM 56.7°F13.7°C 48.5°F9.2°C 74% 11.0 mph NE17.7 kmh NE 21.0 mph33.8 kmh 30.24 in1024.0 mb 0.00 in0.0 mm 0.00 in0.0 mm 0.00 in0.0 mm
04:39 PM 56.6°F13.7°C 48.4°F9.1°C 74% 11.0 mph NE17.7 kmh NE 21.0 mph33.8 kmh 30.24 in1024.0 mb 0.00 in0.0 mm 0.00 in0.0 mm 0.00 in0.0 mm
04:40 PM 56.5°F13.6°C 48.3°F9.1°C 74% 11.0 mph NE17.7 kmh NE 21.0 mph33.8 kmh 30.24 in1024.0 mb 0.00 in0.0 mm 0.00 in0.0 mm 0.00 in0.0 mm
04:42 PM 56.5°F13.6°C 48.7°F9.3°C 75% 11.0 mph NE17.7 kmh NE 20.0 mph32.2 kmh 30.24 in1024.0 mb 0.00 in0.0 mm 0.00 in0.0 mm 0.00 in0.0 mm
04:43 PM 56.5°F13.6°C 48.7°F9.3°C 75% 10.0 mph NE16.1 kmh NE 20.0 mph32.2 kmh 30.24 in1024.0 mb 0.00 in0.0 mm 0.00 in0.0 mm 0.00 in0.0 mm
04:45 PM 56.5°F13.6°C 48.7°F9.3°C 75% 10.0 mph NE16.1 kmh NE 20.0 mph32.2 kmh 30.24 in1024.0 mb 0.00 in0.0 mm 0.00 in0.0 mm 0.00 in0.0 mm
04:46 PM 56.5°F13.6°C 48.7°F9.3°C 75% 10.0 mph NE16.1 kmh NE 20.0 mph32.2 kmh 30.24 in1024.0 mb 0.00 in0.0 mm 0.00 in0.0 mm 0.00 in0.0 mm
04:48 PM 56.5°F13.6°C 48.7°F9.3°C 75% 9.0 mph NE14.5 kmh NE 21.0 mph33.8 kmh 30.24 in1024.0 mb 0.00 in0.0 mm 0.00 in0.0 mm 0.00 in0.0 mm
04:49 PM 56.5°F13.6°C 48.7°F9.3°C 75% 9.0 mph NE14.5 kmh NE 21.0 mph33.8 kmh 30.24 in1024.0 mb 0.00 in0.0 mm 0.00 in0.0 mm 0.00 in0.0 mm
04:51 PM 56.5°F13.6°C 48.7°F9.3°C 75% 8.0 mph NE12.9 kmh NE 21.0 mph33.8 kmh 30.25 in1024.4 mb 0.00 in0.0 mm 0.00 in0.0 mm 0.00 in0.0 mm
04:52 PM 56.5°F13.6°C 48.7°F9.3°C 75% 8.0 mph NE12.9 kmh NE 21.0 mph33.8 kmh 30.24 in1024.0 mb 0.00 in0.0 mm 0.00 in0.0 mm 0.00 in0.0 mm
04:54 PM 56.4°F13.6°C 48.2°F9.0°C 74% 9.0 mph NE14.5 kmh NE 21.0 mph33.8 kmh 30.25 in1024.4 mb 0.00 in0.0 mm 0.00 in0.0 mm 0.00 in0.0 mm
04:55 PM 56.4°F13.6°C 48.2°F9.0°C 74% 9.0 mph NE14.5 kmh NE 21.0 mph33.8 kmh 30.25 in1024.4 mb 0.00 in0.0 mm 0.00 in0.0 mm 0.00 in0.0 mm
04:57 PM 56.3°F13.5°C 48.1°F8.9°C 74% 9.0 mph NE14.5 kmh NE 21.0 mph33.8 kmh 30.25 in1024.4 mb 0.00 in0.0 mm 0.00 in0.0 mm 0.00 in0.0 mm
04:58 PM 56.2°F13.4°C 48.0°F8.9°C 74% 10.0 mph NE16.1 kmh NE 21.0 mph33.8 kmh 30.25 in1024.4 mb 0.00 in0.0 mm 0.00 in0.0 mm 0.00 in0.0 mm
04:59 PM 56.3°F13.5°C 48.1°F8.9°C 74% 10.0 mph NE16.1 kmh NE 21.0 mph33.8 kmh 30.25 in1024.4 mb 0.00 in0.0 mm 0.00 in0.0 mm 0.00 in0.0 mm
05:00 PM 56.2°F13.4°C 48.0°F8.9°C 74% 10.0 mph NE16.1 kmh NE 21.0 mph33.8 kmh 30.24 in1024.0 mb 0.00 in0.0 mm 0.00 in0.0 mm 0.00 in0.0 mm
05:01 PM 56.2°F13.4°C 48.0°F8.9°C 74% 11.0 mph NE17.7 kmh NE 21.0 mph33.8 kmh 30.25 in1024.4 mb 0.00 in0.0 mm 0.00 in0.0 mm 0.00 in0.0 mm
05:03 PM 56.2°F13.4°C 48.0°F8.9°C 74% 10.0 mph NE16.1 kmh NE 21.0 mph33.8 kmh 30.25 in1024.4 mb 0.00 in0.0 mm 0.00 in0.0 mm 0.00 in0.0 mm
05:04 PM 56.2°F13.4°C 48.0°F8.9°C 74% 10.0 mph NE16.1 kmh NE 21.0 mph33.8 kmh 30.24 in1024.0 mb 0.00 in0.0 mm 0.00 in0.0 mm 0.00 in0.0 mm
05:06 PM 56.1°F13.4°C 47.9°F8.8°C 74% 10.0 mph NE16.1 kmh NE 21.0 mph33.8 kmh 30.25 in1024.4 mb 0.00 in0.0 mm 0.00 in0.0 mm 0.00 in0.0 mm
05:07 PM 56.1°F13.4°C 47.9°F8.8°C 74% 10.0 mph NE16.1 kmh NE 21.0 mph33.8 kmh 30.24 in1024.0 mb 0.00 in0.0 mm 0.00 in0.0 mm 0.00 in0.0 mm
05:09 PM 56.2°F13.4°C 48.0°F8.9°C 74% 9.0 mph NE14.5 kmh NE 21.0 mph33.8 kmh 30.24 in1024.0 mb 0.00 in0.0 mm 0.00 in0.0 mm 0.00 in0.0 mm
05:10 PM 56.2°F13.4°C 48.0°F8.9°C 74% 9.0 mph NE14.5 kmh NE 21.0 mph33.8 kmh 30.24 in1024.0 mb 0.00 in0.0 mm 0.00 in0.0 mm 0.00 in0.0 mm
05:12 PM 56.1°F13.4°C 47.9°F8.8°C 74% 9.0 mph NE14.5 kmh NE 21.0 mph33.8 kmh 30.24 in1024.0 mb 0.00 in0.0 mm 0.00 in0.0 mm 0.00 in0.0 mm
05:13 PM 56.1°F13.4°C 47.9°F8.8°C 74% 9.0 mph NE14.5 kmh NE 25.0 mph40.2 kmh 30.24 in1024.0 mb 0.00 in0.0 mm 0.00 in0.0 mm 0.00 in0.0 mm
05:14 PM 56.1°F13.4°C 47.9°F8.8°C 74% 10.0 mph NE16.1 kmh NE 25.0 mph40.2 kmh 30.24 in1024.0 mb 0.00 in0.0 mm 0.00 in0.0 mm 0.00 in0.0 mm
05:16 PM 56.1°F13.4°C 47.9°F8.8°C 74% 9.0 mph NE14.5 kmh NE 25.0 mph40.2 kmh 30.24 in1024.0 mb 0.00 in0.0 mm 0.00 in0.0 mm 0.00 in0.0 mm
05:17 PM 56.1°F13.4°C 47.9°F8.8°C 74% 9.0 mph NE14.5 kmh NE 25.0 mph40.2 kmh 30.24 in1024.0 mb 0.00 in0.0 mm 0.00 in0.0 mm 0.00 in0.0 mm
05:19 PM 56.1°F13.4°C 47.9°F8.8°C 74% 10.0 mph NE16.1 kmh NE 25.0 mph40.2 kmh 30.24 in1024.0 mb 0.00 in0.0 mm 0.00 in0.0 mm 0.00 in0.0 mm
05:20 PM 56.1°F13.4°C 47.9°F8.8°C 74% 10.0 mph NE16.1 kmh NE 25.0 mph40.2 kmh 30.24 in1024.0 mb 0.00 in0.0 mm 0.00 in0.0 mm 0.00 in0.0 mm
05:21 PM 56.1°F13.4°C 47.9°F8.8°C 74% 9.0 mph NE14.5 kmh NE 25.0 mph40.2 kmh 30.25 in1024.4 mb 0.00 in0.0 mm 0.00 in0.0 mm 0.00 in0.0 mm
05:23 PM 56.0°F13.3°C 47.8°F8.8°C 74% 9.0 mph NE14.5 kmh NE 23.0 mph37.0 kmh 30.25 in1024.4 mb 0.00 in0.0 mm 0.00 in0.0 mm 0.00 in0.0 mm
05:24 PM 56.0°F13.3°C 47.8°F8.8°C 74% 9.0 mph NE14.5 kmh NE 23.0 mph37.0 kmh 30.24 in1024.0 mb 0.00 in0.0 mm 0.00 in0.0 mm 0.00 in0.0 mm
05:25 PM 56.0°F13.3°C 47.8°F8.8°C 74% 9.0 mph NE14.5 kmh NE 23.0 mph37.0 kmh 30.25 in1024.4 mb 0.00 in0.0 mm 0.00 in0.0 mm 0.00 in0.0 mm
05:27 PM 55.9°F13.3°C 47.7°F8.7°C 74% 9.0 mph NE14.5 kmh NE 23.0 mph37.0 kmh 30.25 in1024.4 mb 0.00 in0.0 mm 0.00 in0.0 mm 0.00 in0.0 mm
05:28 PM 55.9°F13.3°C 47.7°F8.7°C 74% 9.0 mph NE14.5 kmh NE 23.0 mph37.0 kmh 30.25 in1024.4 mb 0.00 in0.0 mm 0.00 in0.0 mm 0.00 in0.0 mm
05:30 PM 55.8°F13.2°C 47.6°F8.7°C 74% 9.0 mph NE14.5 kmh NE 23.0 mph37.0 kmh 30.25 in1024.4 mb 0.00 in0.0 mm 0.00 in0.0 mm 0.00 in0.0 mm
05:31 PM 55.8°F13.2°C 47.6°F8.7°C 74% 9.0 mph NE14.5 kmh NE 23.0 mph37.0 kmh 30.25 in1024.4 mb 0.00 in0.0 mm 0.00 in0.0 mm 0.00 in0.0 mm
05:33 PM 55.6°F13.1°C 47.4°F8.6°C 74% 9.0 mph NE14.5 kmh NE 18.0 mph29.0 kmh 30.25 in1024.4 mb 0.00 in0.0 mm 0.00 in0.0 mm 0.00 in0.0 mm
05:34 PM 55.6°F13.1°C 47.4°F8.6°C 74% 9.0 mph NE14.5 kmh NE 18.0 mph29.0 kmh 30.25 in1024.4 mb 0.00 in0.0 mm 0.00 in0.0 mm 0.00 in0.0 mm
05:36 PM 55.6°F13.1°C 47.4°F8.6°C 74% 9.0 mph NE14.5 kmh NE 18.0 mph29.0 kmh 30.25 in1024.4 mb 0.00 in0.0 mm 0.00 in0.0 mm 0.00 in0.0 mm
05:37 PM 55.5°F13.1°C 47.3°F8.5°C 74% 9.0 mph NE14.5 kmh NE 18.0 mph29.0 kmh 30.25 in1024.4 mb 0.00 in0.0 mm 0.00 in0.0 mm 0.00 in0.0 mm
05:39 PM 55.6°F13.1°C 47.8°F8.8°C 75% 8.0 mph NE12.9 kmh NE 18.0 mph29.0 kmh 30.25 in1024.4 mb 0.00 in0.0 mm 0.00 in0.0 mm 0.00 in0.0 mm
05:40 PM 55.6°F13.1°C 47.8°F8.8°C 75% 8.0 mph NE12.9 kmh NE 18.0 mph29.0 kmh 30.25 in1024.4 mb 0.00 in0.0 mm 0.00 in0.0 mm 0.00 in0.0 mm
05:42 PM 55.6°F13.1°C 47.8°F8.8°C 75% 7.0 mph NE11.3 kmh NE 22.0 mph35.4 kmh 30.25 in1024.4 mb 0.00 in0.0 mm 0.00 in0.0 mm 0.00 in0.0 mm
05:43 PM 55.5°F13.1°C 47.3°F8.5°C 74% 7.0 mph NE11.3 kmh NE 22.0 mph35.4 kmh 30.25 in1024.4 mb 0.00 in0.0 mm 0.00 in0.0 mm 0.00 in0.0 mm
05:45 PM 55.4°F13.0°C 47.6°F8.7°C 75% 7.0 mph NE11.3 kmh NE 22.0 mph35.4 kmh 30.25 in1024.4 mb 0.00 in0.0 mm 0.00 in0.0 mm 0.00 in0.0 mm
05:46 PM 55.5°F13.1°C 47.7°F8.7°C 75% 7.0 mph NE11.3 kmh NE 22.0 mph35.4 kmh 30.25 in1024.4 mb 0.00 in0.0 mm 0.00 in0.0 mm 0.00 in0.0 mm
05:48 PM 55.4°F13.0°C 47.6°F8.7°C 75% 7.0 mph NE11.3 kmh NE 22.0 mph35.4 kmh 30.25 in1024.4 mb 0.00 in0.0 mm 0.00 in0.0 mm 0.00 in0.0 mm
05:49 PM 55.4°F13.0°C 47.6°F8.7°C 75% 8.0 mph NE12.9 kmh NE 22.0 mph35.4 kmh 30.25 in1024.4 mb 0.00 in0.0 mm 0.00 in0.0 mm 0.00 in0.0 mm
05:51 PM 55.4°F13.0°C 47.6°F8.7°C 75% 8.0 mph NE12.9 kmh NE 22.0 mph35.4 kmh 30.25 in1024.4 mb 0.00 in0.0 mm 0.00 in0.0 mm 0.00 in0.0 mm
05:52 PM 55.4°F13.0°C 47.6°F8.7°C 75% 8.0 mph NE12.9 kmh NE 16.0 mph25.7 kmh 30.25 in1024.4 mb 0.00 in0.0 mm 0.00 in0.0 mm 0.00 in0.0 mm
05:54 PM 55.4°F13.0°C 47.6°F8.7°C 75% 8.0 mph NE12.9 kmh NE 16.0 mph25.7 kmh 30.25 in1024.4 mb 0.00 in0.0 mm 0.00 in0.0 mm 0.00 in0.0 mm
05:55 PM 55.4°F13.0°C 47.6°F8.7°C 75% 8.0 mph NE12.9 kmh NE 16.0 mph25.7 kmh 30.25 in1024.4 mb 0.00 in0.0 mm 0.00 in0.0 mm 0.00 in0.0 mm
05:57 PM 55.4°F13.0°C 47.6°F8.7°C 75% 8.0 mph NE12.9 kmh NE 18.0 mph29.0 kmh 30.25 in1024.4 mb 0.00 in0.0 mm 0.00 in0.0 mm 0.00 in0.0 mm
05:58 PM 55.3°F12.9°C 47.5°F8.6°C 75% 8.0 mph NE12.9 kmh NE 18.0 mph29.0 kmh 30.25 in1024.4 mb 0.00 in0.0 mm 0.00 in0.0 mm 0.00 in0.0 mm
06:00 PM 55.3°F12.9°C 47.5°F8.6°C 75% 8.0 mph NE12.9 kmh NE 18.0 mph29.0 kmh 30.25 in1024.4 mb 0.00 in0.0 mm 0.00 in0.0 mm 0.00 in0.0 mm
06:01 PM 55.2°F12.9°C 47.4°F8.6°C 75% 8.0 mph NE12.9 kmh NE 18.0 mph29.0 kmh 30.25 in1024.4 mb 0.00 in0.0 mm 0.00 in0.0 mm 0.00 in0.0 mm
06:03 PM 55.2°F12.9°C 47.4°F8.6°C 75% 9.0 mph NE14.5 kmh NE 18.0 mph29.0 kmh 30.25 in1024.4 mb 0.00 in0.0 mm 0.00 in0.0 mm 0.00 in0.0 mm
06:04 PM 55.1°F12.8°C 47.3°F8.5°C 75% 9.0 mph NE14.5 kmh NE 18.0 mph29.0 kmh 30.25 in1024.4 mb 0.00 in0.0 mm 0.00 in0.0 mm 0.00 in0.0 mm
06:06 PM 55.1°F12.8°C 47.3°F8.5°C 75% 9.0 mph NE14.5 kmh NE 18.0 mph29.0 kmh 30.25 in1024.4 mb 0.00 in0.0 mm 0.00 in0.0 mm 0.00 in0.0 mm
06:07 PM 55.1°F12.8°C 47.3°F8.5°C 75% 10.0 mph NE16.1 kmh NE 18.0 mph29.0 kmh 30.25 in1024.4 mb 0.00 in0.0 mm 0.00 in0.0 mm 0.00 in0.0 mm
06:09 PM 55.1°F12.8°C 47.3°F8.5°C 75% 9.0 mph NE14.5 kmh NE 18.0 mph29.0 kmh 30.25 in1024.4 mb 0.00 in0.0 mm 0.00 in0.0 mm 0.00 in0.0 mm
06:10 PM 55.2°F12.9°C 47.4°F8.6°C 75% 9.0 mph NE14.5 kmh NE 18.0 mph29.0 kmh 30.25 in1024.4 mb 0.00 in0.0 mm 0.00 in0.0 mm 0.00 in0.0 mm
06:11 PM 55.2°F12.9°C 47.4°F8.6°C 75% 8.0 mph NE12.9 kmh NE 17.0 mph27.4 kmh 30.25 in1024.4 mb 0.00 in0.0 mm 0.00 in0.0 mm 0.00 in0.0 mm
06:13 PM 55.2°F12.9°C 47.4°F8.6°C 75% 7.0 mph NE11.3 kmh NE 16.0 mph25.7 kmh 30.25 in1024.4 mb 0.00 in0.0 mm 0.00 in0.0 mm 0.00 in0.0 mm
06:14 PM 55.2°F12.9°C 47.4°F8.6°C 75% 7.0 mph NE11.3 kmh NE 16.0 mph25.7 kmh 30.25 in1024.4 mb 0.00 in0.0 mm 0.00 in0.0 mm 0.00 in0.0 mm
06:16 PM 55.2°F12.9°C 47.4°F8.6°C 75% 7.0 mph NE11.3 kmh NE 16.0 mph25.7 kmh 30.25 in1024.4 mb 0.00 in0.0 mm 0.00 in0.0 mm 0.00 in0.0 mm
06:17 PM 55.2°F12.9°C 47.4°F8.6°C 75% 6.0 mph NE9.7 kmh NE 15.0 mph24.1 kmh 30.25 in1024.4 mb 0.00 in0.0 mm 0.00 in0.0 mm 0.00 in0.0 mm
06:19 PM 55.2°F12.9°C 47.4°F8.6°C 75% 7.0 mph NE11.3 kmh NE 15.0 mph24.1 kmh 30.25 in1024.4 mb 0.00 in0.0 mm 0.00 in0.0 mm 0.00 in0.0 mm
06:20 PM 55.2°F12.9°C 47.4°F8.6°C 75% 7.0 mph NE11.3 kmh NE 15.0 mph24.1 kmh 30.25 in1024.4 mb 0.00 in0.0 mm 0.00 in0.0 mm 0.00 in0.0 mm
06:22 PM 55.2°F12.9°C 47.4°F8.6°C 75% 7.0 mph NE11.3 kmh NE 15.0 mph24.1 kmh 30.25 in1024.4 mb 0.00 in0.0 mm 0.00 in0.0 mm 0.00 in0.0 mm
06:23 PM 55.2°F12.9°C 47.4°F8.6°C 75% 7.0 mph NE11.3 kmh NE 15.0 mph24.1 kmh 30.25 in1024.4 mb 0.00 in0.0 mm 0.00 in0.0 mm 0.00 in0.0 mm
06:25 PM 55.2°F12.9°C 47.4°F8.6°C 75% 8.0 mph NE12.9 kmh NE 15.0 mph24.1 kmh 30.25 in1024.4 mb 0.00 in0.0 mm 0.00 in0.0 mm 0.00 in0.0 mm
06:26 PM 55.3°F12.9°C 47.5°F8.6°C 75% 8.0 mph NE12.9 kmh NE 15.0 mph24.1 kmh 30.25 in1024.4 mb 0.00 in0.0 mm 0.00 in0.0 mm 0.00 in0.0 mm
06:28 PM 55.2°F12.9°C 47.4°F8.6°C 75% 8.0 mph NE12.9 kmh NE 14.0 mph22.5 kmh 30.25 in1024.4 mb 0.00 in0.0 mm 0.00 in0.0 mm 0.00 in0.0 mm
06:29 PM 55.2°F12.9°C 47.4°F8.6°C 75% 8.0 mph NE12.9 kmh NE 14.0 mph22.5 kmh 30.25 in1024.4 mb 0.00 in0.0 mm 0.00 in0.0 mm 0.00 in0.0 mm
06:31 PM 55.3°F12.9°C 47.5°F8.6°C 75% 8.0 mph NE12.9 kmh NE 13.0 mph20.9 kmh 30.25 in1024.4 mb 0.00 in0.0 mm 0.00 in0.0 mm 0.00 in0.0 mm
06:32 PM 55.3°F12.9°C 47.2°F8.4°C 74% 8.0 mph NE12.9 kmh NE 14.0 mph22.5 kmh 30.25 in1024.4 mb 0.00 in0.0 mm 0.00 in0.0 mm 0.00 in0.0 mm
06:34 PM 55.3°F12.9°C 47.2°F8.4°C 74% 8.0 mph NE12.9 kmh NE 14.0 mph22.5 kmh 30.25 in1024.4 mb 0.00 in0.0 mm 0.00 in0.0 mm 0.00 in0.0 mm
06:35 PM 55.3°F12.9°C 47.2°F8.4°C 74% 7.0 mph NE11.3 kmh NE 14.0 mph22.5 kmh 30.25 in1024.4 mb 0.00 in0.0 mm 0.00 in0.0 mm 0.00 in0.0 mm
06:37 PM 55.3°F12.9°C 47.2°F8.4°C 74% 8.0 mph NE12.9 kmh NE 14.0 mph22.5 kmh 30.24 in1024.0 mb 0.00 in0.0 mm 0.00 in0.0 mm 0.00 in0.0 mm
06:38 PM 55.3°F12.9°C 47.2°F8.4°C 74% 7.0 mph NE11.3 kmh NE 14.0 mph22.5 kmh 30.25 in1024.4 mb 0.00 in0.0 mm 0.00 in0.0 mm 0.00 in0.0 mm
06:40 PM 55.3°F12.9°C 47.2°F8.4°C 74% 7.0 mph NE11.3 kmh NE 15.0 mph24.1 kmh 30.25 in1024.4 mb 0.00 in0.0 mm 0.00 in0.0 mm 0.00 in0.0 mm
06:41 PM 55.3°F12.9°C 47.2°F8.4°C 74% 8.0 mph NE12.9 kmh NE 15.0 mph24.1 kmh 30.24 in1024.0 mb 0.00 in0.0 mm 0.00 in0.0 mm 0.00 in0.0 mm
06:43 PM 55.3°F12.9°C 47.2°F8.4°C 74% 8.0 mph NE12.9 kmh NE 18.0 mph29.0 kmh 30.25 in1024.4 mb 0.00 in0.0 mm 0.00 in0.0 mm 0.00 in0.0 mm
06:44 PM 55.3°F12.9°C 47.2°F8.4°C 74% 8.0 mph NE12.9 kmh NE 18.0 mph29.0 kmh 30.24 in1024.0 mb 0.00 in0.0 mm 0.00 in0.0 mm 0.00 in0.0 mm
06:46 PM 55.3°F12.9°C 47.2°F8.4°C 74% 9.0 mph NE14.5 kmh NE 18.0 mph29.0 kmh 30.24 in1024.0 mb 0.00 in0.0 mm 0.00 in0.0 mm 0.00 in0.0 mm
06:47 PM 55.3°F12.9°C 47.2°F8.4°C 74% 9.0 mph NE14.5 kmh NE 20.0 mph32.2 kmh 30.25 in1024.4 mb 0.00 in0.0 mm 0.00 in0.0 mm 0.00 in0.0 mm
06:49 PM 55.2°F12.9°C 46.7°F8.2°C 73% 10.0 mph NE16.1 kmh NE 22.0 mph35.4 kmh 30.25 in1024.4 mb 0.00 in0.0 mm 0.00 in0.0 mm 0.00 in0.0 mm
06:50 PM 55.2°F12.9°C 46.7°F8.2°C 73% 10.0 mph NE16.1 kmh NE 22.0 mph35.4 kmh 30.25 in1024.4 mb 0.00 in0.0 mm 0.00 in0.0 mm 0.00 in0.0 mm
06:51 PM 55.2°F12.9°C 46.7°F8.2°C 73% 10.0 mph NE16.1 kmh NE 22.0 mph35.4 kmh 30.25 in1024.4 mb 0.00 in0.0 mm 0.00 in0.0 mm 0.00 in0.0 mm
06:53 PM 55.2°F12.9°C 46.7°F8.2°C 73% 9.0 mph NE14.5 kmh NE 22.0 mph35.4 kmh 30.25 in1024.4 mb 0.00 in0.0 mm 0.00 in0.0 mm 0.00 in0.0 mm
06:54 PM 55.2°F12.9°C 46.7°F8.2°C 73% 9.0 mph NE14.5 kmh NE 22.0 mph35.4 kmh 30.25 in1024.4 mb 0.00 in0.0 mm 0.00 in0.0 mm 0.00 in0.0 mm
06:56 PM 55.2°F12.9°C 46.3°F7.9°C 72% 9.0 mph NE14.5 kmh NE 22.0 mph35.4 kmh 30.25 in1024.4 mb 0.00 in0.0 mm 0.00 in0.0 mm 0.00 in0.0 mm
06:57 PM 55.2°F12.9°C 46.3°F7.9°C 72% 9.0 mph NE14.5 kmh NE 22.0 mph35.4 kmh 30.25 in1024.4 mb 0.00 in0.0 mm 0.00 in0.0 mm 0.00 in0.0 mm
06:59 PM 55.2°F12.9°C 46.3°F7.9°C 72% 8.0 mph NE12.9 kmh NE 19.0 mph30.6 kmh 30.25 in1024.4 mb 0.00 in0.0 mm 0.00 in0.0 mm 0.00 in0.0 mm
07:00 PM 55.2°F12.9°C 46.3°F7.9°C 72% 7.0 mph NE11.3 kmh NE 19.0 mph30.6 kmh 30.25 in1024.4 mb 0.00 in0.0 mm 0.00 in0.0 mm 0.00 in0.0 mm
07:01 PM 55.2°F12.9°C 46.3°F7.9°C 72% 7.0 mph NE11.3 kmh NE 19.0 mph30.6 kmh 30.25 in1024.4 mb 0.00 in0.0 mm 0.00 in0.0 mm 0.00 in0.0 mm
07:03 PM 55.2°F12.9°C 46.3°F7.9°C 72% 7.0 mph NE11.3 kmh NE 15.0 mph24.1 kmh 30.25 in1024.4 mb 0.00 in0.0 mm 0.00 in0.0 mm 0.00 in0.0 mm
07:04 PM 55.1°F12.8°C 46.2°F7.9°C 72% 7.0 mph NE11.3 kmh NE 16.0 mph25.7 kmh 30.25 in1024.4 mb 0.00 in0.0 mm 0.00 in0.0 mm 0.00 in0.0 mm
07:06 PM 55.1°F12.8°C 45.9°F7.7°C 71% 7.0 mph NE11.3 kmh NE 16.0 mph25.7 kmh 30.25 in1024.4 mb 0.00 in0.0 mm 0.00 in0.0 mm 0.00 in0.0 mm
07:07 PM 55.1°F12.8°C 45.9°F7.7°C 71% 7.0 mph NE11.3 kmh NE 16.0 mph25.7 kmh 30.25 in1024.4 mb 0.00 in0.0 mm 0.00 in0.0 mm 0.00 in0.0 mm
07:09 PM 55.1°F12.8°C 45.9°F7.7°C 71% 7.0 mph NE11.3 kmh NE 16.0 mph25.7 kmh 30.25 in1024.4 mb 0.00 in0.0 mm 0.00 in0.0 mm 0.00 in0.0 mm
07:10 PM 55.0°F12.8°C 45.8°F7.7°C 71% 8.0 mph NNE12.9 kmh NNE 16.0 mph25.7 kmh 30.25 in1024.4 mb 0.00 in0.0 mm 0.00 in0.0 mm 0.00 in0.0 mm
07:12 PM 55.0°F12.8°C 45.8°F7.7°C 71% 8.0 mph NE12.9 kmh NE 16.0 mph25.7 kmh 30.25 in1024.4 mb 0.00 in0.0 mm 0.00 in0.0 mm 0.00 in0.0 mm
07:13 PM 54.9°F12.7°C 45.7°F7.6°C 71% 7.0 mph NE11.3 kmh NE 16.0 mph25.7 kmh 30.25 in1024.4 mb 0.00 in0.0 mm 0.00 in0.0 mm 0.00 in0.0 mm
07:15 PM 54.9°F12.7°C 45.7°F7.6°C 71% 7.0 mph NE11.3 kmh NE 16.0 mph25.7 kmh 30.25 in1024.4 mb 0.00 in0.0 mm 0.00 in0.0 mm 0.00 in0.0 mm
07:16 PM 54.9°F12.7°C 45.3°F7.4°C 70% 7.0 mph NE11.3 kmh NE 16.0 mph25.7 kmh 30.25 in1024.4 mb 0.00 in0.0 mm 0.00 in0.0 mm 0.00 in0.0 mm
07:18 PM 54.8°F12.7°C 45.2°F7.3°C 70% 7.0 mph NE11.3 kmh NE 19.0 mph30.6 kmh 30.25 in1024.4 mb 0.00 in0.0 mm 0.00 in0.0 mm 0.00 in0.0 mm
07:19 PM 54.7°F12.6°C 44.7°F7.1°C 69% 8.0 mph NE12.9 kmh NE 22.0 mph35.4 kmh 30.25 in1024.4 mb 0.00 in0.0 mm 0.00 in0.0 mm 0.00 in0.0 mm
07:21 PM 54.7°F12.6°C 44.7°F7.1°C 69% 9.0 mph NE14.5 kmh NE 22.0 mph35.4 kmh 30.25 in1024.4 mb 0.00 in0.0 mm 0.00 in0.0 mm 0.00 in0.0 mm
07:22 PM 54.6°F12.6°C 44.6°F7.0°C 69% 9.0 mph NE14.5 kmh NE 22.0 mph35.4 kmh 30.25 in1024.4 mb 0.00 in0.0 mm 0.00 in0.0 mm 0.00 in0.0 mm
07:23 PM 54.6°F12.6°C 44.6°F7.0°C 69% 9.0 mph NE14.5 kmh NE 22.0 mph35.4 kmh 30.25 in1024.4 mb 0.00 in0.0 mm 0.00 in0.0 mm 0.00 in0.0 mm
07:24 PM 54.5°F12.5°C 44.5°F6.9°C 69% 9.0 mph NE14.5 kmh NE 22.0 mph35.4 kmh 30.25 in1024.4 mb 0.00 in0.0 mm 0.00 in0.0 mm 0.00 in0.0 mm
07:25 PM 54.5°F12.5°C 44.5°F6.9°C 69% 9.0 mph NE14.5 kmh NE 22.0 mph35.4 kmh 30.25 in1024.4 mb 0.00 in0.0 mm 0.00 in0.0 mm 0.00 in0.0 mm
07:26 PM 54.5°F12.5°C 44.5°F6.9°C 69% 9.0 mph NE14.5 kmh NE 22.0 mph35.4 kmh 30.25 in1024.4 mb 0.00 in0.0 mm 0.00 in0.0 mm 0.00 in0.0 mm
07:28 PM 54.4°F12.4°C 44.1°F6.7°C 68% 9.0 mph NE14.5 kmh NE 22.0 mph35.4 kmh 30.25 in1024.4 mb 0.00 in0.0 mm 0.00 in0.0 mm 0.00 in0.0 mm
07:30 PM 54.3°F12.4°C 44.0°F6.7°C 68% 9.0 mph NE14.5 kmh NE 21.0 mph33.8 kmh 30.25 in1024.4 mb 0.00 in0.0 mm 0.00 in0.0 mm 0.00 in0.0 mm
07:31 PM 54.3°F12.4°C 44.0°F6.7°C 68% 9.0 mph NE14.5 kmh NE 21.0 mph33.8 kmh 30.25 in1024.4 mb 0.00 in0.0 mm 0.00 in0.0 mm 0.00 in0.0 mm
07:33 PM 54.2°F12.3°C 43.9°F6.6°C 68% 9.0 mph NE14.5 kmh NE 21.0 mph33.8 kmh 30.25 in1024.4 mb 0.00 in0.0 mm 0.00 in0.0 mm 0.00 in0.0 mm
07:34 PM 54.2°F12.3°C 43.9°F6.6°C 68% 9.0 mph NE14.5 kmh NE 21.0 mph33.8 kmh 30.25 in1024.4 mb 0.00 in0.0 mm 0.00 in0.0 mm 0.00 in0.0 mm
07:36 PM 54.2°F12.3°C 43.9°F6.6°C 68% 10.0 mph NE16.1 kmh NE 21.0 mph33.8 kmh 30.25 in1024.4 mb 0.00 in0.0 mm 0.00 in0.0 mm 0.00 in0.0 mm
07:37 PM 54.1°F12.3°C 43.8°F6.6°C 68% 10.0 mph NE16.1 kmh NE 21.0 mph33.8 kmh 30.25 in1024.4 mb 0.00 in0.0 mm 0.00 in0.0 mm 0.00 in0.0 mm
07:39 PM 54.1°F12.3°C 43.8°F6.6°C 68% 9.0 mph NE14.5 kmh NE 21.0 mph33.8 kmh 30.25 in1024.4 mb 0.00 in0.0 mm 0.00 in0.0 mm 0.00 in0.0 mm
07:40 PM 54.1°F12.3°C 43.8°F6.6°C 68% 9.0 mph NE14.5 kmh NE 18.0 mph29.0 kmh 30.25 in1024.4 mb 0.00 in0.0 mm 0.00 in0.0 mm 0.00 in0.0 mm
07:41 PM 54.0°F12.2°C 43.7°F6.5°C 68% 9.0 mph NE14.5 kmh NE 18.0 mph29.0 kmh 30.25 in1024.4 mb 0.00 in0.0 mm 0.00 in0.0 mm 0.00 in0.0 mm
07:43 PM 54.0°F12.2°C 43.7°F6.5°C 68% 8.0 mph NE12.9 kmh NE 16.0 mph25.7 kmh 30.25 in1024.4 mb 0.00 in0.0 mm 0.00 in0.0 mm 0.00 in0.0 mm
07:44 PM 53.9°F12.2°C 43.6°F6.4°C 68% 8.0 mph NE12.9 kmh NE 16.0 mph25.7 kmh 30.25 in1024.4 mb 0.00 in0.0 mm 0.00 in0.0 mm 0.00 in0.0 mm
07:46 PM 53.8°F12.1°C 43.5°F6.4°C 68% 8.0 mph NE12.9 kmh NE 16.0 mph25.7 kmh 30.26 in1024.7 mb 0.00 in0.0 mm 0.00 in0.0 mm 0.00 in0.0 mm
07:47 PM 53.8°F12.1°C 43.5°F6.4°C 68% 8.0 mph NE12.9 kmh NE 16.0 mph25.7 kmh 30.26 in1024.7 mb 0.00 in0.0 mm 0.00 in0.0 mm 0.00 in0.0 mm
07:49 PM 53.8°F12.1°C 43.5°F6.4°C 68% 7.0 mph NE11.3 kmh NE 16.0 mph25.7 kmh 30.26 in1024.7 mb 0.00 in0.0 mm 0.00 in0.0 mm 0.00 in0.0 mm
07:50 PM 53.8°F12.1°C 43.5°F6.4°C 68% 7.0 mph NE11.3 kmh NE 16.0 mph25.7 kmh 30.26 in1024.7 mb 0.00 in0.0 mm 0.00 in0.0 mm 0.00 in0.0 mm
07:52 PM 53.7°F12.1°C 43.4°F6.3°C 68% 7.0 mph NE11.3 kmh NE 16.0 mph25.7 kmh 30.26 in1024.7 mb 0.00 in0.0 mm 0.00 in0.0 mm 0.00 in0.0 mm
07:53 PM 53.7°F12.1°C 43.4°F6.3°C 68% 7.0 mph NE11.3 kmh NE 17.0 mph27.4 kmh 30.26 in1024.7 mb 0.00 in0.0 mm 0.00 in0.0 mm 0.00 in0.0 mm
07:55 PM 53.6°F12.0°C 43.7°F6.5°C 69% 7.0 mph NE11.3 kmh NE 17.0 mph27.4 kmh 30.26 in1024.7 mb 0.00 in0.0 mm 0.00 in0.0 mm 0.00 in0.0 mm
07:56 PM 53.6°F12.0°C 43.3°F6.3°C 68% 7.0 mph NNE11.3 kmh NNE 17.0 mph27.4 kmh 30.26 in1024.7 mb 0.00 in0.0 mm 0.00 in0.0 mm 0.00 in0.0 mm
07:58 PM 53.5°F11.9°C 43.6°F6.4°C 69% 7.0 mph NNE11.3 kmh NNE 17.0 mph27.4 kmh 30.26 in1024.7 mb 0.00 in0.0 mm 0.00 in0.0 mm 0.00 in0.0 mm
07:59 PM 53.5°F11.9°C 43.6°F6.4°C 69% 7.0 mph NNE11.3 kmh NNE 17.0 mph27.4 kmh 30.26 in1024.7 mb 0.00 in0.0 mm 0.00 in0.0 mm 0.00 in0.0 mm
08:01 PM 53.4°F11.9°C 43.5°F6.4°C 69% 7.0 mph NNE11.3 kmh NNE 17.0 mph27.4 kmh 30.26 in1024.7 mb 0.00 in0.0 mm 0.00 in0.0 mm 0.00 in0.0 mm
08:02 PM 53.4°F11.9°C 43.5°F6.4°C 69% 7.0 mph NNE11.3 kmh NNE 17.0 mph27.4 kmh 30.26 in1024.7 mb 0.00 in0.0 mm 0.00 in0.0 mm 0.00 in0.0 mm
08:04 PM 53.2°F11.8°C 43.7°F6.5°C 70% 7.0 mph NE11.3 kmh NE 15.0 mph24.1 kmh 30.27 in1025.1 mb 0.00 in0.0 mm 0.00 in0.0 mm 0.00 in0.0 mm
08:05 PM 53.2°F11.8°C 43.7°F6.5°C 70% 7.0 mph NE11.3 kmh NE 14.0 mph22.5 kmh 30.27 in1025.1 mb 0.00 in0.0 mm 0.00 in0.0 mm 0.00 in0.0 mm
08:07 PM 53.1°F11.7°C 43.6°F6.4°C 70% 6.0 mph NE9.7 kmh NE 14.0 mph22.5 kmh 30.27 in1025.1 mb 0.00 in0.0 mm 0.00 in0.0 mm 0.00 in0.0 mm
08:08 PM 53.1°F11.7°C 43.2°F6.2°C 69% 7.0 mph NE11.3 kmh NE 14.0 mph22.5 kmh 30.27 in1025.1 mb 0.00 in0.0 mm 0.00 in0.0 mm 0.00 in0.0 mm
08:10 PM 53.0°F11.7°C 43.1°F6.2°C 69% 7.0 mph NE11.3 kmh NE 15.0 mph24.1 kmh 30.27 in1025.1 mb 0.00 in0.0 mm 0.00 in0.0 mm 0.00 in0.0 mm
08:11 PM 53.0°F11.7°C 43.1°F6.2°C 69% 7.0 mph NE11.3 kmh NE 17.0 mph27.4 kmh 30.27 in1025.1 mb 0.00 in0.0 mm 0.00 in0.0 mm 0.00 in0.0 mm
08:13 PM 52.9°F11.6°C 43.0°F6.1°C 69% 7.0 mph NE11.3 kmh NE 17.0 mph27.4 kmh 30.27 in1025.1 mb 0.00 in0.0 mm 0.00 in0.0 mm 0.00 in0.0 mm
08:14 PM 52.9°F11.6°C 43.0°F6.1°C 69% 8.0 mph NE12.9 kmh NE 17.0 mph27.4 kmh 30.27 in1025.1 mb 0.00 in0.0 mm 0.00 in0.0 mm 0.00 in0.0 mm
08:16 PM 52.8°F11.6°C 42.9°F6.1°C 69% 8.0 mph NE12.9 kmh NE 17.0 mph27.4 kmh 30.27 in1025.1 mb 0.00 in0.0 mm 0.00 in0.0 mm 0.00 in0.0 mm
08:17 PM 52.8°F11.6°C 42.9°F6.1°C 69% 8.0 mph NE12.9 kmh NE 17.0 mph27.4 kmh 30.27 in1025.1 mb 0.00 in0.0 mm 0.00 in0.0 mm 0.00 in0.0 mm
08:19 PM 52.8°F11.6°C 42.9°F6.1°C 69% 8.0 mph NE12.9 kmh NE 17.0 mph27.4 kmh 30.28 in1025.4 mb 0.00 in0.0 mm 0.00 in0.0 mm 0.00 in0.0 mm
08:20 PM 52.7°F11.5°C 42.8°F6.0°C 69% 7.0 mph NE11.3 kmh NE 17.0 mph27.4 kmh 30.28 in1025.4 mb 0.00 in0.0 mm 0.00 in0.0 mm 0.00 in0.0 mm
08:22 PM 52.6°F11.4°C 42.7°F5.9°C 69% 7.0 mph NE11.3 kmh NE 15.0 mph24.1 kmh 30.28 in1025.4 mb 0.00 in0.0 mm 0.00 in0.0 mm 0.00 in0.0 mm
08:23 PM 52.6°F11.4°C 42.7°F5.9°C 69% 7.0 mph NE11.3 kmh NE 15.0 mph24.1 kmh 30.28 in1025.4 mb 0.00 in0.0 mm 0.00 in0.0 mm 0.00 in0.0 mm
08:25 PM 52.5°F11.4°C 43.0°F6.1°C 70% 6.0 mph NNE9.7 kmh NNE 15.0 mph24.1 kmh 30.28 in1025.4 mb 0.00 in0.0 mm 0.00 in0.0 mm 0.00 in0.0 mm
08:26 PM 52.5°F11.4°C 43.0°F6.1°C 70% 6.0 mph NE9.7 kmh NE 14.0 mph22.5 kmh 30.28 in1025.4 mb 0.00 in0.0 mm 0.00 in0.0 mm 0.00 in0.0 mm
08:27 PM 52.5°F11.4°C 43.0°F6.1°C 70% 6.0 mph NE9.7 kmh NE 14.0 mph22.5 kmh 30.28 in1025.4 mb 0.00 in0.0 mm 0.00 in0.0 mm 0.00 in0.0 mm
08:29 PM 52.4°F11.3°C 42.9°F6.1°C 70% 6.0 mph NE9.7 kmh NE 14.0 mph22.5 kmh 30.28 in1025.4 mb 0.00 in0.0 mm 0.00 in0.0 mm 0.00 in0.0 mm
08:30 PM 52.3°F11.3°C 42.8°F6.0°C 70% 6.0 mph NE9.7 kmh NE 18.0 mph29.0 kmh 30.28 in1025.4 mb 0.00 in0.0 mm 0.00 in0.0 mm 0.00 in0.0 mm
08:31 PM 52.3°F11.3°C 42.8°F6.0°C 70% 6.0 mph NE9.7 kmh NE 18.0 mph29.0 kmh 30.28 in1025.4 mb 0.00 in0.0 mm 0.00 in0.0 mm 0.00 in0.0 mm
08:33 PM 52.2°F11.2°C 42.7°F5.9°C 70% 7.0 mph NE11.3 kmh NE 18.0 mph29.0 kmh 30.28 in1025.4 mb 0.00 in0.0 mm 0.00 in0.0 mm 0.00 in0.0 mm
08:34 PM 52.1°F11.2°C 42.6°F5.9°C 70% 7.0 mph NE11.3 kmh NE 19.0 mph30.6 kmh 30.28 in1025.4 mb 0.00 in0.0 mm 0.00 in0.0 mm 0.00 in0.0 mm
08:36 PM 52.1°F11.2°C 42.6°F5.9°C 70% 8.0 mph NE12.9 kmh NE 19.0 mph30.6 kmh 30.28 in1025.4 mb 0.00 in0.0 mm 0.00 in0.0 mm 0.00 in0.0 mm
08:37 PM 52.0°F11.1°C 42.5°F5.8°C 70% 8.0 mph NE12.9 kmh NE 19.0 mph30.6 kmh 30.28 in1025.4 mb 0.00 in0.0 mm 0.00 in0.0 mm 0.00 in0.0 mm
08:39 PM 52.0°F11.1°C 42.5°F5.8°C 70% 9.0 mph NE14.5 kmh NE 19.0 mph30.6 kmh 30.28 in1025.4 mb 0.00 in0.0 mm 0.00 in0.0 mm 0.00 in0.0 mm
08:40 PM 51.9°F11.1°C 42.4°F5.8°C 70% 9.0 mph NE14.5 kmh NE 19.0 mph30.6 kmh 30.29 in1025.7 mb 0.00 in0.0 mm 0.00 in0.0 mm 0.00 in0.0 mm
08:42 PM 51.9°F11.1°C 42.4°F5.8°C 70% 8.0 mph NE12.9 kmh NE 19.0 mph30.6 kmh 30.29 in1025.7 mb 0.00 in0.0 mm 0.00 in0.0 mm 0.00 in0.0 mm
08:43 PM 51.8°F11.0°C 42.3°F5.7°C 70% 8.0 mph NE12.9 kmh NE 19.0 mph30.6 kmh 30.29 in1025.7 mb 0.00 in0.0 mm 0.00 in0.0 mm 0.00 in0.0 mm
08:45 PM 51.8°F11.0°C 42.3°F5.7°C 70% 8.0 mph NE12.9 kmh NE 19.0 mph30.6 kmh 30.29 in1025.7 mb 0.00 in0.0 mm 0.00 in0.0 mm 0.00 in0.0 mm
08:46 PM 51.7°F10.9°C 42.2°F5.7°C 70% 9.0 mph NE14.5 kmh NE 19.0 mph30.6 kmh 30.29 in1025.7 mb 0.00 in0.0 mm 0.00 in0.0 mm 0.00 in0.0 mm
08:48 PM 51.7°F10.9°C 42.6°F5.9°C 71% 8.0 mph NE12.9 kmh NE 19.0 mph30.6 kmh 30.29 in1025.7 mb 0.00 in0.0 mm 0.00 in0.0 mm 0.00 in0.0 mm
08:49 PM 51.6°F10.9°C 42.5°F5.8°C 71% 8.0 mph NE12.9 kmh NE 19.0 mph30.6 kmh 30.29 in1025.7 mb 0.00 in0.0 mm 0.00 in0.0 mm 0.00 in0.0 mm
08:51 PM 51.6°F10.9°C 42.5°F5.8°C 71% 8.0 mph NE12.9 kmh NE 19.0 mph30.6 kmh 30.29 in1025.7 mb 0.00 in0.0 mm 0.00 in0.0 mm 0.00 in0.0 mm
08:52 PM 51.5°F10.8°C 42.4°F5.8°C 71% 8.0 mph NE12.9 kmh NE 19.0 mph30.6 kmh 30.29 in1025.7 mb 0.00 in0.0 mm 0.00 in0.0 mm 0.00 in0.0 mm
08:54 PM 51.5°F10.8°C 42.4°F5.8°C 71% 7.0 mph NE11.3 kmh NE 17.0 mph27.4 kmh 30.29 in1025.7 mb 0.00 in0.0 mm 0.00 in0.0 mm 0.00 in0.0 mm
08:55 PM 51.4°F10.8°C 42.3°F5.7°C 71% 7.0 mph NE11.3 kmh NE 16.0 mph25.7 kmh 30.29 in1025.7 mb 0.00 in0.0 mm 0.00 in0.0 mm 0.00 in0.0 mm
08:57 PM 51.4°F10.8°C 42.3°F5.7°C 71% 7.0 mph NE11.3 kmh NE 14.0 mph22.5 kmh 30.29 in1025.7 mb 0.00 in0.0 mm 0.00 in0.0 mm 0.00 in0.0 mm
08:58 PM 51.3°F10.7°C 42.2°F5.7°C 71% 7.0 mph NE11.3 kmh NE 14.0 mph22.5 kmh 30.29 in1025.7 mb 0.00 in0.0 mm 0.00 in0.0 mm 0.00 in0.0 mm
09:00 PM 51.3°F10.7°C 42.6°F5.9°C 72% 7.0 mph NE11.3 kmh NE 14.0 mph22.5 kmh 30.29 in1025.7 mb 0.00 in0.0 mm 0.00 in0.0 mm 0.00 in0.0 mm
09:01 PM 51.2°F10.7°C 42.5°F5.8°C 72% 7.0 mph NE11.3 kmh NE 14.0 mph22.5 kmh 30.29 in1025.7 mb 0.00 in0.0 mm 0.00 in0.0 mm 0.00 in0.0 mm
09:03 PM 51.2°F10.7°C 42.5°F5.8°C 72% 6.0 mph NE9.7 kmh NE 14.0 mph22.5 kmh 30.29 in1025.7 mb 0.00 in0.0 mm 0.00 in0.0 mm 0.00 in0.0 mm
09:04 PM 51.2°F10.7°C 42.5°F5.8°C 72% 6.0 mph NE9.7 kmh NE 14.0 mph22.5 kmh 30.29 in1025.7 mb 0.00 in0.0 mm 0.00 in0.0 mm 0.00 in0.0 mm
09:06 PM 51.1°F10.6°C 42.4°F5.8°C 72% 6.0 mph NE9.7 kmh NE 17.0 mph27.4 kmh 30.29 in1025.7 mb 0.00 in0.0 mm 0.00 in0.0 mm 0.00 in0.0 mm
09:07 PM 51.1°F10.6°C 42.4°F5.8°C 72% 6.0 mph NE9.7 kmh NE 17.0 mph27.4 kmh 30.29 in1025.7 mb 0.00 in0.0 mm 0.00 in0.0 mm 0.00 in0.0 mm
09:09 PM 51.0°F10.6°C 42.3°F5.7°C 72% 6.0 mph NE9.7 kmh NE 17.0 mph27.4 kmh 30.29 in1025.7 mb 0.00 in0.0 mm 0.00 in0.0 mm 0.00 in0.0 mm
09:10 PM 51.0°F10.6°C 42.3°F5.7°C 72% 6.0 mph NE9.7 kmh NE 17.0 mph27.4 kmh 30.29 in1025.7 mb 0.00 in0.0 mm 0.00 in0.0 mm 0.00 in0.0 mm
09:12 PM 50.9°F10.5°C 42.2°F5.7°C 72% 6.0 mph NE9.7 kmh NE 17.0 mph27.4 kmh 30.29 in1025.7 mb 0.00 in0.0 mm 0.00 in0.0 mm 0.00 in0.0 mm
09:13 PM 50.9°F10.5°C 42.6°F5.9°C 73% 6.0 mph NE9.7 kmh NE 17.0 mph27.4 kmh 30.29 in1025.7 mb 0.00 in0.0 mm 0.00 in0.0 mm 0.00 in0.0 mm
09:14 PM 50.8°F10.4°C 42.5°F5.8°C 73% 6.0 mph NE9.7 kmh NE 17.0 mph27.4 kmh 30.30 in1026.1 mb 0.00 in0.0 mm 0.00 in0.0 mm 0.00 in0.0 mm
09:16 PM 50.8°F10.4°C 42.5°F5.8°C 73% 6.0 mph NE9.7 kmh NE 12.0 mph19.3 kmh 30.30 in1026.1 mb 0.00 in0.0 mm 0.00 in0.0 mm 0.00 in0.0 mm
09:17 PM 50.7°F10.4°C 42.4°F5.8°C 73% 6.0 mph NE9.7 kmh NE 12.0 mph19.3 kmh 30.30 in1026.1 mb 0.00 in0.0 mm 0.00 in0.0 mm 0.00 in0.0 mm
09:19 PM 50.7°F10.4°C 42.4°F5.8°C 73% 5.0 mph NE8.0 kmh NE 12.0 mph19.3 kmh 30.30 in1026.1 mb 0.00 in0.0 mm 0.00 in0.0 mm 0.00 in0.0 mm
09:20 PM 50.6°F10.3°C 42.3°F5.7°C 73% 5.0 mph NE8.0 kmh NE 12.0 mph19.3 kmh 30.30 in1026.1 mb 0.00 in0.0 mm 0.00 in0.0 mm 0.00 in0.0 mm
09:21 PM 50.6°F10.3°C 42.3°F5.7°C 73% 5.0 mph NE8.0 kmh NE 12.0 mph19.3 kmh 30.30 in1026.1 mb 0.00 in0.0 mm 0.00 in0.0 mm 0.00 in0.0 mm
09:23 PM 50.5°F10.3°C 42.5°F5.8°C 74% 5.0 mph NE8.0 kmh NE 12.0 mph19.3 kmh 30.30 in1026.1 mb 0.00 in0.0 mm 0.00 in0.0 mm 0.00 in0.0 mm
09:24 PM 50.5°F10.3°C 42.5°F5.8°C 74% 5.0 mph NE8.0 kmh NE 12.0 mph19.3 kmh 30.30 in1026.1 mb 0.00 in0.0 mm 0.00 in0.0 mm 0.00 in0.0 mm
09:26 PM 50.4°F10.2°C 42.4°F5.8°C 74% 5.0 mph NE8.0 kmh NE 12.0 mph19.3 kmh 30.30 in1026.1 mb 0.00 in0.0 mm 0.00 in0.0 mm 0.00 in0.0 mm
09:27 PM 50.4°F10.2°C 42.4°F5.8°C 74% 5.0 mph NE8.0 kmh NE 12.0 mph19.3 kmh 30.30 in1026.1 mb 0.00 in0.0 mm 0.00 in0.0 mm 0.00 in0.0 mm
09:29 PM 50.4°F10.2°C 42.4°F5.8°C 74% 4.0 mph NE6.4 kmh NE 12.0 mph19.3 kmh 30.30 in1026.1 mb 0.00 in0.0 mm 0.00 in0.0 mm 0.00 in0.0 mm
09:30 PM 50.4°F10.2°C 42.4°F5.8°C 74% 4.0 mph NE6.4 kmh NE 12.0 mph19.3 kmh 30.30 in1026.1 mb 0.00 in0.0 mm 0.00 in0.0 mm 0.00 in0.0 mm
09:31 PM 50.3°F10.2°C 42.3°F5.7°C 74% 5.0 mph NE8.0 kmh NE 12.0 mph19.3 kmh 30.30 in1026.1 mb 0.00 in0.0 mm 0.00 in0.0 mm 0.00 in0.0 mm
09:33 PM 50.3°F10.2°C 42.3°F5.7°C 74% 5.0 mph NE8.0 kmh NE 10.0 mph16.1 kmh 30.30 in1026.1 mb 0.00 in0.0 mm 0.00 in0.0 mm 0.00 in0.0 mm
09:34 PM 50.3°F10.2°C 42.3°F5.7°C 74% 5.0 mph NE8.0 kmh NE 11.0 mph17.7 kmh 30.30 in1026.1 mb 0.00 in0.0 mm 0.00 in0.0 mm 0.00 in0.0 mm
09:36 PM 50.3°F10.2°C 42.3°F5.7°C 74% 5.0 mph NE8.0 kmh NE 11.0 mph17.7 kmh 30.30 in1026.1 mb 0.00 in0.0 mm 0.00 in0.0 mm 0.00 in0.0 mm
09:37 PM 50.2°F10.1°C 42.2°F5.7°C 74% 5.0 mph NE8.0 kmh NE 11.0 mph17.7 kmh 30.30 in1026.1 mb 0.00 in0.0 mm 0.00 in0.0 mm 0.00 in0.0 mm
09:38 PM 50.2°F10.1°C 42.6°F5.9°C 75% 5.0 mph NE8.0 kmh NE 12.0 mph19.3 kmh 30.30 in1026.1 mb 0.00 in0.0 mm 0.00 in0.0 mm 0.00 in0.0 mm
09:40 PM 50.1°F10.1°C 42.5°F5.8°C 75% 6.0 mph NE9.7 kmh NE 12.0 mph19.3 kmh 30.30 in1026.1 mb 0.00 in0.0 mm 0.00 in0.0 mm 0.00 in0.0 mm
09:41 PM 50.1°F10.1°C 42.5°F5.8°C 75% 6.0 mph NE9.7 kmh NE 12.0 mph19.3 kmh 30.30 in1026.1 mb 0.00 in0.0 mm 0.00 in0.0 mm 0.00 in0.0 mm
09:43 PM 50.1°F10.1°C 42.5°F5.8°C 75% 6.0 mph NE9.7 kmh NE 12.0 mph19.3 kmh 30.30 in1026.1 mb 0.00 in0.0 mm 0.00 in0.0 mm 0.00 in0.0 mm
09:44 PM 50.1°F10.1°C 42.5°F5.8°C 75% 5.0 mph NE8.0 kmh NE 12.0 mph19.3 kmh 30.30 in1026.1 mb 0.00 in0.0 mm 0.00 in0.0 mm 0.00 in0.0 mm
09:46 PM 50.0°F10.0°C 42.4°F5.8°C 75% 5.0 mph NE8.0 kmh NE 12.0 mph19.3 kmh 30.30 in1026.1 mb 0.00 in0.0 mm 0.00 in0.0 mm 0.00 in0.0 mm
09:47 PM 50.0°F10.0°C 42.4°F5.8°C 75% 5.0 mph NE8.0 kmh NE 12.0 mph19.3 kmh 30.31 in1026.4 mb 0.00 in0.0 mm 0.00 in0.0 mm 0.00 in0.0 mm
09:49 PM 49.9°F9.9°C 42.3°F5.7°C 75% 5.0 mph NE8.0 kmh NE 12.0 mph19.3 kmh 30.31 in1026.4 mb 0.00 in0.0 mm 0.00 in0.0 mm 0.00 in0.0 mm
09:50 PM 49.9°F9.9°C 42.3°F5.7°C 75% 5.0 mph NE8.0 kmh NE 12.0 mph19.3 kmh 30.31 in1026.4 mb 0.00 in0.0 mm 0.00 in0.0 mm 0.00 in0.0 mm
09:52 PM 49.9°F9.9°C 42.3°F5.7°C 75% 5.0 mph NE8.0 kmh NE 10.0 mph16.1 kmh 30.31 in1026.4 mb 0.00 in0.0 mm 0.00 in0.0 mm 0.00 in0.0 mm
09:53 PM 49.8°F9.9°C 42.5°F5.8°C 76% 5.0 mph NE8.0 kmh NE 11.0 mph17.7 kmh 30.31 in1026.4 mb 0.00 in0.0 mm 0.00 in0.0 mm 0.00 in0.0 mm
09:55 PM 49.8°F9.9°C 42.5°F5.8°C 76% 5.0 mph NE8.0 kmh NE 12.0 mph19.3 kmh 30.31 in1026.4 mb 0.00 in0.0 mm 0.00 in0.0 mm 0.00 in0.0 mm
09:56 PM 49.8°F9.9°C 42.5°F5.8°C 76% 6.0 mph NE9.7 kmh NE 15.0 mph24.1 kmh 30.30 in1026.1 mb 0.00 in0.0 mm 0.00 in0.0 mm 0.00 in0.0 mm
09:58 PM 49.7°F9.8°C 42.4°F5.8°C 76% 6.0 mph NE9.7 kmh NE 18.0 mph29.0 kmh 30.31 in1026.4 mb 0.00 in0.0 mm 0.00 in0.0 mm 0.00 in0.0 mm
09:59 PM 49.7°F9.8°C 42.4°F5.8°C 76% 7.0 mph NE11.3 kmh NE 18.0 mph29.0 kmh 30.31 in1026.4 mb 0.00 in0.0 mm 0.00 in0.0 mm 0.00 in0.0 mm
10:00 PM 49.7°F9.8°C 42.4°F5.8°C 76% 7.0 mph NE11.3 kmh NE 18.0 mph29.0 kmh 30.31 in1026.4 mb 0.00 in0.0 mm 0.00 in0.0 mm 0.00 in0.0 mm
10:01 PM 49.7°F9.8°C 42.4°F5.8°C 76% 7.0 mph NE11.3 kmh NE 18.0 mph29.0 kmh 30.30 in1026.1 mb 0.00 in0.0 mm 0.00 in0.0 mm 0.00 in0.0 mm
10:02 PM 49.7°F9.8°C 42.4°F5.8°C 76% 8.0 mph NE12.9 kmh NE 18.0 mph29.0 kmh 30.31 in1026.4 mb 0.00 in0.0 mm 0.00 in0.0 mm 0.00 in0.0 mm
10:04 PM 49.7°F9.8°C 42.4°F5.8°C 76% 8.0 mph NE12.9 kmh NE 18.0 mph29.0 kmh 30.31 in1026.4 mb 0.00 in0.0 mm 0.00 in0.0 mm 0.00 in0.0 mm
10:05 PM 49.6°F9.8°C 42.3°F5.7°C 76% 7.0 mph NE11.3 kmh NE 18.0 mph29.0 kmh 30.30 in1026.1 mb 0.00 in0.0 mm 0.00 in0.0 mm 0.00 in0.0 mm
10:07 PM 49.6°F9.8°C 42.3°F5.7°C 76% 6.0 mph NE9.7 kmh NE 18.0 mph29.0 kmh 30.30 in1026.1 mb 0.00 in0.0 mm 0.00 in0.0 mm 0.00 in0.0 mm
10:08 PM 49.6°F9.8°C 42.3°F5.7°C 76% 6.0 mph NE9.7 kmh NE 16.0 mph25.7 kmh 30.30 in1026.1 mb 0.00 in0.0 mm 0.00 in0.0 mm 0.00 in0.0 mm
10:10 PM 49.5°F9.7°C 42.2°F5.7°C 76% 5.0 mph NE8.0 kmh NE 16.0 mph25.7 kmh 30.30 in1026.1 mb 0.00 in0.0 mm 0.00 in0.0 mm 0.00 in0.0 mm
10:11 PM 49.5°F9.7°C 42.2°F5.7°C 76% 5.0 mph NE8.0 kmh NE 16.0 mph25.7 kmh 30.30 in1026.1 mb 0.00 in0.0 mm 0.00 in0.0 mm 0.00 in0.0 mm
10:13 PM 49.5°F9.7°C 42.2°F5.7°C 76% 5.0 mph NE8.0 kmh NE 15.0 mph24.1 kmh 30.31 in1026.4 mb 0.00 in0.0 mm 0.00 in0.0 mm 0.00 in0.0 mm
10:14 PM 49.4°F9.7°C 42.1°F5.6°C 76% 4.0 mph NE6.4 kmh NE 15.0 mph24.1 kmh 30.31 in1026.4 mb 0.00 in0.0 mm 0.00 in0.0 mm 0.00 in0.0 mm
10:16 PM 49.4°F9.7°C 42.5°F5.8°C 77% 5.0 mph NE8.0 kmh NE 15.0 mph24.1 kmh 30.31 in1026.4 mb 0.00 in0.0 mm 0.00 in0.0 mm 0.00 in0.0 mm
10:17 PM 49.3°F9.6°C 42.4°F5.8°C 77% 5.0 mph NE8.0 kmh NE 12.0 mph19.3 kmh 30.31 in1026.4 mb 0.00 in0.0 mm 0.00 in0.0 mm 0.00 in0.0 mm
10:19 PM 49.3°F9.6°C 42.4°F5.8°C 77% 4.0 mph NE6.4 kmh NE 12.0 mph19.3 kmh 30.31 in1026.4 mb 0.00 in0.0 mm 0.00 in0.0 mm 0.00 in0.0 mm
10:20 PM 49.2°F9.6°C 42.3°F5.7°C 77% 4.0 mph NE6.4 kmh NE 12.0 mph19.3 kmh 30.31 in1026.4 mb 0.00 in0.0 mm 0.00 in0.0 mm 0.00 in0.0 mm
10:21 PM 49.2°F9.6°C 42.3°F5.7°C 77% 4.0 mph NE6.4 kmh NE 12.0 mph19.3 kmh 30.31 in1026.4 mb 0.00 in0.0 mm 0.00 in0.0 mm 0.00 in0.0 mm
10:23 PM 49.1°F9.5°C 42.2°F5.7°C 77% 4.0 mph NE6.4 kmh NE 12.0 mph19.3 kmh 30.31 in1026.4 mb 0.00 in0.0 mm 0.00 in0.0 mm 0.00 in0.0 mm
10:24 PM 49.1°F9.5°C 42.2°F5.7°C 77% 4.0 mph NE6.4 kmh NE 10.0 mph16.1 kmh 30.31 in1026.4 mb 0.00 in0.0 mm 0.00 in0.0 mm 0.00 in0.0 mm
10:26 PM 49.0°F9.4°C 42.1°F5.6°C 77% 4.0 mph NE6.4 kmh NE 12.0 mph19.3 kmh 30.31 in1026.4 mb 0.00 in0.0 mm 0.00 in0.0 mm 0.00 in0.0 mm
10:27 PM 49.0°F9.4°C 42.1°F5.6°C 77% 5.0 mph NE8.0 kmh NE 12.0 mph19.3 kmh 30.31 in1026.4 mb 0.00 in0.0 mm 0.00 in0.0 mm 0.00 in0.0 mm
10:29 PM 49.0°F9.4°C 42.1°F5.6°C 77% 5.0 mph NE8.0 kmh NE 12.0 mph19.3 kmh 30.31 in1026.4 mb 0.00 in0.0 mm 0.00 in0.0 mm 0.00 in0.0 mm
10:30 PM 49.0°F9.4°C 42.4°F5.8°C 78% 5.0 mph NE8.0 kmh NE 12.0 mph19.3 kmh 30.31 in1026.4 mb 0.00 in0.0 mm 0.00 in0.0 mm 0.00 in0.0 mm
10:32 PM 48.9°F9.4°C 42.3°F5.7°C 78% 5.0 mph NE8.0 kmh NE 12.0 mph19.3 kmh 30.31 in1026.4 mb 0.00 in0.0 mm 0.00 in0.0 mm 0.00 in0.0 mm
10:33 PM 48.9°F9.4°C 42.3°F5.7°C 78% 6.0 mph NE9.7 kmh NE 12.0 mph19.3 kmh 30.31 in1026.4 mb 0.00 in0.0 mm 0.00 in0.0 mm 0.00 in0.0 mm
10:35 PM 48.9°F9.4°C 42.3°F5.7°C 78% 7.0 mph NE11.3 kmh NE 12.0 mph19.3 kmh 30.31 in1026.4 mb 0.00 in0.0 mm 0.00 in0.0 mm 0.00 in0.0 mm
10:36 PM 48.9°F9.4°C 42.3°F5.7°C 78% 7.0 mph NE11.3 kmh NE 14.0 mph22.5 kmh 30.31 in1026.4 mb 0.00 in0.0 mm 0.00 in0.0 mm 0.00 in0.0 mm
10:38 PM 48.9°F9.4°C 42.3°F5.7°C 78% 6.0 mph NE9.7 kmh NE 14.0 mph22.5 kmh 30.31 in1026.4 mb 0.00 in0.0 mm 0.00 in0.0 mm 0.00 in0.0 mm
10:39 PM 48.8°F9.3°C 42.2°F5.7°C 78% 6.0 mph NE9.7 kmh NE 14.0 mph22.5 kmh 30.31 in1026.4 mb 0.00 in0.0 mm 0.00 in0.0 mm 0.00 in0.0 mm
10:41 PM 48.8°F9.3°C 42.2°F5.7°C 78% 7.0 mph NE11.3 kmh NE 14.0 mph22.5 kmh 30.31 in1026.4 mb 0.00 in0.0 mm 0.00 in0.0 mm 0.00 in0.0 mm
10:42 PM 48.8°F9.3°C 42.2°F5.7°C 78% 7.0 mph NE11.3 kmh NE 15.0 mph24.1 kmh 30.31 in1026.4 mb 0.00 in0.0 mm 0.00 in0.0 mm 0.00 in0.0 mm
10:44 PM 48.8°F9.3°C 42.2°F5.7°C 78% 6.0 mph NE9.7 kmh NE 15.0 mph24.1 kmh 30.31 in1026.4 mb 0.00 in0.0 mm 0.00 in0.0 mm 0.00 in0.0 mm
10:45 PM 48.8°F9.3°C 42.2°F5.7°C 78% 7.0 mph NE11.3 kmh NE 15.0 mph24.1 kmh 30.31 in1026.4 mb 0.00 in0.0 mm 0.00 in0.0 mm 0.00 in0.0 mm
10:47 PM 48.7°F9.3°C 42.1°F5.6°C 78% 8.0 mph NE12.9 kmh NE 16.0 mph25.7 kmh 30.31 in1026.4 mb 0.00 in0.0 mm 0.00 in0.0 mm 0.00 in0.0 mm
10:48 PM 48.7°F9.3°C 42.1°F5.6°C 78% 8.0 mph NE12.9 kmh NE 16.0 mph25.7 kmh 30.31 in1026.4 mb 0.00 in0.0 mm 0.00 in0.0 mm 0.00 in0.0 mm
10:50 PM 48.7°F9.3°C 42.1°F5.6°C 78% 7.0 mph NE11.3 kmh NE 16.0 mph25.7 kmh 30.31 in1026.4 mb 0.00 in0.0 mm 0.00 in0.0 mm 0.00 in0.0 mm
10:51 PM 48.7°F9.3°C 42.1°F5.6°C 78% 7.0 mph NE11.3 kmh NE 16.0 mph25.7 kmh 30.31 in1026.4 mb 0.00 in0.0 mm 0.00 in0.0 mm 0.00 in0.0 mm
10:53 PM 48.7°F9.3°C 42.1°F5.6°C 78% 7.0 mph NE11.3 kmh NE 16.0 mph25.7 kmh 30.31 in1026.4 mb 0.00 in0.0 mm 0.00 in0.0 mm 0.00 in0.0 mm
10:54 PM 48.6°F9.2°C 42.0°F5.6°C 78% 7.0 mph NE11.3 kmh NE 16.0 mph25.7 kmh 30.31 in1026.4 mb 0.00 in0.0 mm 0.00 in0.0 mm 0.00 in0.0 mm
10:56 PM 48.6°F9.2°C 42.0°F5.6°C 78% 6.0 mph NE9.7 kmh NE 16.0 mph25.7 kmh 30.31 in1026.4 mb 0.00 in0.0 mm 0.00 in0.0 mm 0.00 in0.0 mm
10:57 PM 48.6°F9.2°C 42.0°F5.6°C 78% 5.0 mph NE8.0 kmh NE 13.0 mph20.9 kmh 30.31 in1026.4 mb 0.00 in0.0 mm 0.00 in0.0 mm 0.00 in0.0 mm
10:59 PM 48.5°F9.2°C 42.0°F5.6°C 78% 5.0 mph NE8.0 kmh NE 13.0 mph20.9 kmh 30.31 in1026.4 mb 0.00 in0.0 mm 0.00 in0.0 mm 0.00 in0.0 mm
11:00 PM 48.5°F9.2°C 42.0°F5.6°C 78% 5.0 mph NE8.0 kmh NE 13.0 mph20.9 kmh 30.31 in1026.4 mb 0.00 in0.0 mm 0.00 in0.0 mm 0.00 in0.0 mm
11:01 PM 48.4°F9.1°C 41.9°F5.5°C 78% 5.0 mph NE8.0 kmh NE 13.0 mph20.9 kmh 30.31 in1026.4 mb 0.00 in0.0 mm 0.00 in0.0 mm 0.00 in0.0 mm
11:03 PM 48.4°F9.1°C 42.2°F5.7°C 79% 5.0 mph NE8.0 kmh NE 12.0 mph19.3 kmh 30.30 in1026.1 mb 0.00 in0.0 mm 0.00 in0.0 mm 0.00 in0.0 mm
11:04 PM 48.4°F9.1°C 42.2°F5.7°C 79% 4.0 mph NE6.4 kmh NE 12.0 mph19.3 kmh 30.30 in1026.1 mb 0.00 in0.0 mm 0.00 in0.0 mm 0.00 in0.0 mm
11:05 PM 48.3°F9.1°C 42.1°F5.6°C 79% 4.0 mph NE6.4 kmh NE 12.0 mph19.3 kmh 30.30 in1026.1 mb 0.00 in0.0 mm 0.00 in0.0 mm 0.00 in0.0 mm
11:07 PM 48.3°F9.1°C 42.1°F5.6°C 79% 4.0 mph NE6.4 kmh NE 12.0 mph19.3 kmh 30.30 in1026.1 mb 0.00 in0.0 mm 0.00 in0.0 mm 0.00 in0.0 mm
11:08 PM 48.3°F9.1°C 42.1°F5.6°C 79% 5.0 mph NE8.0 kmh NE 13.0 mph20.9 kmh 30.30 in1026.1 mb 0.00 in0.0 mm 0.00 in0.0 mm 0.00 in0.0 mm
11:10 PM 48.3°F9.1°C 42.1°F5.6°C 79% 5.0 mph NE8.0 kmh NE 13.0 mph20.9 kmh 30.30 in1026.1 mb 0.00 in0.0 mm 0.00 in0.0 mm 0.00 in0.0 mm
11:11 PM 48.3°F9.1°C 42.1°F5.6°C 79% 6.0 mph NE9.7 kmh NE 13.0 mph20.9 kmh 30.30 in1026.1 mb 0.00 in0.0 mm 0.00 in0.0 mm 0.00 in0.0 mm
11:13 PM 48.2°F9.0°C 42.0°F5.6°C 79% 6.0 mph NE9.7 kmh NE 13.0 mph20.9 kmh 30.30 in1026.1 mb 0.00 in0.0 mm 0.00 in0.0 mm 0.00 in0.0 mm
11:14 PM 48.2°F9.0°C 42.0°F5.6°C 79% 6.0 mph NE9.7 kmh NE 13.0 mph20.9 kmh 30.31 in1026.4 mb 0.00 in0.0 mm 0.00 in0.0 mm 0.00 in0.0 mm
11:16 PM 48.2°F9.0°C 42.0°F5.6°C 79% 7.0 mph NE11.3 kmh NE 13.0 mph20.9 kmh 30.30 in1026.1 mb 0.00 in0.0 mm 0.00 in0.0 mm 0.00 in0.0 mm
11:17 PM 48.2°F9.0°C 42.0°F5.6°C 79% 7.0 mph NE11.3 kmh NE 13.0 mph20.9 kmh 30.30 in1026.1 mb 0.00 in0.0 mm 0.00 in0.0 mm 0.00 in0.0 mm
11:19 PM 48.1°F8.9°C 41.9°F5.5°C 79% 6.0 mph NE9.7 kmh NE 13.0 mph20.9 kmh 30.30 in1026.1 mb 0.00 in0.0 mm 0.00 in0.0 mm 0.00 in0.0 mm
11:20 PM 48.1°F8.9°C 41.9°F5.5°C 79% 6.0 mph NE9.7 kmh NE 13.0 mph20.9 kmh 30.30 in1026.1 mb 0.00 in0.0 mm 0.00 in0.0 mm 0.00 in0.0 mm
11:22 PM 48.1°F8.9°C 41.9°F5.5°C 79% 5.0 mph NE8.0 kmh NE 14.0 mph22.5 kmh 30.30 in1026.1 mb 0.00 in0.0 mm 0.00 in0.0 mm 0.00 in0.0 mm
11:23 PM 48.1°F8.9°C 41.9°F5.5°C 79% 5.0 mph NE8.0 kmh NE 15.0 mph24.1 kmh 30.30 in1026.1 mb 0.00 in0.0 mm 0.00 in0.0 mm 0.00 in0.0 mm
11:25 PM 48.0°F8.9°C 41.8°F5.4°C 79% 5.0 mph NE8.0 kmh NE 15.0 mph24.1 kmh 30.30 in1026.1 mb 0.00 in0.0 mm 0.00 in0.0 mm 0.00 in0.0 mm
11:26 PM 48.0°F8.9°C 41.8°F5.4°C 79% 5.0 mph NE8.0 kmh NE 15.0 mph24.1 kmh 30.30 in1026.1 mb 0.00 in0.0 mm 0.00 in0.0 mm 0.00 in0.0 mm
11:28 PM 47.9°F8.8°C 41.7°F5.4°C 79% 6.0 mph NE9.7 kmh NE 15.0 mph24.1 kmh 30.30 in1026.1 mb 0.00 in0.0 mm 0.00 in0.0 mm 0.00 in0.0 mm
11:29 PM 47.9°F8.8°C 41.7°F5.4°C 79% 6.0 mph NE9.7 kmh NE 15.0 mph24.1 kmh 30.30 in1026.1 mb 0.00 in0.0 mm 0.00 in0.0 mm 0.00 in0.0 mm
11:31 PM 47.9°F8.8°C 41.7°F5.4°C 79% 5.0 mph NE8.0 kmh NE 15.0 mph24.1 kmh 30.30 in1026.1 mb 0.00 in0.0 mm 0.00 in0.0 mm 0.00 in0.0 mm
11:32 PM 47.9°F8.8°C 41.7°F5.4°C 79% 5.0 mph NE8.0 kmh NE 15.0 mph24.1 kmh 30.30 in1026.1 mb 0.00 in0.0 mm 0.00 in0.0 mm 0.00 in0.0 mm
11:34 PM 47.9°F8.8°C 41.7°F5.4°C 79% 5.0 mph NE8.0 kmh NE 15.0 mph24.1 kmh 30.30 in1026.1 mb 0.00 in0.0 mm 0.00 in0.0 mm 0.00 in0.0 mm
11:35 PM 47.8°F8.8°C 41.6°F5.3°C 79% 5.0 mph NE8.0 kmh NE 15.0 mph24.1 kmh 30.30 in1026.1 mb 0.00 in0.0 mm 0.00 in0.0 mm 0.00 in0.0 mm
11:37 PM 47.8°F8.8°C 41.6°F5.3°C 79% 5.0 mph NE8.0 kmh NE 11.0 mph17.7 kmh 30.30 in1026.1 mb 0.00 in0.0 mm 0.00 in0.0 mm 0.00 in0.0 mm
11:38 PM 47.7°F8.7°C 41.5°F5.3°C 79% 5.0 mph NE8.0 kmh NE 11.0 mph17.7 kmh 30.30 in1026.1 mb 0.00 in0.0 mm 0.00 in0.0 mm 0.00 in0.0 mm
11:40 PM 47.7°F8.7°C 41.5°F5.3°C 79% 5.0 mph NE8.0 kmh NE 11.0 mph17.7 kmh 30.31 in1026.4 mb 0.00 in0.0 mm 0.00 in0.0 mm 0.00 in0.0 mm
11:41 PM 47.7°F8.7°C 41.5°F5.3°C 79% 5.0 mph NE8.0 kmh NE 11.0 mph17.7 kmh 30.30 in1026.1 mb 0.00 in0.0 mm 0.00 in0.0 mm 0.00 in0.0 mm
11:43 PM 47.7°F8.7°C 41.5°F5.3°C 79% 5.0 mph NE8.0 kmh NE 13.0 mph20.9 kmh 30.31 in1026.4 mb 0.00 in0.0 mm 0.00 in0.0 mm 0.00 in0.0 mm
11:44 PM 47.7°F8.7°C 41.5°F5.3°C 79% 5.0 mph NE8.0 kmh NE 13.0 mph20.9 kmh 30.30 in1026.1 mb 0.00 in0.0 mm 0.00 in0.0 mm 0.00 in0.0 mm
11:45 PM 47.6°F8.7°C 41.4°F5.2°C 79% 5.0 mph NE8.0 kmh NE 13.0 mph20.9 kmh 30.31 in1026.4 mb 0.00 in0.0 mm 0.00 in0.0 mm 0.00 in0.0 mm
11:46 PM 47.6°F8.7°C 41.4°F5.2°C 79% 5.0 mph NE8.0 kmh NE 13.0 mph20.9 kmh 30.31 in1026.4 mb 0.00 in0.0 mm 0.00 in0.0 mm 0.00 in0.0 mm
11:47 PM 47.6°F8.7°C 41.4°F5.2°C 79% 6.0 mph NE9.7 kmh NE 13.0 mph20.9 kmh 30.30 in1026.1 mb 0.00 in0.0 mm 0.00 in0.0 mm 0.00 in0.0 mm
11:49 PM 47.6°F8.7°C 41.4°F5.2°C 79% 6.0 mph NE9.7 kmh NE 13.0 mph20.9 kmh 30.31 in1026.4 mb 0.00 in0.0 mm 0.00 in0.0 mm 0.00 in0.0 mm
11:50 PM 47.6°F8.7°C 41.4°F5.2°C 79% 6.0 mph NE9.7 kmh NE 13.0 mph20.9 kmh 30.30 in1026.1 mb 0.00 in0.0 mm 0.00 in0.0 mm 0.00 in0.0 mm
11:52 PM 47.5°F8.6°C 41.3°F5.2°C 79% 5.0 mph NE8.0 kmh NE 13.0 mph20.9 kmh 30.30 in1026.1 mb 0.00 in0.0 mm 0.00 in0.0 mm 0.00 in0.0 mm
11:53 PM 47.5°F8.6°C 41.3°F5.2°C 79% 5.0 mph NE8.0 kmh NE 13.0 mph20.9 kmh 30.30 in1026.1 mb 0.00 in0.0 mm 0.00 in0.0 mm 0.00 in0.0 mm
11:55 PM 47.5°F8.6°C 41.6°F5.3°C 80% 5.0 mph NE8.0 kmh NE 13.0 mph20.9 kmh 30.30 in1026.1 mb 0.00 in0.0 mm 0.00 in0.0 mm 0.00 in0.0 mm
11:56 PM 47.5°F8.6°C 41.6°F5.3°C 80% 5.0 mph NE8.0 kmh NE 17.0 mph27.4 kmh 30.30 in1026.1 mb 0.00 in0.0 mm 0.00 in0.0 mm 0.00 in0.0 mm
11:58 PM 47.4°F8.6°C 41.5°F5.3°C 80% 5.0 mph NE8.0 kmh NE 17.0 mph27.4 kmh 30.30 in1026.1 mb 0.00 in0.0 mm 0.00 in0.0 mm 0.00 in0.0 mm
11:59 PM 47.4°F8.6°C 41.5°F5.3°C 80% 5.0 mph NE8.0 kmh NE 17.0 mph27.4 kmh 30.30 in1026.1 mb 0.00 in0.0 mm 0.00 in0.0 mm 0.00 in0.0 mm